Provisional Data: Chemung River near Elmira, NY


Please select a monitoring station.
Please select start date.
Please select start date.

Toggle Unit: C/F Toggle Unit: C/F
Sample Time Temperature (C) Temperature (F) Specific Conductivity (mS/cm) pH   Turbidity (NTU+) DO (mg/L)
10/20/2020 12:24:10 AM 10.4925 50.8865 498.6 8.032499 5.957497 10.4925
10/20/2020 12:54:10 AM 10.5225 50.9405 498.2499 8.028999 4.845001 10.5225
10/20/2020 1:24:10 AM 10.5425 50.9765 498.2499 8.023399 3.267502 10.5425
10/20/2020 1:39:10 AM 10.56 51.008 498.2 8.022699 3.110001 10.56
10/20/2020 1:54:10 AM 10.595 51.071 497.5 8.018499 3.059998 10.595
10/20/2020 2:09:10 AM 10.6675 51.2015 496.85 8.016399 2.989998 10.6675
10/20/2020 2:24:10 AM 10.6825 51.2285 496.8 8.017799 2.987503 10.6825
10/20/2020 2:39:10 AM 10.665 51.197 497.15 8.017099 2.972504 10.665
10/20/2020 3:09:10 AM 10.665 51.197 497.55 8.012899 2.919998 10.665
10/20/2020 3:24:10 AM 10.665 51.197 497.55 8.010099 2.902496 10.665
10/20/2020 3:54:10 AM 10.6475 51.1655 497.9 8.007999 2.940002 10.6475
10/20/2020 4:24:10 AM 10.6475 51.1655 498.2499 8.008699 2.919998 10.6475
10/20/2020 4:39:10 AM 10.645 51.161 498.55 8.014299 2.885002 10.645
10/20/2020 4:54:10 AM 10.6475 51.1655 498.6 8.012899 2.887497 10.6475
10/20/2020 5:09:10 AM 10.6675 51.2015 498.6 8.011499 2.902496 10.6675
10/20/2020 5:24:10 AM 10.6625 51.1925 498.6 8.019199 2.902496 10.6625
10/20/2020 5:39:10 AM 10.6475 51.1655 498.6 8.007999 2.885002 10.6475
10/20/2020 5:54:10 AM 10.665 51.197 498.55 8.012899 2.917503 10.665
10/20/2020 6:09:10 AM 10.665 51.197 498.6 8.013599 2.870003 10.665
10/20/2020 6:24:10 AM 10.665 51.197 498.55 8.012199 2.8675 10.665
10/20/2020 6:39:10 AM 10.6825 51.2285 498.9 8.017799 2.885002 10.6825
10/20/2020 6:54:10 AM 10.6825 51.2285 498.55 8.017099 2.887497 10.6825
10/20/2020 7:09:10 AM 10.7 51.26 498.2499 8.021999 2.902496 10.7
10/20/2020 7:24:10 AM 10.6975 51.2555 498.2 8.023399 2.885002 10.6975
10/20/2020 7:39:10 AM 10.6975 51.2555 497.9 8.024099 2.885002 10.6975
10/20/2020 7:54:10 AM 10.7 51.26 497.9 8.028299 2.902496 10.7
10/20/2020 8:24:10 AM 10.715 51.287 497.9 8.027599 2.902496 10.715
10/20/2020 8:39:10 AM 10.735 51.323 497.5 8.032499 2.955002 10.735
10/20/2020 9:09:11 AM 10.75 51.35 497.55 8.032499 2.847504 10.75
10/20/2020 9:39:10 AM 10.7875 51.4175 497.5 8.035999 2.849998 10.7875
10/20/2020 10:09:11 AM 10.8025 51.4445 497.55 8.037399 2.8675 10.8025
10/20/2020 10:24:10 AM 10.8175 51.4715 497.5 8.038099 2.832497 10.8175
10/20/2020 10:54:11 AM 10.855 51.539 497.2 8.041599 2.800003 10.855
10/20/2020 11:09:10 AM 10.8875 51.5975 497.2 8.047199 2.817497 10.8875
10/20/2020 11:24:10 AM 10.905 51.629 497.2 8.052099 2.797501 10.905
10/20/2020 11:39:10 AM 10.8875 51.5975 497.85 8.056999 2.815002 10.8875
10/20/2020 11:54:10 AM 10.8525 51.5345 498.2499 8.061199 2.797501 10.8525
10/20/2020 12:24:11 PM 10.855 51.539 499.3 8.070999 2.782501 10.855
10/20/2020 12:39:10 PM 10.855 51.539 500.6499 8.067499 2.8675 10.855
10/20/2020 12:54:10 PM 10.8575 51.5435 501.3501 8.066799 2.8675 10.8575
10/20/2020 1:24:10 PM 10.8375 51.5075 500.3 8.068199 2.797501 10.8375
10/20/2020 1:54:10 PM 10.8225 51.4805 500 8.081499 2.75 10.8225
10/20/2020 2:24:10 PM 10.8425 51.5165 502.1 8.080799 2.82 10.8425
10/20/2020 2:54:10 PM 10.8375 51.5075 502.7501 8.080799 2.817497 10.8375
10/20/2020 3:09:10 PM 10.84 51.512 503.8 8.066799 2.872498 10.84
10/20/2020 3:24:10 PM 10.84 51.512 504.85 8.052099 2.872498 10.84
10/20/2020 3:54:11 PM 10.84 51.512 505.55 8.047899 2.887497 10.84
10/20/2020 4:09:10 PM 10.825 51.485 505.5 8.047199 2.815002 10.825
10/20/2020 4:24:10 PM 10.8225 51.4805 506.2499 8.048599 2.800003 10.8225
10/20/2020 4:39:10 PM 10.805 51.449 505.9 8.049299 2.782501 10.805
10/20/2020 4:54:10 PM 10.8075 51.4535 506.2499 8.046499 2.785004 10.8075
10/20/2020 5:24:10 PM 10.8075 51.4535 506.3 8.042299 2.787498 10.8075
10/20/2020 5:39:10 PM 10.79 51.422 506.6 8.038099 2.764999 10.79
10/20/2020 5:54:10 PM 10.7725 51.3905 506.9501 8.039499 2.767502 10.7725
10/20/2020 6:24:11 PM 10.755 51.359 506.9501 8.033899 2.769997 10.755
10/20/2020 6:39:10 PM 10.77 51.386 507.3 8.029699 2.767502 10.77
10/20/2020 6:54:10 PM 10.7525 51.3545 507.6 8.024799 2.767502 10.7525
10/20/2020 7:24:11 PM 10.72 51.296 508.7 8.013599 2.769997 10.72
10/20/2020 7:39:10 PM 10.7025 51.2645 508.7 8.014999 2.800003 10.7025
10/20/2020 7:54:10 PM 10.7025 51.2645 509.0499 8.008699 2.785004 10.7025
10/20/2020 8:09:10 PM 10.685 51.233 509.3501 8.004499 2.802498 10.685
10/20/2020 8:24:10 PM 10.685 51.233 509.4 7.998199 2.837502 10.685
10/20/2020 8:39:10 PM 10.67 51.206 509.7501 7.993299 2.837502 10.67
10/20/2020 8:54:10 PM 10.6675 51.2015 510.1 7.993999 2.855003 10.6675
10/20/2020 9:09:10 PM 10.65 51.17 510.1 7.9849 2.875 10.65
10/20/2020 9:24:10 PM 10.65 51.17 510.1 7.9842 2.837502 10.65
10/20/2020 9:39:10 PM 10.6325 51.1385 510.1 7.9814 2.852501 10.6325
10/20/2020 9:54:10 PM 10.635 51.143 510.4 7.9786 2.855003 10.635
10/20/2020 10:09:10 PM 10.6175 51.1115 510.45 7.9744 2.889999 10.6175
10/20/2020 10:24:10 PM 10.615 51.107 510.4 7.9709 2.870003 10.615
10/20/2020 10:39:10 PM 10.6175 51.1115 510.7501 7.9709 2.872498 10.6175
10/20/2020 10:54:10 PM 10.6 51.08 510.8 7.9646 2.834999 10.6
10/20/2020 11:24:10 PM 10.6 51.08 511.8 7.9506 2.857498 10.6
10/20/2020 11:39:10 PM 10.6 51.08 511.8 7.9499 2.82 10.6
10/21/2020 12:24:10 AM 10.5975 51.0755 513.15 7.9415 4.277496 10.5975
10/21/2020 12:54:10 AM 10.6175 51.1115 513.2 7.9345 3.650002 10.6175
10/21/2020 1:24:10 AM 10.6175 51.1115 513.9 7.9303 3.0625 10.6175
10/21/2020 1:39:10 AM 10.615 51.107 514.2 7.9317 2.989998 10.615
10/21/2020 1:54:10 AM 10.6175 51.1115 514.2 7.931 2.9925 10.6175
10/21/2020 2:09:10 AM 10.615 51.107 514.2 7.9324 2.922501 10.615
10/21/2020 2:24:10 AM 10.635 51.143 514.6 7.931 2.922501 10.635
10/21/2020 2:39:10 AM 10.635 51.143 514.2499 7.9303 2.942497 10.635
10/21/2020 2:54:10 AM 10.635 51.143 514.55 7.9303 2.940002 10.635
10/21/2020 3:09:10 AM 10.635 51.143 514.55 7.931 2.942497 10.635
10/21/2020 3:24:10 AM 10.635 51.143 514.55 7.931 2.942497 10.635
10/21/2020 3:39:10 AM 10.635 51.143 514.9 7.931 2.940002 10.635
10/21/2020 3:54:10 AM 10.6325 51.1385 515.2499 7.9366 2.942497 10.6325
10/21/2020 4:24:11 AM 10.635 51.143 514.9501 7.931 2.942497 10.635
10/21/2020 4:39:10 AM 10.65 51.17 515.6 7.9366 2.940002 10.65
10/21/2020 4:54:10 AM 10.65 51.17 515.3 7.9373 2.942497 10.65
10/21/2020 5:09:10 AM 10.65 51.17 515.6 7.9359 2.940002 10.65
10/21/2020 5:24:10 AM 10.65 51.17 515.6 7.9394 2.942497 10.6675
10/21/2020 5:54:10 AM 10.685 51.233 515.6 7.9415 2.942497 10.685
10/21/2020 6:09:10 AM 10.685 51.233 515.9501 7.9408 2.940002 10.685
10/21/2020 6:24:10 AM 10.685 51.233 515.9501 7.9415 2.957497 10.685
10/21/2020 6:39:10 AM 10.6875 51.2375 516.3 7.9394 2.940002 10.6875
10/21/2020 6:54:10 AM 10.685 51.233 516.2499 7.9359 2.957497 10.685
10/21/2020 7:09:10 AM 10.6875 51.2375 516.6499 7.9352 2.977501 10.6875
10/21/2020 7:24:10 AM 10.6675 51.2015 517 7.9359 2.974998 10.6675
10/21/2020 7:39:10 AM 10.6675 51.2015 517 7.9317 2.974998 10.6675
10/21/2020 7:54:10 AM 10.6675 51.2015 517 7.9261 3.027496 10.6675
10/21/2020 8:24:10 AM 10.65 51.17 517.3501 7.9275 2.974998 10.65
10/21/2020 8:39:10 AM 10.65 51.17 517.3 7.9226 2.959999 10.65
10/21/2020 8:54:10 AM 10.6675 51.2015 517.3501 7.9268 2.9925 10.6675
10/21/2020 9:24:10 AM 10.685 51.233 517.3501 7.9247 2.959999 10.685
10/21/2020 9:39:10 AM 10.72 51.296 516.9501 7.9275 2.974998 10.72
10/21/2020 9:54:10 AM 10.7525 51.3545 516.6 7.9275 2.957497 10.7525
10/21/2020 10:09:10 AM 10.805 51.449 516.6 7.9275 2.9375 10.805
10/21/2020 10:24:10 AM 10.8575 51.5435 516.55 7.9247 2.955002 10.8575
10/21/2020 10:39:10 AM 10.925 51.665 516.6 7.931 2.955002 10.925
10/21/2020 10:54:10 AM 10.9775 51.7595 516.9 7.9338 2.972504 10.9775
10/21/2020 11:24:10 AM 11.22 52.196 515.15 7.938 2.970001 11.22
10/21/2020 11:39:10 AM 11.3725 52.4705 514.1 7.938 3.040001 11.3725
10/21/2020 12:09:10 PM 11.51 52.718 513.4 7.9436 2.985001 11.51
10/21/2020 12:39:11 PM 11.6675 53.0015 512.7 7.9471 2.970001 11.6675
10/21/2020 12:54:10 PM 11.755 53.159 512.3501 7.952 2.985001 11.755
10/21/2020 1:09:10 PM 11.8225 53.2805 512.6499 7.9534 2.985001 11.8225
10/21/2020 1:24:10 PM 11.89 53.402 513 7.9394 2.982498 11.89
10/21/2020 1:39:10 PM 11.945 53.501 513.3501 7.9317 3.002502 11.945
10/21/2020 1:54:10 PM 12.03 53.654 513.3501 7.9443 3.019997 12.03
10/21/2020 2:09:10 PM 12.1325 53.8385 513 7.9716 3.002502 12.1325
10/21/2020 2:24:10 PM 12.2375 54.0275 513.3 8.026199 2.967499 12.2375
10/21/2020 2:54:10 PM 12.445 54.401 513.3 8.045799 2.967499 12.445
10/21/2020 3:24:10 PM 12.5525 54.5945 513.3501 8.033899 2.967499 12.5525
10/21/2020 3:39:10 PM 12.5875 54.6575 513.7 8.030399 2.967499 12.5875
10/21/2020 3:50:45 PM 12.6225 54.7205 514.0499 8.014299 2.949997 12.6225
10/21/2020 4:05:40 PM 12.6725 54.8105 514 8.019899 2.949997 12.6725
10/21/2020 4:20:40 PM 12.705 54.869 514.3501 8.021999 2.970001 12.705
10/21/2020 4:35:40 PM 12.74 54.932 514.3501 8.021299 2.967499 12.74
10/21/2020 4:50:40 PM 12.7225 54.9005 514.7 7.996799 2.949997 12.7225
10/21/2020 5:05:40 PM 12.7075 54.8735 514.7501 7.9758 2.985001 12.7075
10/21/2020 5:20:40 PM 12.725 54.905 514.7 7.9702 2.964996 12.725
10/21/2020 5:50:40 PM 12.725 54.905 515.1 7.9562 2.964996 12.725
10/21/2020 6:05:40 PM 12.7075 54.8735 515.7 7.9569 2.949997 12.7075
10/21/2020 6:20:40 PM 12.7075 54.8735 516.0499 7.9569 2.93 12.7075
10/21/2020 6:35:40 PM 12.6725 54.8105 516.8 7.9569 2.915001 12.6725
10/21/2020 7:05:40 PM 12.6025 54.6845 518.55 7.9618 2.932503 12.6025
10/21/2020 7:20:40 PM 12.55 54.59 519.2 7.966 2.915001 12.55
10/21/2020 7:35:40 PM 12.4825 54.4685 520.2499 7.9674 2.932503 12.4825
10/21/2020 8:05:40 PM 12.395 54.311 521.3 7.9723 2.915001 12.395
10/21/2020 8:35:40 PM 12.3425 54.2165 522 7.9758 2.900002 12.3425
10/21/2020 8:50:40 PM 12.3275 54.1895 522.3 7.9849 2.8825 12.3275
10/21/2020 9:20:40 PM 12.3275 54.1895 522.4 7.991199 2.900002 12.3275
10/21/2020 9:50:40 PM 12.36 54.248 522 8.002399 2.8825 12.36
10/21/2020 10:05:40 PM 12.375 54.275 522.7 8.002399 2.862503 12.375
10/21/2020 10:20:40 PM 12.395 54.311 523 8.002399 2.830002 12.395
10/21/2020 10:35:40 PM 12.4325 54.3785 524.0499 8.011499 2.847504 12.4325
10/21/2020 10:50:40 PM 12.43 54.374 524.8 8.010799 2.832497 12.43
10/21/2020 11:05:40 PM 12.4325 54.3785 525.45 8.014999 2.847504 12.4325
10/21/2020 11:20:40 PM 12.45 54.41 526.15 8.021999 2.8125 12.45
10/22/2020 12:05:40 AM 12.5025 54.5045 527.55 8.029699 3.4375 12.5025
10/22/2020 12:20:40 AM 12.5525 54.5945 527.6 8.029699 5.209999 12.5525
10/22/2020 12:50:40 AM 12.5675 54.6215 527.55 8.040899 4.010002 12.5675
10/22/2020 1:05:40 AM 12.57 54.626 527.5 8.045799 3.660004 12.57
10/22/2020 1:20:40 AM 12.57 54.626 528.2499 8.039499 3.127502 12.57
10/22/2020 1:35:40 AM 12.5525 54.5945 528.2499 8.034599 2.952499 12.5525
10/22/2020 2:05:41 AM 12.57 54.626 528.9501 8.044399 2.8825 12.57
10/22/2020 2:35:40 AM 12.5875 54.6575 529.3 8.054199 2.852501 12.5875
10/22/2020 2:50:40 AM 12.5875 54.6575 528.9501 8.055599 2.830002 12.5875
10/22/2020 3:05:40 AM 12.57 54.626 528.9501 8.056299 2.832497 12.57
10/22/2020 3:20:40 AM 12.57 54.626 529.3 8.066099 2.8675 12.57
10/22/2020 3:35:40 AM 12.59 54.662 529.6499 8.069599 2.904999 12.59
10/22/2020 3:50:40 AM 12.5875 54.6575 530 8.070299 2.8675 12.5875
10/22/2020 4:05:40 AM 12.61 54.698 530 8.073099 2.904999 12.61
10/22/2020 4:20:40 AM 12.605 54.689 529.9501 8.080799 2.900002 12.605
10/22/2020 4:35:40 AM 12.605 54.689 530 8.079399 2.987503 12.605
10/22/2020 4:50:40 AM 12.6075 54.6935 530.3501 8.084299 2.955002 12.6075
10/22/2020 5:05:40 AM 12.6075 54.6935 530.3501 8.089199 3.247498 12.6075
10/22/2020 5:20:40 AM 12.605 54.689 530.7 8.089199 3.472504 12.605
10/22/2020 5:35:40 AM 12.6075 54.6935 531.0499 8.090599 3.059998 12.6075
10/22/2020 6:05:40 AM 12.6075 54.6935 531.4 8.094101 3.022499 12.6075
10/22/2020 6:20:40 AM 12.59 54.662 531.7501 8.093399 3.042503 12.59
10/22/2020 6:50:41 AM 12.5725 54.6305 532.1 8.094801 3.025002 12.5725
10/22/2020 7:20:40 AM 12.555 54.599 532.8 8.089899 3.147499 12.555
10/22/2020 7:35:40 AM 12.5575 54.6035 532.85 8.089899 3.407501 12.5575
10/22/2020 8:05:40 AM 12.555 54.599 533.1 8.089899 3.074997 12.555
10/22/2020 8:20:40 AM 12.555 54.599 533.1 8.083599 3.004997 12.555
10/22/2020 8:35:40 AM 12.555 54.599 533.1 8.091299 3.022499 12.555
10/22/2020 8:50:40 AM 12.555 54.599 533.15 8.094101 2.955002 12.555
10/22/2020 9:20:40 AM 12.5725 54.6305 532.8 8.089899 2.955002 12.5725
10/22/2020 9:35:40 AM 12.5725 54.6305 532.8 8.090599 2.989998 12.5725
10/22/2020 10:05:40 AM 12.59 54.662 532.4 8.083599 2.9375 12.59
10/22/2020 10:20:40 AM 12.605 54.689 532.4 8.084999 2.919998 12.605
10/22/2020 10:35:40 AM 12.6075 54.6935 532.1 8.084299 2.919998 12.6075
10/22/2020 11:05:41 AM 12.6575 54.7835 531.7501 8.088499 2.900002 12.6575
10/22/2020 11:20:40 AM 12.675 54.815 531.3501 8.088499 2.885002 12.675
10/22/2020 11:35:40 AM 12.69 54.842 531.3501 8.094801 2.902496 12.69
10/22/2020 11:50:40 AM 12.725 54.905 531.0499 7.9765 2.934998 12.725
10/22/2020 12:20:40 PM 12.8475 55.1255 532.0499 7.987 2.934998 12.8475
10/22/2020 12:50:40 PM 12.97 55.346 528.55 7.9723 4.794998 12.97
10/22/2020 1:05:40 PM 13.055 55.499 527.85 7.9723 3.977501 13.055
10/22/2020 1:20:40 PM 13.1225 55.6205 527.15 7.9667 3.5075 13.1225
10/22/2020 1:35:40 PM 13.1925 55.7465 526.8 7.9625 3.315002 13.1925
10/22/2020 1:50:40 PM 13.245 55.841 526.8 7.9555 3.157501 13.245
10/22/2020 2:05:40 PM 13.33 55.994 526.45 7.9604 3.105003 13.33
10/22/2020 2:20:40 PM 13.4175 56.1515 526.45 7.9513 3.07 13.4175
10/22/2020 2:35:40 PM 13.505 56.309 526.45 7.9562 3.055 13.505
10/22/2020 2:50:40 PM 13.575 56.435 526.1 7.9562 3.035004 13.575
10/22/2020 3:05:40 PM 13.6775 56.6195 526.1 7.952 3.052498 13.6775
10/22/2020 3:20:40 PM 13.7625 56.7725 525.7501 7.9527 3.07 13.7625
10/22/2020 3:35:40 PM 13.8325 56.8985 525.7501 7.9569 3.055 13.8325
10/22/2020 4:05:40 PM 13.92 57.056 525.4 7.9527 3.089996 13.92
10/22/2020 4:20:40 PM 13.92 57.056 525.4 7.9457 3.089996 13.92
10/22/2020 4:35:40 PM 13.92 57.056 525.0499 7.9464 3.107498 13.92
10/22/2020 5:05:40 PM 13.85 56.93 524.7 7.9366 3.105003 13.85
10/22/2020 5:20:40 PM 13.815 56.867 524.7 7.9366 3.07 13.815
10/22/2020 5:35:40 PM 13.78 56.804 525.1 7.9366 3.087502 13.78
10/22/2020 5:50:40 PM 13.745 56.741 525.0499 7.9317 3.137497 13.745
10/22/2020 6:05:40 PM 13.695 56.651 525.0499 7.9317 3.122498 13.695
10/22/2020 6:20:40 PM 13.6425 56.5565 525.45 7.9268 3.107498 13.6425
10/22/2020 6:35:40 PM 13.625 56.525 525.7501 7.9142 3.089996 13.625
10/22/2020 6:50:40 PM 13.59 56.462 526.1 7.924 3.07 13.59
10/22/2020 7:05:40 PM 13.555 56.399 526.85 7.9324 3.127502 13.555
10/22/2020 7:20:40 PM 13.555 56.399 526.8 7.9317 3.122498 13.555
10/22/2020 7:35:40 PM 13.5225 56.3405 527.1 7.9366 3.07 13.5225
10/22/2020 7:50:40 PM 13.485 56.273 527.5 7.9387 3.057503 13.485
10/22/2020 8:05:40 PM 13.49 56.282 527.85 7.938 3.227501 13.49
10/22/2020 8:20:40 PM 13.4725 56.2505 528.2 7.9422 3.142502 13.47
10/22/2020 8:50:40 PM 13.4875 56.2775 528.6 7.9422 3.282501 13.4875
10/22/2020 9:05:40 PM 13.49 56.282 528.55 7.9415 3.142502 13.49
10/22/2020 9:35:40 PM 13.5075 56.3135 528.6 7.952 3.212502 13.5075
10/22/2020 10:05:40 PM 13.505 56.309 528.6 7.9534 3.230003 13.505
10/22/2020 10:20:40 PM 13.5075 56.3135 528.6 7.9562 3.195 13.5075
10/22/2020 10:50:40 PM 13.51 56.318 528.6 7.952 3.370003 13.51
10/22/2020 11:05:40 PM 13.49 56.282 528.6 7.9569 3.110001 13.49
10/22/2020 11:20:40 PM 13.49 56.282 528.6 7.959 3.285004 13.49
10/22/2020 11:35:40 PM 13.49 56.282 528.2499 7.9632 3.302498 13.49
10/23/2020 12:05:40 AM 13.49 56.282 528.3 7.973 4.065002 13.49
10/23/2020 12:20:40 AM 13.5075 56.3135 527.55 7.9828 5.837502 13.5075
10/23/2020 12:50:40 AM 13.51 56.318 526.9 7.996099 4.724998 13.51
10/23/2020 1:05:40 AM 13.5075 56.3135 526.9 8.000999 4.065002 13.5075
10/23/2020 1:20:40 AM 13.5075 56.3135 526.9 8.003099 3.440002 13.5075
10/23/2020 1:35:40 AM 13.4925 56.2865 526.9 8.006599 3.457497 13.4925
10/23/2020 1:50:40 AM 13.4925 56.2865 527.2499 8.007999 3.18 13.4925
10/23/2020 2:05:40 AM 13.4925 56.2865 526.9 8.005199 3.495003 13.4925
10/23/2020 2:20:40 AM 13.49 56.282 526.9501 8.012199 3.110001 13.49
10/23/2020 2:35:40 AM 13.475 56.255 526.9 8.015699 3.232498 13.475
10/23/2020 3:05:40 AM 13.4575 56.2235 526.9 8.015699 3.059998 13.4575
10/23/2020 3:35:40 AM 13.44 56.192 526.6 8.026199 3.074997 13.44
10/23/2020 4:05:40 AM 13.405 56.129 526.2499 8.023399 3.042503 13.405
10/23/2020 4:20:40 AM 13.3875 56.0975 526.2 8.021999 3.059998 13.3875
10/23/2020 4:35:40 AM 13.3875 56.0975 526.2 8.027599 3.042503 13.3875
10/23/2020 4:50:40 AM 13.3725 56.0705 525.85 8.028299 3.042503 13.3725
10/23/2020 5:05:40 AM 13.355 56.039 525.9 8.026899 3.059998 13.355
10/23/2020 5:20:40 AM 13.3375 56.0075 525.2 8.027599 3.044998 13.3375
10/23/2020 5:35:40 AM 13.32 55.976 525.2499 8.031099 3.059998 13.32
10/23/2020 5:50:40 AM 13.3025 55.9445 525.2 8.031799 3.112503 13.3025
10/23/2020 6:05:40 AM 13.3025 55.9445 524.9 8.031799 3.042503 13.3025
10/23/2020 6:20:40 AM 13.2875 55.9175 524.85 8.035999 3.044998 13.2875
10/23/2020 6:35:40 AM 13.285 55.913 524.5 8.036699 3.077499 13.285
10/23/2020 7:05:41 AM 13.285 55.913 524.2499 8.047199 3.077499 13.285
10/23/2020 7:20:40 AM 13.285 55.913 524.15 8.045799 3.057503 13.285
10/23/2020 7:35:40 AM 13.285 55.913 523.8 8.047199 3.092499 13.285
10/23/2020 8:05:40 AM 13.2675 55.8815 523.45 8.045799 3.059998 13.2675
10/23/2020 8:20:40 AM 13.2675 55.8815 523.15 8.050699 3.092499 13.2675
10/23/2020 8:50:40 AM 13.285 55.913 522.1 8.040199 3.077499 13.285
10/23/2020 9:20:40 AM 13.3025 55.9445 520 8.026899 3.057503 13.3025
10/23/2020 9:35:40 AM 13.3175 55.9715 518.9501 8.022699 3.110001 13.3175
10/23/2020 9:50:40 AM 13.3525 56.0345 517.9 8.018499 3.092499 13.3525
10/23/2020 10:05:40 AM 13.42 56.156 515.85 8.011499 3.074997 13.42
10/23/2020 10:20:40 AM 13.5225 56.3405 513.7501 8.007999 3.074997 13.5225
10/23/2020 10:35:40 AM 13.63 56.534 512 8.000299 3.089996 13.63
10/23/2020 10:50:40 AM 13.68 56.624 510.6 8.000999 3.055 13.68
10/23/2020 11:05:40 AM 13.7475 56.7455 509.55 8.000299 3.072502 13.7475
10/23/2020 11:20:40 AM 13.8175 56.8715 508.5 8.000299 3.052498 13.8175
10/23/2020 11:50:40 AM 14.025 57.245 506 8.000299 3.07 14.025
10/23/2020 12:05:40 PM 14.06 57.308 506.0499 7.994699 3.055 14.06
10/23/2020 12:35:40 PM 14.2525 57.6545 504.3 7.992599 3.057503 14.2525
10/23/2020 1:05:40 PM 14.3925 57.9065 502.9 7.9856 3.072502 14.3925
10/23/2020 1:35:40 PM 14.4425 57.9965 502.55 7.973 3.092499 14.4425
10/23/2020 2:05:41 PM 14.5125 58.1225 502.2 7.9569 3.107498 14.5125
10/23/2020 2:20:40 PM 14.5475 58.1855 501.8 7.9534 3.107498 14.5475
10/23/2020 2:35:40 PM 14.6525 58.3745 501.1 7.9478 3.092499 14.6525
10/23/2020 2:50:40 PM 14.705 58.469 500.8 7.9429 3.072502 14.705
10/23/2020 3:05:40 PM 14.74 58.532 501.2 7.9471 3.107498 14.74
10/23/2020 3:20:40 PM 14.775 58.595 501.15 7.9569 3.072502 14.775
10/23/2020 3:35:40 PM 14.79 58.622 501.15 7.9611 3.072502 14.79
10/23/2020 3:50:40 PM 14.86 58.748 500.8 7.9716 3.107498 14.86
10/23/2020 4:05:40 PM 14.8775 58.7795 501.5 7.9828 3.089996 14.8775
10/23/2020 4:20:40 PM 14.93 58.874 501.2 7.9856 3.074997 14.93
10/23/2020 4:35:40 PM 14.9475 58.9055 501.2 8.000299 3.092499 14.9475
10/23/2020 4:50:40 PM 14.9125 58.8425 501.9 8.005899 3.055 14.9125
10/23/2020 5:05:40 PM 14.9125 58.8425 501.85 8.002399 3.074997 14.9125
10/23/2020 5:20:40 PM 14.8975 58.8155 502.2 8.001699 3.074997 14.8975
10/23/2020 5:35:40 PM 14.8925 58.8065 502.2 8.006599 3.057503 14.8925
10/23/2020 6:05:41 PM 14.8425 58.7165 502.9 8.022699 3.82 14.8425
10/23/2020 6:35:41 PM 14.825 58.685 503.6 8.040899 3.195 14.825
10/23/2020 6:50:40 PM 14.7925 58.6265 503.6 8.054199 3.227501 14.7925
10/23/2020 7:05:40 PM 14.775 58.595 503.6 8.084999 3.247498 14.775
10/23/2020 7:20:40 PM 14.755 58.559 504.3501 8.112301 3.125 14.755
10/23/2020 7:35:40 PM 14.74 58.532 504.6499 8.142401 3.125 14.74
10/23/2020 8:05:40 PM 14.7075 58.4735 504.9501 8.163401 3.404999 14.7075
10/23/2020 8:20:40 PM 14.725 58.505 505.3501 8.171801 3.162498 14.725
10/23/2020 8:35:40 PM 14.755 58.559 505 8.192101 3.212502 14.755
10/23/2020 8:50:40 PM 14.755 58.559 505.3501 8.197001 3.300003 14.755
10/23/2020 9:05:40 PM 14.79 58.622 505 8.2026 4.290001 14.79
10/23/2020 9:20:40 PM 14.7925 58.6265 505.7 8.2061 3.25 14.7925
10/23/2020 9:35:40 PM 14.825 58.685 505.7 8.2054 3.332497 14.825
10/23/2020 9:50:40 PM 14.86 58.748 506.0499 8.2019 3.282501 14.86
10/23/2020 10:05:40 PM 14.8775 58.7795 505.7 8.2117 3.212502 14.8775
10/23/2020 10:20:40 PM 14.8975 58.8155 506.7501 8.211 3.144997 14.8975
10/23/2020 10:50:40 PM 14.895 58.811 507.4 8.162001 3.542503 14.895
10/23/2020 11:05:40 PM 14.8975 58.8155 507.4 8.171101 3.142502 14.8975
10/23/2020 11:20:40 PM 14.8775 58.7795 508.45 8.173201 3.264999 14.8775
10/23/2020 11:35:40 PM 14.8775 58.7795 509.15 8.176701 3.264999 14.8775
10/24/2020 12:05:40 AM 14.855 58.739 509.8 8.185101 3.072502 14.8725
10/24/2020 12:20:40 AM 14.8575 58.7435 510.15 8.190701 3.052498 14.8575
10/24/2020 12:50:40 AM 14.8375 58.7075 511.2 8.2061 3.157501 14.8375
10/24/2020 1:05:40 AM 14.8725 58.7705 511.2499 8.2096 3.089996 14.8725
10/24/2020 1:20:40 AM 14.8725 58.7705 511.55 8.211 3.607498 14.8725
10/24/2020 1:35:40 AM 14.89 58.802 511.55 8.2152 3.467499 14.89
10/24/2020 1:50:40 AM 14.9075 58.8335 511.9 8.2187 3.125 14.9075
10/24/2020 2:05:40 AM 14.8725 58.7705 512.2 8.225 3.035004 14.8725
10/24/2020 2:20:40 AM 14.8725 58.7705 512.6 8.225 3.072502 14.8725
10/24/2020 2:35:40 AM 14.855 58.739 512.6 8.2306 3.870003 14.855
10/24/2020 3:05:41 AM 14.855 58.739 512.9501 8.2285 3.105003 14.855
10/24/2020 3:35:41 AM 14.8575 58.7435 513.3 8.2348 3.089996 14.8575
10/24/2020 4:05:41 AM 14.84 58.712 513.7 8.2341 3.3125 14.84
10/24/2020 4:35:41 AM 14.8375 58.7075 513.7 8.239 3.852501 14.8375
10/24/2020 4:50:40 AM 14.86 58.748 513.3 8.2376 3.227501 14.86
10/24/2020 5:05:40 AM 14.875 58.775 513.3 8.2334 3.282501 14.875
10/24/2020 5:35:41 AM 14.8725 58.7705 513.6499 8.2348 3.142502 14.8725
10/24/2020 6:05:41 AM 14.875 58.775 513.6499 8.2334 3.107498 14.875
10/24/2020 6:20:40 AM 14.91 58.838 513.6 8.2334 3.107498 14.91
10/24/2020 6:35:40 AM 14.9275 58.8695 513.2499 8.2348 3.105003 14.9275
10/24/2020 6:50:40 AM 14.8925 58.8065 513.6499 8.2306 3.122498 14.8925
10/24/2020 7:05:40 AM 14.84 58.712 514.7 8.225 3.125 14.84
10/24/2020 7:20:40 AM 14.77 58.586 516.45 8.2201 3.125 14.77
10/24/2020 7:35:40 AM 14.735 58.523 517.5 8.2117 3.160004 14.735
10/24/2020 8:05:41 AM 14.6525 58.3745 519.55 8.191401 3.214996 14.6525
10/24/2020 8:20:40 AM 14.6 58.28 518.55 8.197001 3.212502 14.6
10/24/2020 8:50:40 AM 14.515 58.127 521 8.094101 3.214996 14.515
10/24/2020 9:20:40 AM 14.4275 57.9695 522.45 8.108101 3.182503 14.4275
10/24/2020 9:35:40 AM 14.395 57.911 522.4 8.103901 3.18 14.395
10/24/2020 9:50:40 AM 14.36 57.848 522.7501 8.099001 3.182503 14.36
10/24/2020 10:20:40 AM 14.29 57.722 523.45 8.084999 3.217499 14.29
10/24/2020 10:35:40 AM 14.2375 57.6275 524.5 8.075899 3.217499 14.2375
10/24/2020 10:50:40 AM 14.205 57.569 524.85 8.069599 3.235001 14.205
10/24/2020 11:05:40 AM 14.1875 57.5375 525.2 8.059799 3.217499 14.1875
10/24/2020 11:20:40 AM 14.1875 57.5375 525.5 8.056299 3.214996 14.1875
10/24/2020 11:35:40 AM 14.15 57.47 526.2499 8.055599 3.232498 14.15
10/24/2020 11:50:40 AM 14.1175 57.4115 526.9501 8.054899 3.165001 14.1175
10/24/2020 12:05:40 PM 14.085 57.353 527.6 8.050699 3.18 14.085
10/24/2020 12:20:40 PM 14.0475 57.2855 528 8.050699 3.144997 14.0475
10/24/2020 12:35:40 PM 14.03 57.254 528.6499 8.055599 3.165001 14.03
10/24/2020 1:05:40 PM 14.065 57.317 528.7 8.070299 3.199997 14.065
10/24/2020 1:20:40 PM 14.0675 57.3215 528.6499 8.075199 3.182503 14.0675
10/24/2020 1:35:40 PM 14.0675 57.3215 528.7 8.071699 3.182503 14.0675
10/24/2020 1:50:41 PM 14.065 57.317 528.7 8.076599 3.165001 14.065
10/24/2020 2:05:40 PM 14.065 57.317 528.6499 8.081499 3.167503 14.065
10/24/2020 2:20:40 PM 14.085 57.353 529 8.074499 3.165001 14.085
10/24/2020 2:50:40 PM 14.0825 57.3485 529.3501 8.086399 3.147499 14.0825
10/24/2020 3:20:41 PM 14.1 57.38 529.3501 8.089899 3.199997 14.1
10/24/2020 3:35:40 PM 14.1025 57.3845 529.4 8.094801 3.199997 14.1025
10/24/2020 3:50:40 PM 14.085 57.353 529.7 8.094101 3.214996 14.085
10/24/2020 4:05:40 PM 14.065 57.317 529.7501 8.101801 3.217499 14.065
10/24/2020 4:20:40 PM 14.0675 57.3215 530.0499 8.104601 3.199997 14.0675
10/24/2020 4:35:40 PM 14.0475 57.2855 530.45 8.105301 3.269997 14.0475
10/24/2020 4:50:40 PM 14.0325 57.2585 530.0499 8.115101 3.252502 14.0325
10/24/2020 5:05:40 PM 14.015 57.227 530.4 8.115101 3.252502 14.015
10/24/2020 5:20:40 PM 13.9975 57.1955 530.0499 8.129801 3.217499 13.9975
10/24/2020 5:35:40 PM 13.9625 57.1325 530.4 8.129801 3.252502 13.9625
10/24/2020 6:05:40 PM 13.8925 57.0065 530.8 8.121401 3.222504 13.8925
10/24/2020 6:20:40 PM 13.8425 56.9165 531.15 8.115101 3.184998 13.8425
10/24/2020 6:35:40 PM 13.8075 56.8535 530.7501 8.110201 3.235001 13.8075
10/24/2020 7:05:41 PM 13.74 56.732 531.15 8.106001 3.199997 13.74
10/24/2020 7:20:40 PM 13.7025 56.6645 530.85 8.110201 3.389999 13.7025
10/24/2020 7:35:40 PM 13.67 56.606 531.15 8.099701 3.355003 13.67
10/24/2020 7:50:40 PM 13.635 56.543 531.5 8.090599 3.337502 13.635
10/24/2020 8:05:40 PM 13.5825 56.4485 531.5 8.091299 3.322502 13.5825
10/24/2020 8:20:40 PM 13.55 56.39 531.85 8.084999 3.290001 13.55
10/24/2020 8:35:40 PM 13.495 56.291 531.85 8.082899 3.290001 13.495
10/24/2020 8:50:40 PM 13.48 56.264 532.2499 8.075899 3.305 13.48
10/24/2020 9:05:40 PM 13.4275 56.1695 532.55 8.071699 3.360001 13.4275
10/24/2020 9:20:40 PM 13.3925 56.1065 532.55 8.068199 3.477501 13.3925
10/24/2020 9:35:40 PM 13.34 56.012 532.55 8.062599 3.445 13.34
10/24/2020 10:05:41 PM 13.2725 55.8905 532.9 8.060499 3.567497 13.2725
10/24/2020 10:20:40 PM 13.2375 55.8275 532.9501 8.061899 3.445 13.2375
10/24/2020 10:35:40 PM 13.2 55.76 533.2499 8.058399 3.427498 13.2
10/24/2020 11:05:41 PM 13.1325 55.6385 533.2499 8.056299 3.514999 13.1325
10/24/2020 11:20:40 PM 13.115 55.607 533.6 8.058399 3.705002 13.115
10/24/2020 11:35:40 PM 13.0625 55.5125 533.9501 8.053499 3.394997 13.0625
10/25/2020 12:05:41 AM 12.9775 55.3595 534.6499 8.054199 3.584999 12.9775
10/25/2020 12:50:41 AM 12.8725 55.1705 535.3501 8.053499 3.462502 12.8725
10/25/2020 1:05:40 AM 12.84 55.112 535.7 8.054199 3.517502 12.84
10/25/2020 1:20:40 AM 12.7875 55.0175 535.7 8.058399 3.467499 12.7875
10/25/2020 1:35:40 AM 12.785 55.013 535.6499 8.058399 3.482498 12.785
10/25/2020 1:50:40 AM 13.03 55.454 531.5 8.056999 3.550003 13.03
10/25/2020 2:05:40 AM 13.15 55.67 529.4 8.062599 3.512497 13.15
10/25/2020 2:20:40 AM 13.2 55.76 528.3501 8.061899 3.495003 13.2
10/25/2020 2:35:40 AM 13.215 55.787 527.6 8.066099 3.459999 13.215
10/25/2020 2:50:40 AM 13.01 55.418 530.1 8.065399 3.477501 13.01
10/25/2020 3:05:40 AM 12.7 54.86 533.9 8.070999 3.477501 12.7
10/25/2020 3:20:40 AM 12.5425 54.5765 535.7501 8.111601 3.43 12.5425
10/25/2020 3:35:40 AM 12.63 54.734 533.55 8.121401 3.445 12.63
10/25/2020 4:05:40 AM 12.9025 55.2245 528.6499 8.050699 3.457497 12.9025
10/25/2020 4:20:40 AM 12.94 55.292 527.6499 8.070299 3.477501 12.94
10/25/2020 4:50:40 AM 12.9175 55.2515 526.9 8.085699 3.597504 12.9175
10/25/2020 5:05:40 AM 12.505 54.509 532.15 8.086399 3.635002 12.505
10/25/2020 5:20:40 AM 12.2675 54.0815 535.3501 8.091999 3.6175 12.2675
10/25/2020 5:35:40 AM 12.3875 54.2975 533.2499 8.091299 3.565002 12.3875
10/25/2020 5:50:40 AM 12.575 54.635 530.1 8.096901 3.602501 12.575
10/25/2020 6:05:40 AM 12.625 54.725 528.3501 8.096901 3.565002 12.625
10/25/2020 6:20:40 AM 12.6575 54.7835 527.6 8.101101 3.544998 12.6575
10/25/2020 6:35:40 AM 12.6425 54.7565 526.9 8.099001 3.565002 12.6425
10/25/2020 7:05:41 AM 12.6225 54.7205 526.2 8.096201 3.559998 12.6225
10/25/2020 7:20:40 AM 12.485 54.473 527.9501 8.094101 3.665001 12.485
10/25/2020 7:35:40 AM 12.1425 53.8565 532.5 8.094801 3.602501 12.1425
10/25/2020 7:50:40 AM 11.97 53.546 535 8.095501 3.675003 11.97
10/25/2020 8:05:40 AM 12.09 53.762 532.6 8.097601 3.637497 12.09
10/25/2020 8:20:40 AM 12.2975 54.1355 529.4 8.097601 3.652496 12.2975
10/25/2020 8:35:40 AM 12.3825 54.2885 527.6499 8.089899 3.6175 12.3825
10/25/2020 9:05:40 AM 12.4325 54.3785 526.6 8.091299 3.5625 12.4325
10/25/2020 9:20:40 AM 12.45 54.41 526.2 8.084299 3.544998 12.45
10/25/2020 9:35:40 AM 12.45 54.41 525.9 8.080099 3.440002 12.45
10/25/2020 9:50:40 AM 12.4675 54.4415 525.55 8.080099 3.422501 12.4675
10/25/2020 10:05:40 AM 12.4675 54.4415 525.55 8.079399 4.43 12.4675
10/25/2020 10:20:40 AM 12.5 54.5 524.8 8.075899 9.847504 12.5
10/25/2020 10:50:41 AM 12.07 53.726 530.8 8.077299 6.932503 12.07
10/25/2020 11:05:40 AM 12.0025 53.6045 532.15 8.071699 4.889999 12.0025
10/25/2020 11:35:41 AM 11.97 53.546 532.55 8.066099 3.705002 11.97
10/25/2020 11:50:40 AM 11.9875 53.5775 532.55 8.066799 3.535004 11.9875
10/25/2020 12:05:40 PM 11.9875 53.5775 532.55 8.066099 3.445 11.9875
10/25/2020 12:20:40 PM 12.02 53.636 532.2 8.071699 3.410004 12.02
10/25/2020 12:35:40 PM 12.0525 53.6945 532.15 8.081499 3.392502 12.0525
10/25/2020 12:50:40 PM 12.1075 53.7935 531.7501 8.086399 3.339996 12.1075
10/25/2020 1:05:40 PM 12.14 53.852 531.8 8.101101 3.372498 12.14
10/25/2020 1:20:40 PM 12.175 53.915 531.85 8.111601 3.322502 12.175
10/25/2020 1:35:40 PM 12.23 54.014 531.45 8.120001 3.324997 12.23
10/25/2020 1:50:40 PM 12.265 54.077 531.5 8.130501 3.322502 12.265
10/25/2020 2:20:40 PM 12.2975 54.1355 531.8 8.131201 3.32 12.2975
10/25/2020 2:35:40 PM 12.3325 54.1985 531.45 8.131201 3.322502 12.3325
10/25/2020 3:05:40 PM 12.4175 54.3515 531.1 8.125601 3.322502 12.4175
10/25/2020 3:35:41 PM 12.3825 54.2885 531.8 8.121401 3.302498 12.3825
10/25/2020 4:05:41 PM 12.3825 54.2885 532.2 8.114401 3.302498 12.3825
10/25/2020 4:20:40 PM 12.4175 54.3515 531.45 8.115101 3.269997 12.4175
10/25/2020 4:35:40 PM 12.4175 54.3515 531.45 8.110901 3.305 12.4175
10/25/2020 4:50:40 PM 12.365 54.257 531.85 8.111601 3.285004 12.365
10/25/2020 5:05:40 PM 12.315 54.167 532.5 8.106001 3.269997 12.315
10/25/2020 5:20:40 PM 12.2625 54.0725 532.5 8.101801 3.269997 12.2625
10/25/2020 5:35:40 PM 12.195 53.951 533.2499 8.096201 3.235001 12.195
10/25/2020 5:50:40 PM 12.125 53.825 533.55 8.096201 3.232498 12.125
10/25/2020 6:05:40 PM 12.07 53.726 533.9501 8.097601 3.254997 12.07
10/25/2020 6:20:40 PM 12.02 53.636 534.3 8.096201 3.290001 12.02
10/25/2020 6:35:40 PM 11.97 53.546 534.3 8.095501 3.307503 11.97
10/25/2020 6:50:40 PM 11.9325 53.4785 534.6499 8.096901 3.322502 11.9325
10/25/2020 7:05:40 PM 11.8975 53.4155 534.9501 8.096901 3.290001 11.8975
10/25/2020 7:20:40 PM 11.865 53.357 534.9501 8.096901 3.269997 11.865
10/25/2020 7:35:40 PM 11.83 53.294 534.9501 8.101801 3.290001 11.83
10/25/2020 8:05:40 PM 11.7625 53.1725 535.7 8.106001 3.287498 11.7625
10/25/2020 8:20:40 PM 11.71 53.078 536 8.101101 3.307503 11.71
10/25/2020 8:35:40 PM 11.655 52.979 536.3501 8.103201 3.360001 11.655
10/25/2020 8:50:40 PM 11.6225 52.9205 536.7 8.103201 3.360001 11.6225
10/25/2020 9:05:40 PM 11.6075 52.8935 536.7501 8.103201 3.360001 11.6075
10/25/2020 9:20:40 PM 11.5875 52.8575 536.7501 8.102501 3.394997 11.5875
10/25/2020 9:35:40 PM 11.57 52.826 536.7 8.103201 3.394997 11.57
10/25/2020 9:50:40 PM 11.555 52.799 536.7501 8.101101 3.379997 11.555
10/25/2020 10:05:40 PM 11.5375 52.7675 537.0499 8.101101 3.427498 11.5375
10/25/2020 10:20:40 PM 11.52 52.736 537.0499 8.106701 3.394997 11.52
10/25/2020 10:35:40 PM 11.5175 52.7315 537.1 8.112301 3.394997 11.5175
10/25/2020 10:50:40 PM 11.52 52.736 536.7501 8.110201 3.392502 11.52
10/25/2020 11:05:40 PM 11.5025 52.7045 537.0499 8.117201 3.394997 11.5025
10/25/2020 11:20:40 PM 11.5025 52.7045 537.1 8.121401 3.360001 11.5025
10/25/2020 11:35:40 PM 11.5025 52.7045 536.7 8.124901 3.362503 11.5025
10/26/2020 12:05:40 AM 11.485 52.673 536.7501 8.136101 3.324997 11.485
10/26/2020 12:20:40 AM 11.485 52.673 537.1 8.139601 3.324997 11.485
10/26/2020 12:50:41 AM 11.45 52.61 537.1 8.146601 3.324997 11.45
10/26/2020 1:05:40 AM 11.4675 52.6415 537.0499 8.156401 3.327499 11.4675
10/26/2020 1:20:40 AM 11.5025 52.7045 536.4 8.153601 3.394997 11.5025
10/26/2020 1:35:40 AM 11.675 53.015 533.9501 8.159901 3.394997 11.675
10/26/2020 2:05:40 AM 11.9325 53.4785 530.0499 8.168301 3.459999 11.9325
10/26/2020 2:35:41 AM 12 53.6 529 8.173901 3.425003 12
10/26/2020 2:50:40 AM 12.0175 53.6315 528.7 8.178101 3.407501 12.0175
10/26/2020 3:05:40 AM 12.035 53.663 528.3501 8.183001 3.404999 12.035
10/26/2020 3:20:40 AM 12.07 53.726 527.9501 8.183001 3.404999 12.07
10/26/2020 3:35:40 AM 12.0675 53.7215 527.9501 8.182301 3.372498 12.0675
10/26/2020 3:50:40 AM 12.085 53.753 527.6499 8.187201 3.370003 12.085
10/26/2020 4:05:40 AM 12.1025 53.7845 527.55 8.187901 3.370003 12.1025
10/26/2020 4:20:40 AM 12.105 53.789 527.2 8.187201 3.404999 12.105
10/26/2020 4:35:40 AM 12.1 53.78 527.2499 8.193501 3.404999 12.1
10/26/2020 4:50:40 AM 12.1025 53.7845 527.2499 8.191401 3.402496 12.1025
10/26/2020 5:05:40 AM 12.1025 53.7845 527.2499 8.192801 3.387497 12.1025
10/26/2020 5:20:40 AM 12.1025 53.7845 527.2 8.192101 3.389999 12.1025
10/26/2020 5:35:40 AM 12.1025 53.7845 526.85 8.190701 3.389999 12.1025
10/26/2020 6:05:40 AM 12.1025 53.7845 526.9 8.187901 3.370003 12.1025
10/26/2020 6:35:41 AM 12.1025 53.7845 526.9 8.181601 3.385002 12.1025
10/26/2020 7:05:41 AM 12.085 53.753 526.55 8.176701 3.387497 12.085
10/26/2020 7:20:40 AM 11.8425 53.3165 530.0499 8.177401 3.387497 11.8425
10/26/2020 7:35:40 AM 11.6875 53.0375 531.8 8.172501 3.410004 11.6875
10/26/2020 7:50:40 AM 11.6375 52.9475 532.5 8.174601 3.410004 11.6375
10/26/2020 8:05:40 AM 11.5675 52.8215 533.2499 8.173201 3.410004 11.5675
10/26/2020 8:20:40 AM 11.5525 52.7945 533.55 8.171101 3.392502 11.5525
10/26/2020 8:35:40 AM 11.535 52.763 533.55 8.169001 3.412498 11.535
10/26/2020 8:50:40 AM 11.5175 52.7315 533.9501 8.168301 3.410004 11.5175
10/26/2020 9:05:40 AM 11.5025 52.7045 533.9501 8.169701 3.43 11.5025
10/26/2020 9:20:40 AM 11.485 52.673 533.9501 8.164101 3.482498 11.485
10/26/2020 9:35:40 AM 11.485 52.673 533.9501 8.164801 3.605003 11.485
10/26/2020 9:50:40 AM 11.4825 52.6685 533.9501 8.165501 3.584999 11.4825
10/26/2020 10:05:40 AM 11.465 52.637 533.9501 8.160601 3.602501 11.465
10/26/2020 10:35:41 AM 11.4675 52.6415 533.55 8.146601 3.550003 11.4675
10/26/2020 11:05:41 AM 11.465 52.637 533.3 8.124901 3.532501 11.465
10/26/2020 11:20:40 AM 11.465 52.637 532.9 8.120001 3.482498 11.465
10/26/2020 11:35:40 AM 11.465 52.637 532.9 8.115101 3.497498 11.465
10/26/2020 12:05:41 PM 11.4475 52.6055 532.9 8.096201 5.392502 11.4475
10/26/2020 12:35:41 PM 11.43 52.574 532.9 8.100401 2.82 11.43
10/26/2020 1:05:41 PM 11.43 52.574 532.9 8.099701 2.699997 11.43
10/26/2020 1:20:40 PM 11.45 52.61 532.55 8.101101 2.577499 11.45
10/26/2020 1:35:40 PM 11.4475 52.6055 532.5 8.097601 2.542503 11.4475
10/26/2020 1:50:40 PM 11.4475 52.6055 532.5 8.094801 2.527496 11.4475
10/26/2020 2:05:40 PM 11.4625 52.6325 532.5 8.096901 2.4925 11.4625
10/26/2020 2:20:40 PM 11.465 52.637 532.5 8.096901 2.489998 11.465
10/26/2020 2:35:40 PM 11.48 52.664 532.5 8.091999 2.489998 11.48
10/26/2020 2:50:40 PM 11.4825 52.6685 532.55 8.087099 2.5075 11.4825
10/26/2020 3:05:40 PM 11.535 52.763 531.8 8.079399 2.489998 11.535
10/26/2020 3:20:40 PM 11.5325 52.7585 531.45 8.076599 2.472504 11.5325
10/26/2020 3:35:40 PM 11.5175 52.7315 532.15 8.070299 2.5075 11.5175
10/26/2020 4:05:40 PM 11.515 52.727 532.15 8.070999 2.472504 11.515
10/26/2020 4:20:40 PM 11.4975 52.6955 532.5 8.067499 2.5075 11.4975
10/26/2020 4:35:40 PM 11.4975 52.6955 532.5 8.063299 2.542503 11.4975
10/26/2020 5:05:40 PM 11.4975 52.6955 532.8 8.061199 2.470001 11.4975
10/26/2020 5:20:40 PM 11.4975 52.6955 532.85 8.061199 2.472504 11.4975
10/26/2020 5:35:40 PM 11.4975 52.6955 532.9 8.062599 2.472504 11.4975
10/26/2020 5:50:40 PM 11.4975 52.6955 532.85 8.061899 2.474998 11.4975
10/26/2020 6:20:40 PM 11.5 52.7 533.2 8.056299 2.4925 11.5
10/26/2020 6:35:40 PM 11.4975 52.6955 533.2 8.052099 2.472504 11.4975
10/26/2020 6:50:40 PM 11.5 52.7 533.55 8.045799 2.472504 11.5
10/26/2020 7:20:40 PM 11.4825 52.6685 533.55 8.042999 2.472504 11.4825
10/26/2020 7:35:40 PM 11.4475 52.6055 534.2499 8.037399 2.472504 11.4475
10/26/2020 8:05:40 PM 11.4325 52.5785 534.6 8.032499 2.525002 11.4325
10/26/2020 8:20:40 PM 11.4125 52.5425 534.9501 8.038099 2.525002 11.4125
10/26/2020 8:35:40 PM 11.3975 52.5155 534.9501 8.037399 2.525002 11.3975
10/26/2020 9:05:40 PM 11.3625 52.4525 535.3 8.033899 2.525002 11.3625
10/26/2020 9:35:41 PM 11.3275 52.3895 535.6499 8.038099 2.667503 11.3275
10/26/2020 10:05:41 PM 11.26 52.268 536.4 8.038099 2.6325 11.26
10/26/2020 10:35:40 PM 11.2225 52.2005 536.7501 8.033899 2.595001 11.2225
10/26/2020 11:05:40 PM 11.1725 52.1105 537.1 8.031799 2.614998 11.1725
10/26/2020 11:20:40 PM 11.155 52.079 537.0499 8.034599 2.684998 11.155
10/26/2020 11:35:40 PM 11.135 52.043 537.0499 8.033199 2.650002 11.135
10/27/2020 12:05:40 AM 11.1 51.98 537.4 8.035299 2.875 11.1
10/27/2020 12:20:40 AM 11.1025 51.9845 537.4 8.033899 3.775002 11.1025
10/27/2020 12:35:40 AM 11.085 51.953 537.45 8.033199 4.212502 11.085
10/27/2020 12:50:40 AM 11.0675 51.9215 537.3501 8.033199 3.900002 11.0675
10/27/2020 1:05:40 AM 11.0525 51.8945 537.4 8.032499 3.532501 11.0525
10/27/2020 1:20:40 AM 11.0525 51.8945 537.45 8.032499 3.032501 11.0525
10/27/2020 1:35:40 AM 11.035 51.863 537.7501 8.033899 2.822502 11.035
10/27/2020 1:50:40 AM 11.015 51.827 537.8 8.034599 2.769997 11.015
10/27/2020 2:05:40 AM 10.9975 51.7955 538.1 8.035299 2.737503 10.9975
10/27/2020 2:20:40 AM 10.9825 51.7685 538.1 8.038799 2.684998 10.9825
10/27/2020 2:50:40 AM 10.945 51.701 538.45 8.045099 2.702499 10.945
10/27/2020 3:20:40 AM 10.93 51.674 538.45 8.049999 2.667503 10.93
10/27/2020 3:50:41 AM 10.9125 51.6425 538.55 8.058399 2.6875 10.9125
10/27/2020 4:20:41 AM 10.895 51.611 538.5 8.062599 2.669998 10.895
10/27/2020 4:35:40 AM 10.895 51.611 538.5 8.061899 2.684998 10.895
10/27/2020 4:50:40 AM 10.88 51.584 538.5 8.063999 2.682503 10.88
10/27/2020 5:05:40 AM 10.895 51.611 538.5 8.068899 2.684998 10.895
10/27/2020 5:20:40 AM 11 51.8 536.7501 8.066799 2.702499 11
10/27/2020 5:35:40 AM 11.12 52.016 534.6499 8.070999 2.699997 11.12
10/27/2020 5:50:40 AM 11.205 52.169 533.55 8.071699 2.665001 11.205
10/27/2020 6:05:40 AM 11.2375 52.2275 532.5 8.076599 2.682503 11.2375
10/27/2020 6:35:40 AM 11.29 52.322 531.45 8.075199 2.68 11.29
10/27/2020 6:50:40 AM 11.255 52.259 531.85 8.075899 2.695 11.255
10/27/2020 7:05:40 AM 11.03 51.854 534.9501 8.077299 2.714996 11.03
10/27/2020 7:20:40 AM 10.9125 51.6425 536.6499 8.077299 2.717499 10.9125
10/27/2020 7:35:40 AM 10.84 51.512 537.7501 8.083599 2.717499 10.84
10/27/2020 7:50:40 AM 10.79 51.422 538.1 8.081499 2.735001 10.79
10/27/2020 8:05:40 AM 10.775 51.395 538.8 8.084299 2.737503 10.775
10/27/2020 8:35:40 AM 10.7375 51.3275 538.8 8.083599 2.752502 10.7375
10/27/2020 8:50:40 AM 10.81 51.458 537.8 8.082199 2.720001 10.81
10/27/2020 9:05:40 AM 10.965 51.737 534.9501 8.081499 2.702499 10.965
10/27/2020 9:20:40 AM 11.065 51.917 533.2499 8.081499 2.68 11.065
10/27/2020 9:35:40 AM 11.1375 52.0475 532.2 8.080099 2.644997 11.1375
10/27/2020 9:50:40 AM 11.185 52.133 531.45 8.081499 2.662498 11.185
10/27/2020 10:20:41 AM 11.065 51.917 532.85 8.086399 2.629997 11.065
10/27/2020 10:50:41 AM 10.8775 51.5795 534.9501 8.089899 2.597504 10.8775
10/27/2020 11:05:40 AM 10.8425 51.5165 535.3501 8.096201 2.597504 10.8425
10/27/2020 11:35:40 AM 10.8425 51.5165 535.3501 8.101801 2.580002 10.8425
10/27/2020 11:50:40 AM 10.8425 51.5165 534.9501 8.102501 2.5625 10.8425
10/27/2020 12:05:40 PM 10.86 51.548 534.6499 8.106701 2.5625 10.86
10/28/2020 8:27:59 AM 10.4575 50.8235 529.7501 8.148701 2.995003 10.4575
10/28/2020 9:45:34 AM 10.63 51.134 526.9501 8.128401 2.925003 10.63
10/28/2020 10:00:33 AM 10.63 51.134 526.6 8.125601 2.904999 10.63
10/28/2020 10:15:33 AM 10.6475 51.1655 526.2499 8.120701 2.872498 10.6475
10/28/2020 10:30:34 AM 10.6475 51.1655 526.2 8.113001 2.887497 10.6475
10/28/2020 10:45:33 AM 10.6475 51.1655 525.9 8.113701 2.870003 10.6475
10/28/2020 11:00:33 AM 10.6475 51.1655 525.85 8.109501 2.834999 10.6475
10/28/2020 11:15:34 AM 10.645 51.161 525.9 8.110201 2.817497 10.645
10/28/2020 11:30:33 AM 10.6625 51.1925 525.5 8.115101 2.75 10.6625
10/28/2020 11:45:33 AM 10.6975 51.2555 525.5 8.099701 32.08 10.6975
10/28/2020 12:00:33 PM 10.7825 51.4085 525.1 8.105301 18.2875 10.7825
10/28/2020 12:15:33 PM 10.75 51.35 524.15 8.101101 9.434998 10.75
10/28/2020 12:30:34 PM 10.765 51.377 523.8 8.104601 6.290001 10.765
10/28/2020 12:45:34 PM 10.8 51.44 523.4 8.108101 4.57 10.8
10/28/2020 1:00:34 PM 10.8175 51.4715 523.0499 8.108801 3.737503 10.8175
10/28/2020 1:15:33 PM 10.835 51.503 523.1 8.105301 3.407501 10.835
10/28/2020 1:30:33 PM 10.835 51.503 522.7 8.104601 3.282501 10.835
10/28/2020 1:32:32 PM 10.8525 51.5345 522.7 8.103901 3.25 10.8525
10/28/2020 1:47:31 PM 10.8675 51.5615 522.6499 8.103201 3.162498 10.8675
10/28/2020 2:02:31 PM 10.85 51.53 523.0499 8.100401 3.092499 10.85
10/28/2020 3:32:32 PM 10.85 51.53 523.0499 8.100401 3.092499 10.85
10/28/2020 3:47:31 PM 10.8525 51.5345 523.0499 8.079399 3.042503 10.8525
10/28/2020 4:02:32 PM 10.85 51.53 522.7 8.073799 3.059998 10.85
10/28/2020 4:17:32 PM 10.8525 51.5345 522.7501 8.075199 3.074997 10.8525
10/28/2020 4:32:31 PM 10.87 51.566 522.4 8.074499 3.059998 10.87
10/28/2020 4:47:32 PM 10.87 51.566 522.4 8.074499 3.042503 10.87
10/28/2020 5:02:32 PM 10.8525 51.5345 522.3501 8.075899 3.040001 10.8525
10/28/2020 5:17:32 PM 10.85 51.53 522.3501 8.080799 3.042503 10.85
10/28/2020 5:21:58 PM 10.8525 51.5345 522.3501 8.073099 3.057503 10.8525
10/28/2020 5:36:57 PM 10.835 51.503 522.3501 8.080099 3.022499 10.835
10/28/2020 5:51:58 PM 10.835 51.503 522.4 8.084299 3.022499 10.835
10/28/2020 6:06:58 PM 10.8175 51.4715 522.4 8.089899 3.0075 10.8175
10/28/2020 6:21:57 PM 10.815 51.467 522.3501 8.094801 3.004997 10.815
10/28/2020 6:36:57 PM 10.7975 51.4355 522.4 8.099001 2.989998 10.7975
10/28/2020 6:51:57 PM 10.7825 51.4085 522.3501 8.102501 2.972504 10.7825
10/28/2020 7:06:57 PM 10.7475 51.3455 522.7501 8.103901 3.0075 10.7475
10/28/2020 7:21:58 PM 10.73 51.314 522.7501 8.103201 3.004997 10.73
10/28/2020 7:36:58 PM 10.715 51.287 522.7501 8.100401 2.9925 10.715
10/28/2020 7:51:58 PM 10.6775 51.2195 522.7501 8.100401 3.025002 10.6775
10/28/2020 8:06:57 PM 10.645 51.161 523.1 8.094101 3.004997 10.645
10/28/2020 8:21:57 PM 10.6275 51.1295 523.1 8.088499 3.0075 10.6275
10/28/2020 8:36:57 PM 10.5925 51.0665 523.4 8.089199 3.040001 10.5925
10/28/2020 8:51:58 PM 10.575 51.035 523.45 8.088499 3.025002 10.575
10/28/2020 9:06:58 PM 10.54 50.972 523.4 8.089199 3.025002 10.54
10/28/2020 9:21:58 PM 10.5225 50.9405 523.7501 8.089199 2.989998 10.5225
10/28/2020 9:36:58 PM 10.5075 50.9135 523.7501 8.089899 3.025002 10.5075
10/28/2020 9:51:57 PM 10.4875 50.8775 523.7501 8.095501 3.042503 10.4875
10/28/2020 10:06:58 PM 10.4525 50.8145 523.7501 8.094801 3.040001 10.4525
10/28/2020 10:21:57 PM 10.4525 50.8145 524.1 8.094801 3.097504 10.4525
10/28/2020 10:36:58 PM 10.435 50.783 524.1 8.094101 3.040001 10.435
10/28/2020 10:51:58 PM 10.42 50.756 524.1 8.100401 3.077499 10.42
10/28/2020 11:06:58 PM 10.405 50.729 524.15 8.103201 3.097504 10.405
10/28/2020 11:21:58 PM 10.3825 50.6885 524.45 8.104601 3.074997 10.3825
10/28/2020 11:36:58 PM 10.3825 50.6885 524.5 8.110201 3.092499 10.3825
10/29/2020 12:06:58 AM 10.35 50.63 524.45 8.113701 3.512497 10.35
10/29/2020 12:21:58 AM 10.35 50.63 524.1 8.118601 4.467499 10.35
10/29/2020 12:36:58 AM 10.35 50.63 523.45 8.122101 3.910004 10.35
10/29/2020 12:51:58 AM 10.3325 50.5985 523.8 8.123501 3.440002 10.3325
10/29/2020 1:06:58 AM 10.315 50.567 523.8 8.122101 3.217499 10.315
10/29/2020 1:21:58 AM 10.3 50.54 523.8 8.127701 3.182503 10.3
10/29/2020 1:36:58 AM 10.28 50.504 523.7501 8.131901 3.127502 10.28
10/29/2020 1:51:58 AM 10.2775 50.4995 523.8 8.134701 3.095001 10.2775
10/29/2020 2:06:58 AM 10.2625 50.4725 523.8 8.137501 3.110001 10.2625
10/29/2020 2:21:58 AM 10.2625 50.4725 523.85 8.144501 3.114998 10.2625
10/29/2020 2:36:58 AM 10.245 50.441 523.45 8.148001 3.127502 10.245
10/29/2020 2:51:58 AM 10.245 50.441 523.45 8.152901 3.165001 10.245
10/29/2020 3:06:58 AM 10.23 50.414 523.45 8.151501 3.129997 10.23
10/29/2020 3:21:58 AM 10.23 50.414 523.4 8.157101 3.127502 10.23
10/29/2020 3:36:58 AM 10.2275 50.4095 523.45 8.163401 3.127502 10.2275
10/29/2020 3:51:58 AM 10.2275 50.4095 523.1 8.162001 3.129997 10.2275
10/29/2020 4:06:58 AM 10.2125 50.3825 523.1 8.166201 3.112503 10.2125
10/29/2020 4:21:58 AM 10.21 50.378 523.1 8.167601 3.197502 10.21
10/29/2020 4:36:58 AM 10.2125 50.3825 522.7501 8.173201 3.112503 10.2125
10/29/2020 4:51:58 AM 10.1925 50.3465 522.8 8.171801 3.147499 10.1925
10/29/2020 5:06:58 AM 10.195 50.351 522.7501 8.177401 3.182503 10.195
10/29/2020 5:21:58 AM 10.21 50.378 522.7501 8.178801 3.162498 10.21
10/29/2020 5:36:58 AM 10.2125 50.3825 522.4 8.181601 3.165001 10.2125
10/29/2020 5:51:58 AM 10.195 50.351 522.4 8.182301 3.162498 10.195
10/29/2020 6:06:58 AM 10.1925 50.3465 522.4 8.188601 3.199997 10.1925
10/29/2020 6:21:58 AM 10.1775 50.3195 522.0499 8.186501 3.144997 10.1775
10/29/2020 6:36:58 AM 10.1775 50.3195 522.0499 8.187201 3.127502 10.1775
10/29/2020 6:51:58 AM 10.1925 50.3465 521.7 8.193501 3.165001 10.1925
10/29/2020 7:06:58 AM 10.225 50.405 520.6499 8.192101 3.112503 10.225
10/29/2020 7:21:58 AM 10.2475 50.4455 520.3 8.196301 3.112503 10.2475
10/29/2020 7:36:58 AM 10.245 50.441 520 8.195601 3.127502 10.245
10/29/2020 7:51:58 AM 10.2625 50.4725 519.55 8.191401 3.144997 10.2625
10/29/2020 8:06:58 AM 10.2625 50.4725 519.2 8.192101 3.092499 10.2625
10/29/2020 8:21:58 AM 10.26 50.468 518.9501 8.192801 3.077499 10.26
10/29/2020 8:36:58 AM 10.24 50.432 518.55 8.192801 3.074997 10.24
10/29/2020 8:51:58 AM 10.2425 50.4365 524.0499 8.2985 2.900002 10.2425
10/29/2020 9:06:58 AM 10.14 50.252 520.3 8.185801 2.9925 10.14
10/29/2020 9:21:58 AM 10.1425 50.2565 520.3 8.186501 3.057503 10.1425
10/29/2020 9:36:58 AM 10.1775 50.3195 519.6 8.187201 3.095001 10.1775
10/29/2020 9:51:58 AM 10.1925 50.3465 519.6499 8.187901 3.112503 10.1925
10/29/2020 10:06:58 AM 10.2075 50.3735 519.6 8.188601 3.147499 10.2075
10/29/2020 10:21:58 AM 10.23 50.414 519.6499 8.186501 3.18 10.23
10/29/2020 10:36:58 AM 10.245 50.441 519.6 8.183001 3.214996 10.245
10/29/2020 10:51:58 AM 10.2625 50.4725 519.6 8.176701 3.217499 10.2625
10/29/2020 11:06:58 AM 10.3 50.54 521 8.162001 3.269997 10.3
10/29/2020 11:21:58 AM 10.3325 50.5985 523.45 8.137501 3.337502 10.3325
10/29/2020 11:36:58 AM 10.365 50.657 525.85 8.115801 3.404999 10.365
10/29/2020 11:51:58 AM 10.42 50.756 527.9501 8.088499 3.457497 10.42
10/29/2020 12:02:01 PM 10.435 50.783 530 8.075899 3.4925 10.435
10/29/2020 12:06:49 PM 10.4525 50.8145 530.7 8.065399 3.510002 10.4525
10/29/2020 12:21:49 PM 10.4875 50.8775 531.4 8.062599 3.6175 10.4875
10/29/2020 12:36:49 PM 10.5075 50.9135 533.85 8.045799 3.647499 10.5075
10/29/2020 12:51:49 PM 10.56 51.008 536.2 8.026899 3.667503 10.56
10/29/2020 1:06:49 PM 10.49 50.882 517.9 8.138201 4.222504 10.49
10/29/2020 1:21:49 PM 10.52 50.936 513.4 8.119301 4.292503 10.52
10/29/2020 1:36:49 PM 10.2625 50.4725 507.85 8.128401 3.404999 10.2625
10/29/2020 1:51:49 PM 10.1925 50.3465 506.1 8.128401 3.144997 10.1925
10/29/2020 2:06:49 PM 10.175 50.315 505.1 8.127001 3.057503 10.175
10/29/2020 2:21:49 PM 10.1725 50.3105 504.3501 8.122801 3.004997 10.1725
10/29/2020 2:36:49 PM 10.12 50.216 504.7 8.123501 3.004997 10.12
10/29/2020 2:51:49 PM 10.07 50.126 505.4 8.122801 3.025002 10.07
10/29/2020 3:06:49 PM 10.0525 50.0945 505.4 8.122101 2.989998 10.0525
10/29/2020 3:21:49 PM 10.0325 50.0585 505.0499 8.119301 2.989998 10.0325
10/29/2020 3:36:49 PM 10.0875 50.1575 504 8.119301 3.004997 10.0875
10/29/2020 3:51:49 PM 10.085 50.153 503.3501 8.117201 3.0075 10.085
10/29/2020 4:06:49 PM 9.7075 49.4735 508.55 8.115101 2.957497 9.707497
10/29/2020 4:21:49 PM 9.5325 49.1585 510.7 8.115101 2.957497 9.532501
10/29/2020 4:36:49 PM 9.43 48.974 511.0499 8.108801 4.574997 9.43
10/29/2020 4:51:49 PM 9.38 48.884 510.3501 8.110201 6.032501 9.379997
10/29/2020 4:54:46 PM 9.38 48.884 510 8.110201 5.6875 9.379997
10/29/2020 4:56:34 PM 9.3625 48.8525 509.9501 8.111601 5.584999 9.362503
10/29/2020 5:11:34 PM 9.345 48.821 508.9501 8.105301 4.282501 9.345001
10/29/2020 5:26:34 PM 9.325 48.785 508.3 8.105301 3.879997 9.324997
10/29/2020 5:41:34 PM 9.31 48.758 507.6499 8.106001 3.8125 9.309998
10/29/2020 5:56:34 PM 9.31 48.758 506.9 8.105301 3.917503 9.309998
10/29/2020 6:11:34 PM 9.295 48.731 506.2 8.099701 3.864998 9.294998
10/29/2020 6:26:34 PM 9.275 48.695 506.2 8.094101 3.792503 9.275002
10/29/2020 6:41:34 PM 9.2575 48.6635 506.2 8.086399 3.8125 9.2575
10/29/2020 6:56:34 PM 9.2575 48.6635 506.55 8.080799 3.809998 9.2575
10/29/2020 7:11:34 PM 9.2425 48.6365 506.9 8.076599 3.777496 9.2425
10/29/2020 7:26:34 PM 9.225 48.605 507.2499 8.070299 3.794998 9.224998
10/29/2020 7:41:34 PM 9.225 48.605 507.2499 8.066799 3.815002 9.224998
10/29/2020 7:56:34 PM 9.205 48.569 507.6 8.061199 3.830002 9.205002
10/29/2020 8:11:34 PM 9.2075 48.5735 507.9501 8.056299 3.8125 9.207497
10/29/2020 8:26:34 PM 9.1875 48.5375 507.9 8.052799 3.8825 9.1875
10/29/2020 8:41:34 PM 9.19 48.542 507.6 8.047899 3.847504 9.190002
10/29/2020 8:56:34 PM 9.1725 48.5105 506.9 8.048599 3.8125 9.172501
10/29/2020 9:11:34 PM 9.175 48.515 505.9 8.046499 3.917503 9.175003
10/29/2020 9:26:34 PM 9.155 48.479 504.5 8.043699 3.987503 9.154999
10/29/2020 9:41:34 PM 9.1375 48.4475 503.45 8.042999 4.037498 9.137497
10/29/2020 9:56:34 PM 9.12 48.416 502.45 8.042299 4.055 9.120003
10/29/2020 10:11:34 PM 9.085 48.353 501.7501 8.042299 4.142502 9.084999
10/29/2020 10:26:34 PM 9.0675 48.3215 501.3501 8.043699 4.197502 9.067497
10/29/2020 10:41:34 PM 9.035 48.263 501.0499 8.040899 4.337502 9.035004
10/29/2020 10:56:34 PM 9.0175 48.2315 501.1 8.044399 4.355003 9.017502
10/29/2020 11:11:34 PM 9 48.2 500.7 8.042999 4.404999 9
10/29/2020 11:26:34 PM 8.9825 48.1685 500.7 8.042299 4.629997 8.982498
10/29/2020 11:41:34 PM 8.95 48.11 501.0499 8.045799 4.720001 8.949997
10/30/2020 12:11:35 AM 8.9325 48.0785 501.8 8.047199 5.292503 8.932503
10/30/2020 12:26:34 AM 8.915 48.047 502.1 8.050699 5.552498 8.915001
10/30/2020 12:41:34 AM 8.895 48.011 502.1 8.052799 5.514999 8.894997
10/30/2020 12:56:34 AM 8.895 48.011 501.7501 8.057699 5.639999 8.894997
10/30/2020 1:11:34 AM 8.8775 47.9795 501.7501 8.056999 5.864998 8.877502
10/30/2020 1:26:34 AM 8.8625 47.9525 501.0499 8.058399 5.587502 8.862503
10/30/2020 1:41:34 AM 8.8625 47.9525 500.7501 8.061199 5.7425 8.862503
10/30/2020 1:56:34 AM 8.845 47.921 500 8.061899 6.037498 8.845001
10/30/2020 2:11:34 AM 8.8275 47.8895 499.3501 8.061199 7.044998 8.827499
10/30/2020 2:26:34 AM 8.8275 47.8895 498.2499 8.063299 8.224998 8.827499
10/30/2020 2:41:34 AM 8.8125 47.8625 496.9501 8.066799 8.107498 8.8125
10/30/2020 2:56:34 AM 8.79 47.822 495.7501 8.002399 278.5 8.790001
10/30/2020 3:11:34 AM 8.7925 47.8265 496.2499 8.042999 6.957497 8.792503
10/30/2020 3:26:34 AM 8.76 47.768 495.9 8.054199 5.377502 8.760002
10/30/2020 3:41:34 AM 8.74 47.732 495.55 8.054899 4.6325 8.739998
10/30/2020 3:56:34 AM 8.725 47.705 495.2 8.052799 4.425003 8.724998
10/30/2020 4:11:34 AM 9.0175 48.2315 490.3501 8.048599 4.302498 9.017502
10/30/2020 4:26:34 AM 9.295 48.731 485.45 8.045799 4.767502 9.294998
10/30/2020 4:41:34 AM 9.3975 48.9155 482.7 8.045799 5.010002 9.397499
10/30/2020 4:56:34 AM 9.465 49.037 480.9501 8.040199 4.745003 9.464996
10/30/2020 5:11:35 AM 9.4975 49.0955 479.7501 7.9653 162.9 9.497498
10/30/2020 5:26:34 AM 9.5325 49.1585 504.6499 8.015699 88.24988 9.532501
10/30/2020 5:41:35 AM 9.4275 48.9695 480.45 7.8883 72.24988 9.427498
10/30/2020 5:56:34 AM 9.4975 49.0955 478.45 7.9814 11.635 9.497498
10/30/2020 6:11:35 AM 9.5325 49.1585 477 7.9653 120.6499 9.532501
10/30/2020 6:26:35 AM 9.4625 49.0325 478 7.9219 78.59998 9.462502
10/30/2020 6:41:35 AM 9.4275 48.9695 478.4 7.9135 69.55005 9.427498
10/30/2020 6:56:35 AM 9.41 48.938 478.7 7.9114 65.40002 9.410004
10/30/2020 7:11:34 AM 9.41 48.938 478.7501 7.9135 61.44995 9.410004
10/30/2020 7:26:34 AM 9.425 48.965 478.7501 7.91 50.75012 9.425003
10/30/2020 7:41:34 AM 9.4425 48.9965 478.7 7.91 48.30005 9.442497
10/30/2020 7:56:34 AM 9.465 49.037 479.0499 7.903 45.09998 9.464996
10/30/2020 8:11:34 AM 9.4975 49.0955 478.1 7.9639 17.94 9.497498
10/30/2020 8:26:34 AM 9.48 49.064 477.45 7.9891 11.465 9.480003
10/30/2020 8:41:34 AM 9.4275 48.9695 477.4 7.996099 7.264999 9.427498
10/30/2020 8:56:34 AM 9.4275 48.9695 477.0499 8.003099 6.392502 9.427498
10/30/2020 9:11:34 AM 9.0475 48.2855 482.6499 8.002399 5.790001 9.047501
10/30/2020 9:26:35 AM 8.7375 47.7275 487.15 8.003799 10.5325 8.737503
10/30/2020 9:41:35 AM 8.6 47.48 489.3 8.008699 5.254997 8.599998
10/30/2020 9:56:35 AM 8.965 48.137 484.1 8.007299 4.904999 8.964996
10/30/2020 10:11:34 AM 9.1875 48.5375 481.3 8.008699 5.337502 9.1875
10/30/2020 10:26:35 AM 9.2925 48.7265 490.9 8.031099 42.04993 9.292503
10/30/2020 10:41:34 AM 9.22 48.596 480.85 7.9807 33.7775 9.220001
10/30/2020 10:56:35 AM 9.2725 48.6905 479.15 7.9814 14.2075 9.272499
10/30/2020 11:11:35 AM 9.2925 48.7265 478.8 8.001699 9.052498 9.292503
10/30/2020 11:26:35 AM 9.3075 48.7535 478.45 8.012199 6.010002 9.307503
10/30/2020 11:41:35 AM 9.29 48.722 481.2 8.045099 5.160004 9.290001
10/30/2020 11:56:35 AM 9.205 48.569 480.55 8.021999 5.144997 9.205002
10/30/2020 12:11:34 PM 9.17 48.506 480.9 8.017099 5.162498 9.169998
10/30/2020 12:26:35 PM 9.1525 48.4745 481.2499 8.017799 5.147499 9.152496
10/30/2020 12:41:34 PM 9.255 48.659 480.2 7.997499 9.487503 9.254997
10/30/2020 12:56:34 PM 9.36 48.848 479.15 8.002399 6.620003 9.360001
10/30/2020 1:11:35 PM 9.4125 48.9425 478.8 8.011499 5.337502 9.412498
10/30/2020 1:26:34 PM 9.3775 48.8795 478.8 8.019899 6.202499 9.377502
10/30/2020 1:41:34 PM 9.3575 48.8435 480.15 8.026899 7.364998 9.357498
10/30/2020 1:56:34 PM 9.36 48.848 480.55 8.031099 6.235001 9.360001
10/30/2020 2:11:34 PM 9.36 48.848 480.85 8.030399 5.127502 9.360001
10/30/2020 2:26:34 PM 9.3775 48.8795 481.55 8.031099 4.762497 9.377502
10/30/2020 2:41:35 PM 9.375 48.875 481.85 8.031099 3.894997 9.375
10/30/2020 2:56:34 PM 9.36 48.848 482.55 8.030399 12.68 9.360001
10/30/2020 3:11:34 PM 9.36 48.848 482.9501 8.035299 9.07 9.360001
10/30/2020 3:26:34 PM 9.4275 48.9695 482.6 8.033899 5.787498 9.427498
10/30/2020 3:41:34 PM 9.0275 48.2495 488.8 8.040899 6.099998 9.027496
10/30/2020 3:56:34 PM 8.7525 47.7545 493.6499 8.024799 65.15002 8.752502
10/30/2020 4:11:34 PM 8.615 47.507 496.45 8.044399 33.1725 8.614998
10/30/2020 4:26:34 PM 8.55 47.39 497.9501 8.061199 11.4725 8.550003
10/30/2020 4:41:34 PM 8.4975 47.2955 498.9501 8.072399 6.922501 8.497498
10/30/2020 4:56:35 PM 8.6025 47.4845 497.9501 8.077999 5.254997 8.602501
10/30/2020 5:11:34 PM 8.95 48.11 493.1 8.085699 4.9925 8.949997
10/30/2020 5:26:35 PM 9.135 48.443 490.2499 8.095501 4.470001 9.135002
10/30/2020 5:41:34 PM 9.205 48.569 489.55 8.106001 4.660004 9.205002
10/30/2020 5:56:34 PM 9.2225 48.6005 489.15 8.108101 4.2425 9.222504
10/30/2020 6:11:34 PM 9.2375 48.6275 489.2 8.117901 4.152496 9.237503
10/30/2020 6:26:35 PM 9.2375 48.6275 489.5 8.122801 4.152496 9.237503
10/30/2020 6:41:34 PM 9.22 48.596 489.85 8.129101 4.099998 9.220001
10/30/2020 6:56:34 PM 8.72 47.696 497.5 8.134701 4.190002 8.720001
10/30/2020 7:11:34 PM 8.445 47.201 502 8.144501 7.527496 8.445
10/30/2020 7:26:35 PM 8.325 46.985 504.85 8.148701 5.1175 8.324997
10/30/2020 7:41:35 PM 8.2375 46.8275 506.6499 8.150801 4.752502 8.237503
10/30/2020 7:56:35 PM 8.17 46.706 508 8.155701 4.440002 8.169998
10/30/2020 8:11:34 PM 8.3775 47.0795 505.55 8.159201 4.355003 8.377502
10/30/2020 8:26:34 PM 8.7225 47.7005 500.6499 8.160601 4.315002 8.722504
10/30/2020 8:41:35 PM 8.91 48.038 498.2 8.163401 4.330002 8.910004
10/30/2020 8:56:34 PM 8.9975 48.1955 497.85 8.162701 4.3825 8.997498
10/30/2020 9:11:34 PM 9.05 48.29 497.85 8.167601 4.452499 9.050003
10/30/2020 9:26:34 PM 9.065 48.317 498.5 8.166901 4.487503 9.065002
10/30/2020 9:41:34 PM 9.08 48.344 498.5 8.168301 4.449997 9.080002
10/30/2020 9:56:34 PM 9.0825 48.3485 498.85 8.166901 4.502502 9.082497
10/30/2020 10:11:34 PM 9.08 48.344 499.2 8.168301 4.622498 9.080002
10/30/2020 10:26:34 PM 9.0125 48.2225 500.2 8.163401 4.709999 9.012497
10/30/2020 10:41:34 PM 8.475 47.255 508.6 8.164101 4.767502 8.474998
10/30/2020 10:56:34 PM 8.2025 46.7645 512.45 8.158501 4.75 8.202499
10/30/2020 11:11:34 PM 8.41 47.138 508.9501 8.159901 4.839996 8.410004
10/30/2020 11:26:34 PM 8.705 47.669 504.1 8.152201 4.764999 8.705002
10/30/2020 11:41:34 PM 8.8225 47.8805 501.6499 8.149401 4.762497 8.822502
10/31/2020 12:11:34 AM 8.91 48.038 499.2 8.137501 4.902496 8.910004
10/31/2020 12:26:34 AM 8.9275 48.0695 498.1 8.133301 4.852501 8.927498
10/31/2020 12:41:34 AM 8.925 48.065 496.8 8.129801 4.815002 8.925003
10/31/2020 12:56:34 AM 8.9275 48.0695 496.1 8.118601 4.885002 8.927498
10/31/2020 1:11:34 AM 8.6675 47.6015 498.5 8.114401 4.922501 8.667503
10/31/2020 1:26:34 AM 8.2 46.76 504.45 8.109501 4.922501 8.199997
10/31/2020 1:41:34 AM 8.0475 46.4855 505.9 8.099701 4.927498 8.047501
10/31/2020 1:56:34 AM 8.425 47.165 499.2499 8.096201 4.904999 8.425003
10/31/2020 2:11:34 AM 8.635 47.543 495.15 8.084999 5.042503 8.635002
10/31/2020 2:26:34 AM 8.7025 47.6645 492.3 8.082199 5.059998 8.702499
10/31/2020 2:41:34 AM 8.7 47.66 490.55 8.075899 8.775002 8.699997
10/31/2020 2:56:34 AM 8.77 47.786 490.55 8.064699 7.419998 8.769997
10/31/2020 3:11:34 AM 8.7875 47.8175 488.5 8.059799 6.1875 8.787498
10/31/2020 3:26:34 AM 8.595 47.471 489.15 8.056999 5.927498 8.595001
10/31/2020 3:41:34 AM 8.0775 46.5395 495.8 8.049999 5.097504 8.077499
10/31/2020 3:56:34 AM 7.835 46.103 498.3 8.048599 4.977501 7.834999
10/31/2020 4:11:34 AM 7.7 45.86 499 8.047899 4.927498 7.699997
10/31/2020 4:26:34 AM 7.9225 46.2605 494.85 8.042299 5.014999 7.922501
10/31/2020 4:41:34 AM 8.2725 46.8905 488.6 8.037399 4.942497 8.269997
10/31/2020 4:56:34 AM 8.4275 47.1695 484.7501 8.031099 4.955002 8.427498
10/31/2020 5:11:34 AM 8.495 47.291 482.6499 8.030399 5.0075 8.495003
10/31/2020 5:26:34 AM 8.5275 47.3495 481.2499 8.027599 5.010002 8.527496
10/31/2020 5:41:34 AM 8.545 47.381 479.85 8.025499 4.9925 8.544998
10/31/2020 5:56:34 AM 8.545 47.381 478.15 8.022699 4.972504 8.544998
10/31/2020 6:11:34 AM 8.5425 47.3765 477.0499 8.015699 4.9925 8.542503
10/31/2020 6:26:34 AM 8.525 47.345 475.6499 8.017099 4.919998 8.525002
10/31/2020 6:41:34 AM 8.5275 47.3495 474.3501 8.010099 4.955002 8.527496
10/31/2020 6:56:34 AM 8.095 46.571 479.15 8.010799 4.922501 8.095001
10/31/2020 7:11:34 AM 7.6975 45.8555 484.1 8.007299 4.977501 7.697502
10/31/2020 7:26:34 AM 7.7325 45.9185 482 8.003099 4.959999 7.732498
10/31/2020 7:41:34 AM 8.095 46.571 475.7501 8.003799 4.9925 8.095001
10/31/2020 7:56:35 AM 8.2525 46.8545 471.6 7.998199 5.042503 8.252502
10/31/2020 8:11:35 AM 8.3025 46.9445 468.8 7.997499 5.059998 8.302498
10/31/2020 8:26:35 AM 8.3375 47.0075 466.6499 7.992599 5.022499 8.337502
10/31/2020 8:41:34 AM 8.3525 47.0345 465 7.991199 5.004997 8.352501
10/31/2020 8:56:35 AM 8.355 47.039 463.6 7.9877 5.004997 8.355003
10/31/2020 9:11:34 AM 8.3525 47.0345 461.85 7.987 4.934998 8.352501
10/31/2020 9:41:34 AM 8.355 47.039 459.1 7.9863 4.847504 8.355003
10/31/2020 9:56:34 AM 7.955 46.319 462.9 7.9877 4.885002 7.955002
10/31/2020 10:11:34 AM 7.6075 45.6935 466.7501 7.989799 4.839996 7.607498
10/31/2020 10:26:34 AM 7.4875 45.4775 467.15 7.989799 4.855003 7.487503
10/31/2020 10:41:34 AM 7.8675 46.1615 460.2 7.989799 4.977501 7.8675
10/31/2020 10:56:34 AM 8.095 46.571 456 7.992599 4.922501 8.095001
10/31/2020 11:11:34 AM 8.1775 46.7195 453.2499 7.997499 6.120003 8.177498
10/31/2020 11:26:34 AM 8.2475 46.8455 451.8 7.997499 6.605003 8.247498
10/31/2020 11:41:34 AM 8.0425 46.4765 452.5 8.002399 6.205002 8.042503
10/31/2020 11:56:34 AM 7.6775 45.8195 456.7501 8.009399 5.305 7.677498
10/31/2020 12:11:34 PM 7.54 45.572 457.8 8.012899 5.065002 7.540001
10/31/2020 12:26:34 PM 7.47 45.446 457.85 8.019199 4.925003 7.470001
10/31/2020 12:41:34 PM 7.8175 46.0715 451.9 8.024099 4.872498 7.817497
10/31/2020 12:56:34 PM 8.1125 46.6025 446.7 8.026199 4.802498 8.112503
10/31/2020 1:11:34 PM 8.2175 46.7915 444.6 8.035299 4.745003 8.217499
10/31/2020 1:26:34 PM 7.8525 46.1345 449.1 8.042999 4.68 7.852501
10/31/2020 1:41:34 PM 7.695 45.851 450.5 8.052099 4.644997 7.695
10/31/2020 1:56:34 PM 7.73 45.914 449.85 8.057699 4.612503 7.730003
10/31/2020 2:11:34 PM 7.75 45.95 449.5 8.068199 4.592499 7.75
10/31/2020 2:26:34 PM 7.82 46.076 448.1 8.061899 4.540001 7.82
10/31/2020 2:41:34 PM 8.235 46.823 442.5 8.070999 4.522499 8.235001
10/31/2020 2:56:34 PM 8.4775 47.2595 438.7 8.079399 4.504997 8.477501
10/31/2020 3:11:34 PM 8.615 47.507 436.6 8.090599 4.449997 8.614998
10/31/2020 3:26:34 PM 8.2525 46.8545 440.45 8.100401 4.3825 8.252502
10/31/2020 3:41:34 PM 8.045 46.481 442.85 8.103901 4.3675 8.044998
10/31/2020 3:56:34 PM 8.045 46.481 442.2 8.115101 4.352501 8.044998
10/31/2020 4:11:34 PM 7.9925 46.3865 442.6 8.124201 4.332497 7.9925
10/31/2020 4:26:34 PM 7.9775 46.3595 441.9 8.129101 4.352501 7.977501
10/31/2020 4:41:34 PM 7.9775 46.3595 441.2 8.139601 4.282501 7.977501
10/31/2020 4:56:34 PM 8.0975 46.5755 439.1 8.149401 4.230003 8.097504
10/31/2020 5:11:34 PM 8.4075 47.1335 434.6 8.163401 4.192497 8.407501
10/31/2020 5:26:34 PM 8.5625 47.4125 432.15 8.173901 4.245003 8.5625
10/31/2020 5:41:34 PM 8.615 47.507 430.7501 8.183001 4.227501 8.614998
10/31/2020 5:56:34 PM 8.5275 47.3495 431.1 8.191401 4.2425 8.527496
10/31/2020 6:11:34 PM 8.165 46.697 435.3 8.2019 4.227501 8.165001
10/31/2020 6:26:34 PM 8.39 47.102 431.45 8.2061 4.227501 8.389999
10/31/2020 6:41:34 PM 8.5275 47.3495 429.4 8.2152 4.192497 8.527496
10/31/2020 6:56:34 PM 8.58 47.444 428.6499 8.2257 4.2425 8.580002
10/31/2020 7:11:34 PM 8.2675 46.8815 432.45 8.2348 4.262497 8.267502
10/31/2020 7:26:34 PM 7.9725 46.3505 435.9501 8.2425 4.315002 7.972504
10/31/2020 7:41:34 PM 8.165 46.697 432.85 8.2453 4.349998 8.165001
10/31/2020 7:56:34 PM 8.41 47.138 429.3501 8.117901 4.402496 8.410004
10/31/2020 8:11:34 PM 8.5125 47.3225 428 8.152201 4.417503 8.512497
10/31/2020 8:26:34 PM 8.2175 46.7915 431.1 8.159901 4.452499 8.217499
10/31/2020 8:41:34 PM 7.87 46.166 435.6499 8.164101 4.474998 7.870003
10/31/2020 8:56:34 PM 7.735 45.923 437.4 8.170401 4.5075 7.735001
10/31/2020 9:11:34 PM 7.63 45.734 438.5 8.169701 4.5625 7.629997
10/31/2020 9:26:34 PM 7.5625 45.6125 438.85 8.164801 4.580002 7.5625
10/31/2020 9:41:34 PM 7.4925 45.4865 439.55 8.166201 4.565002 7.4925
10/31/2020 9:56:34 PM 7.4225 45.3605 440.2499 8.161301 4.547501 7.422501
10/31/2020 10:11:34 PM 7.545 45.581 438.5 8.162001 4.512497 7.544998
10/31/2020 10:26:34 PM 7.945 46.301 432.9501 8.158501 4.4925 7.945
10/31/2020 10:41:34 PM 8.15 46.67 430.1 8.157801 4.542503 8.150002
10/31/2020 10:56:34 PM 8.2175 46.7915 428.7 8.157801 4.540001 8.217499
10/31/2020 11:11:34 PM 7.8175 46.0715 433.55 8.160601 4.559998 7.817497
10/31/2020 11:26:34 PM 7.4025 45.3245 438.45 8.156401 4.544998 7.402496
10/31/2020 11:41:34 PM 7.2125 44.9825 440.9501 8.150801 4.582497 7.212502
11/1/2020 12:11:34 AM 7.87 46.166 430.8 8.141001 4.662498 7.870003
11/1/2020 12:26:34 AM 7.975 46.355 429.4 8.133301 4.627502 7.974998
11/1/2020 12:41:34 AM 7.5575 45.6035 434.2499 8.131201 4.662498 7.557503
11/1/2020 12:56:34 AM 7.125 44.825 439.8 8.126301 4.682503 7.125
11/1/2020 1:11:34 AM 7.52 45.536 432.5 8.106001 4.732498 7.519997
11/1/2020 1:11:34 AM 6.9725 44.5505 441.6 8.120001 4.6875 6.972504
11/1/2020 1:26:34 AM 7.4025 45.3245 435.3501 8.115801 4.699997 7.402496
11/1/2020 1:41:34 AM 7.6275 45.7295 431.85 8.111601 4.769997 7.627502
11/1/2020 1:56:34 AM 7.7275 45.9095 430.1 8.106001 4.714996 7.727501
11/1/2020 2:26:34 AM 7.6075 45.6935 431.45 8.090599 4.785004 7.607498
11/1/2020 2:41:34 AM 7.3125 45.1625 435.3 8.085699 4.75 7.3125
11/1/2020 2:56:34 AM 7.0375 44.6675 439.1 8.081499 4.75 7.037498
11/1/2020 3:11:34 AM 6.97 44.546 440.55 8.075899 4.720001 6.970001
11/1/2020 3:26:34 AM 7.1425 44.8565 438.45 8.072399 4.717499 7.142502
11/1/2020 3:41:34 AM 7.42 45.356 434.9501 8.065399 4.735001 7.419998
11/1/2020 3:56:34 AM 7.5575 45.6035 433.2 8.061899 4.732498 7.557503
11/1/2020 4:11:34 AM 7.6075 45.6935 432.8 8.061199 4.712502 7.607498
11/1/2020 4:26:34 AM 7.415 45.347 435.2499 8.056999 4.699997 7.415001
11/1/2020 4:41:34 AM 7.07 44.726 440.1 8.052799 4.68 7.07
11/1/2020 4:56:34 AM 6.9475 44.5055 441.85 8.047199 4.714996 6.947502
11/1/2020 5:11:34 AM 7.26 45.068 438.0499 8.045799 4.68 7.260002
11/1/2020 5:26:34 AM 7.4175 45.3515 435.9 8.040899 4.612503 7.417503
11/1/2020 5:56:34 AM 7.2575 45.0635 438.4 8.036699 4.592499 7.2575
11/1/2020 6:11:34 AM 6.93 44.474 442.9 8.032499 4.574997 6.93
11/1/2020 6:26:34 AM 7.055 44.699 441.5 8.031799 4.577499 7.055
11/1/2020 6:41:34 AM 7.2775 45.0995 438.7 8.025499 4.542503 7.277496
11/1/2020 6:56:35 AM 7.365 45.257 437.7 8.021299 4.537498 7.364998
11/1/2020 7:11:34 AM 7.38 45.284 437.6499 8.021299 4.485001 7.379997
11/1/2020 7:26:34 AM 6.9675 44.5415 443.55 8.017099 4.504997 6.967499
11/1/2020 7:41:35 AM 6.7575 44.1635 447.0499 8.017799 4.540001 6.7575
11/1/2020 7:56:35 AM 6.705 44.069 448.1 8.019199 4.489998 6.705002
11/1/2020 8:11:35 AM 6.8275 44.2895 446.7501 8.017799 4.474998 6.827499
11/1/2020 8:26:34 AM 7.1225 44.8205 443.2499 8.013599 4.4375 7.122498
11/1/2020 8:41:35 AM 7.2425 45.0365 442.15 8.018499 4.434998 7.2425
11/1/2020 8:56:34 AM 7.3125 45.1625 441.8 8.020599 4.400002 7.3125
11/1/2020 9:11:34 AM 7.38 45.284 441.45 8.021999 4.347504 7.379997
11/1/2020 9:26:35 AM 7.1725 44.9105 444.9501 8.028299 4.364998 7.172501
11/1/2020 9:41:34 AM 7.295 45.131 443.9 8.031799 4.330002 7.294998
11/1/2020 9:56:35 AM 7.3975 45.3155 443.55 8.037399 4.294998 7.397499
11/1/2020 10:11:34 AM 7.45 45.41 443.85 8.046499 4.224998 7.449997
11/1/2020 10:26:34 AM 7.5025 45.5045 443.85 8.045099 4.239998 7.502502
11/1/2020 10:41:34 AM 7.2925 45.1265 448.0499 8.052099 4.2425 7.292503
11/1/2020 10:56:34 AM 7.31 45.158 448.4 8.055599 4.224998 7.309998
11/1/2020 11:11:34 AM 7.485 45.473 447.3501 8.061199 4.207497 7.485001
11/1/2020 11:26:34 AM 7.5725 45.6305 446.9501 8.061199 4.190002 7.572502
11/1/2020 11:41:35 AM 7.6075 45.6935 446.6 8.059099 4.154999 7.607498
11/1/2020 11:56:35 AM 7.3125 45.1625 451.15 8.055599 4.102501 7.3125
11/1/2020 12:11:35 PM 7.3475 45.2255 451.5 8.059799 4.120003 7.347504
11/1/2020 12:26:35 PM 7.505 45.509 449.8 8.056999 4.105003 7.504997
11/1/2020 12:41:35 PM 7.57 45.626 449.0499 8.060499 4.07 7.57
11/1/2020 12:56:35 PM 7.575 45.635 449.4 8.058399 4.07 7.574997
11/1/2020 1:11:34 PM 7.295 45.131 453.9 8.098301 4.055 7.294998
11/1/2020 1:26:35 PM 7.3975 45.3155 453.2 8.125601 4.050003 7.397499
11/1/2020 1:41:35 PM 7.5725 45.6305 451.85 8.134701 4.050003 7.572502
11/1/2020 1:56:35 PM 7.6425 45.7565 451.15 8.132601 4.014999 7.642502
11/1/2020 2:11:34 PM 7.3125 45.1625 456.3501 8.138201 4.055 7.3125
11/1/2020 2:26:35 PM 7.105 44.789 460.2 8.143801 3.982498 7.105003
11/1/2020 2:41:34 PM 7.035 44.663 461.2 8.149401 3.985001 7.035004
11/1/2020 2:56:34 PM 7.0175 44.6315 462.2499 8.042999 3.985001 7.017502
11/1/2020 3:11:34 PM 7.0375 44.6675 462.6499 8.035999 3.949997 7.037498
11/1/2020 3:26:34 PM 7.14 44.852 461.6 8.032499 3.932503 7.139999
11/1/2020 3:41:34 PM 7.47 45.446 457.0499 8.031099 3.897499 7.470001
11/1/2020 3:56:34 PM 7.6425 45.7565 455.3 8.026199 3.860001 7.642502
11/1/2020 4:11:34 PM 7.3825 45.2885 459.45 8.031799 3.860001 7.3825
11/1/2020 4:26:34 PM 7.105 44.789 464 8.038099 3.847504 7.105003
11/1/2020 4:41:34 PM 7.0025 44.6045 466.4 8.042299 3.8825 7.002502
11/1/2020 4:56:34 PM 6.95 44.51 467.85 8.048599 3.864998 6.949997
11/1/2020 5:11:34 PM 6.9175 44.4515 469.2 8.057699 3.847504 6.917503
11/1/2020 5:26:34 PM 6.9175 44.4515 469.9501 8.061899 3.794998 6.917503
11/1/2020 5:41:34 PM 6.9 44.42 470.6499 8.066799 3.760002 6.900002
11/1/2020 5:56:34 PM 7.0925 44.7665 468.55 8.076599 3.760002 7.092499
11/1/2020 6:11:34 PM 7.455 45.419 463.6499 8.080799 3.777496 7.455002
11/1/2020 6:26:34 PM 7.625 45.725 461.55 8.089899 3.794998 7.625
11/1/2020 6:41:34 PM 7.3475 45.2255 465.7501 8.104601 3.792503 7.347504
11/1/2020 6:56:34 PM 7.02 44.636 470.9501 8.110201 3.777496 7.019997
11/1/2020 7:11:34 PM 6.9175 44.4515 472.7 8.115101 3.832497 6.917503
11/1/2020 7:26:34 PM 7.195 44.951 469.2 8.119301 3.830002 7.195
11/1/2020 7:41:34 PM 7.47 45.446 465.4 8.130501 3.8125 7.470001
11/1/2020 7:56:34 PM 7.5925 45.6665 463.6499 8.138901 3.827499 7.592499
11/1/2020 8:11:34 PM 7.14 44.852 470.2 8.150101 3.794998 7.139999
11/1/2020 8:26:34 PM 6.88 44.384 474.8 8.154301 3.794998 6.879997
11/1/2020 8:41:34 PM 6.9525 44.5145 474.1 8.164101 3.779999 6.952499
11/1/2020 8:56:34 PM 7.3525 45.2345 468.85 8.172501 3.777496 7.352501
11/1/2020 9:11:34 PM 7.54 45.572 466.0499 8.178801 3.792503 7.540001
11/1/2020 9:26:35 PM 7.6275 45.7295 464.6499 8.181601 3.790001 7.627502
11/1/2020 9:41:35 PM 7.33 45.194 468.8 8.187901 3.8125 7.330002
11/1/2020 9:56:34 PM 6.95 44.51 474.7 8.193501 3.827499 6.949997
11/1/2020 10:11:34 PM 6.7425 44.1365 478.2499 8.197701 3.794998 6.7425
11/1/2020 10:26:35 PM 6.6925 44.0465 478.6 8.1991 3.815002 6.692497
11/1/2020 10:41:35 PM 7.1225 44.8205 472.3501 8.1991 3.797501 7.122498
11/1/2020 10:56:34 PM 7.3325 45.1985 468.85 8.197001 3.792503 7.332497
11/1/2020 11:11:35 PM 7.435 45.383 467.4 8.192801 3.792503 7.434998
11/1/2020 11:26:35 PM 6.935 44.483 474.7501 8.191401 3.777496 6.934998
11/1/2020 11:41:34 PM 6.6375 43.9475 479.2499 8.194901 3.779999 6.637497
11/2/2020 12:11:35 AM 7.1225 44.8205 471.9501 8.187901 3.917503 7.122498
11/2/2020 12:26:35 AM 7.105 44.789 471.9501 8.181601 4.07 7.105003
11/2/2020 12:41:35 AM 6.6725 44.0105 478.6 8.178801 4.022499 6.672501
11/2/2020 12:56:35 AM 6.4825 43.6685 481 8.175301 3.9375 6.482498
11/2/2020 1:11:35 AM 6.7275 44.1095 477.5 8.174601 3.779999 6.727501
11/2/2020 1:26:34 AM 7.0375 44.6675 472.7 8.170401 3.709999 7.037498
11/2/2020 1:41:35 AM 7.19 44.942 470.55 8.164801 3.707497 7.190002
11/2/2020 1:56:35 AM 7.2425 45.0365 469.85 8.159201 3.6875 7.2425
11/2/2020 2:11:34 AM 7.2775 45.0995 469.5 8.153601 3.690002 7.277496
11/2/2020 2:26:35 AM 7.295 45.131 469.15 8.152901 3.705002 7.294998
11/2/2020 2:41:35 AM 7.295 45.131 469.1 8.148001 3.6875 7.294998
11/2/2020 2:56:34 AM 7.3125 45.1625 468.8 8.147301 3.650002 7.3125
11/2/2020 3:11:35 AM 7.3275 45.1895 468.7501 8.143101 3.652496 7.327499
11/2/2020 3:26:35 AM 7.3125 45.1625 468.7501 8.141701 3.650002 7.3125
11/2/2020 3:41:34 AM 7.3125 45.1625 469.1 8.141701 3.650002 7.3125
11/2/2020 3:56:35 AM 7.2925 45.1265 469.1 8.144501 3.650002 7.292503
11/2/2020 4:11:35 AM 7.2775 45.0995 469.1 8.141001 3.6175 7.277496
11/2/2020 4:26:35 AM 7.2575 45.0635 469.45 8.138901 3.635002 7.2575
11/2/2020 4:41:35 AM 7.225 45.005 469.45 8.147301 3.635002 7.224998
11/2/2020 4:56:34 AM 7.1875 44.9375 469.8 8.148701 3.669998 7.1875
11/2/2020 5:11:34 AM 7.155 44.879 470.15 8.148001 3.6875 7.154999
11/2/2020 5:26:35 AM 7.135 44.843 470.1 8.148701 3.667503 7.135002
11/2/2020 5:41:35 AM 7.12 44.816 470.15 8.152201 3.702499 7.120003
11/2/2020 5:56:34 AM 7.1025 44.7845 470.15 8.152901 3.702499 7.102501
11/2/2020 6:11:35 AM 7.085 44.753 470.15 8.150801 3.6325 7.084999
11/2/2020 6:26:35 AM 7.05 44.69 470.5 8.153601 3.614998 7.050003
11/2/2020 6:41:35 AM 7.035 44.663 470.5 8.151501 3.614998 7.035004
11/2/2020 6:56:35 AM 6.9975 44.5955 470.8 8.148001 3.635002 6.997498
11/2/2020 7:11:35 AM 6.9625 44.5325 471.15 8.148701 3.654999 6.962502
11/2/2020 7:26:35 AM 6.945 44.501 471.5 8.148001 3.635002 6.945
11/2/2020 7:41:35 AM 6.9475 44.5055 471.55 8.141701 3.614998 6.947502
11/2/2020 7:56:34 AM 6.91 44.438 471.85 8.141701 3.597504 6.910004
11/2/2020 8:11:35 AM 6.9125 44.4425 471.5 8.136801 3.580002 6.912498
11/2/2020 8:26:35 AM 6.895 44.411 471.55 8.136801 3.5625 6.894997
11/2/2020 8:41:35 AM 6.86 44.348 471.85 8.132601 3.547501 6.860001
11/2/2020 8:56:35 AM 6.84 44.312 471.9 8.132601 3.440002 6.839996
11/2/2020 9:11:34 AM 6.8075 44.2535 472.2 8.133301 2.504997 6.807503
11/2/2020 9:26:35 AM 6.7875 44.2175 472.55 8.133301 2.574997 6.787498
11/2/2020 9:41:35 AM 6.8075 44.2535 472.2 8.136801 2.712502 6.807503
11/2/2020 9:56:35 AM 6.79 44.222 472.5 8.136101 2.714996 6.790001
11/2/2020 10:11:35 AM 6.79 44.222 472.9 8.138901 2.714996 6.790001
11/2/2020 10:26:35 AM 6.79 44.222 472.9 8.137501 2.747498 6.790001
11/2/2020 10:41:34 AM 6.79 44.222 472.9 8.141701 2.714996 6.790001
11/2/2020 10:56:35 AM 6.8425 44.3165 472.55 8.141001 2.697502 6.842499
11/2/2020 11:11:35 AM 6.875 44.375 472.9 8.141701 2.697502 6.875
11/2/2020 11:26:35 AM 6.91 44.438 472.9 8.145901 2.677498 6.910004
11/2/2020 11:41:35 AM 6.9275 44.4695 473.55 8.150801 2.642502 6.927498
11/2/2020 11:56:35 AM 6.9625 44.5325 473.55 8.153601 2.660004 6.962502
11/2/2020 12:11:35 PM 6.995 44.591 473.55 8.152901 2.642502 6.995003
11/2/2020 12:26:35 PM 7.05 44.69 473.2 8.155701 2.677498 7.050003
11/2/2020 12:41:35 PM 7.085 44.753 473.2499 8.160601 2.677498 7.084999
11/2/2020 12:56:35 PM 7.1175 44.8115 473.2 8.162001 2.692497 7.1175
11/2/2020 1:11:35 PM 7.0825 44.7485 476.3 8.171101 2.730003 7.082497
11/2/2020 1:26:35 PM 7.1025 44.7845 473.55 8.131201 6.900002 7.102501
11/2/2020 1:41:35 PM 7.205 44.969 472.2 8.152201 5.300003 7.205002
11/2/2020 1:56:35 PM 7.24 45.032 472.2 8.160601 4.065002 7.239998
11/2/2020 2:11:35 PM 7.26 45.068 472.6 8.171801 3.510002 7.260002
11/2/2020 2:26:35 PM 7.225 45.005 472.9 8.180901 3.489998 7.224998
11/2/2020 2:41:34 PM 7.205 44.969 473.6499 8.190701 3.214996 7.205002
11/2/2020 2:56:35 PM 7.19 44.942 474.2499 8.185101 3.025002 7.190002
11/2/2020 3:11:34 PM 7.1525 44.8745 474.6499 8.185801 3.040001 7.152496
11/2/2020 3:26:35 PM 7.0825 44.7485 474.9501 8.196301 3.004997 7.082497
11/2/2020 3:41:35 PM 7.015 44.627 475.3 8.2019 2.989998 7.014999
11/2/2020 3:56:35 PM 6.9975 44.5955 475.6499 8.2047 3.072502 6.997498
11/2/2020 4:11:35 PM 6.9625 44.5325 475.6499 8.2103 3.074997 6.962502
11/2/2020 4:26:35 PM 6.8925 44.4065 476.3501 8.2208 2.9375 6.892502
11/2/2020 4:41:35 PM 6.79 44.222 477.0499 8.2299 3.247498 6.790001
11/2/2020 4:56:35 PM 6.735 44.123 477.7501 8.2404 3.074997 6.735001
11/2/2020 5:11:35 PM 6.7025 44.0645 478.45 8.2544 2.885002 6.702499
11/2/2020 5:26:35 PM 6.7025 44.0645 478.7501 8.26 2.8675 6.702499
11/2/2020 5:41:35 PM 6.685 44.033 479.1 8.2642 3.217499 6.684998
11/2/2020 5:56:35 PM 6.7375 44.1275 478.4 8.2698 2.8675 6.737503
11/2/2020 6:11:35 PM 6.7525 44.1545 478.4 8.274 2.885002 6.752502
11/2/2020 6:26:35 PM 6.77 44.186 478.4 8.2747 2.902496 6.769997
11/2/2020 6:41:35 PM 6.7725 44.1905 478.7501 8.2733 2.864998 6.772499
11/2/2020 6:56:35 PM 6.8075 44.2535 478.45 8.2677 2.972504 6.807503
11/2/2020 7:11:35 PM 6.825 44.285 478.45 8.2628 2.900002 6.824997
11/2/2020 7:26:35 PM 6.805 44.249 479.1 8.274 2.904999 6.805
11/2/2020 7:41:35 PM 6.8225 44.2805 479.1 8.274 2.885002 6.822502
11/2/2020 7:56:35 PM 6.8425 44.3165 478.7501 8.2684 2.9375 6.842499
11/2/2020 8:11:35 PM 6.8425 44.3165 478.8 8.2684 2.972504 6.842499
11/2/2020 8:26:35 PM 6.86 44.348 478.4 8.2684 3.074997 6.860001
11/2/2020 8:41:35 PM 6.8925 44.4065 478.4 8.2649 3.144997 6.892502
11/2/2020 8:56:35 PM 6.91 44.438 478.4 8.2691 3.074997 6.910004
11/2/2020 9:11:35 PM 6.9275 44.4695 478.8 8.2796 3.059998 6.927498
11/2/2020 9:26:35 PM 6.9275 44.4695 479.15 8.288 3.022499 6.927498
11/2/2020 9:41:35 PM 6.86 44.348 480.15 8.2929 2.987503 6.860001
11/2/2020 9:56:35 PM 6.8225 44.2805 480.85 8.2978 2.989998 6.822502
11/2/2020 10:11:35 PM 6.805 44.249 481.55 8.3097 3.040001 6.805
11/2/2020 10:26:35 PM 6.7725 44.1905 481.9 8.3146 3.025002 6.772499
11/2/2020 10:41:35 PM 6.7725 44.1905 481.9 8.3181 2.989998 6.772499
11/2/2020 10:56:35 PM 6.79 44.222 481.15 8.3258 3.025002 6.790001
11/2/2020 11:11:35 PM 6.8575 44.3435 480.15 8.3286 3.022499 6.857498
11/2/2020 11:26:35 PM 6.8925 44.4065 479.45 8.3328 3.022499 6.892502
11/2/2020 11:41:35 PM 6.8925 44.4065 479.45 8.3377 3.042503 6.892502
11/3/2020 12:11:35 AM 6.84 44.312 479.7501 8.3321 7.5075 6.839996
11/3/2020 12:26:35 AM 6.7875 44.2175 480.15 8.3314 6.842499 6.787498
11/3/2020 12:41:35 AM 6.735 44.123 480.8 8.3328 4.047501 6.735001
11/3/2020 12:56:35 AM 6.6475 43.9655 481.85 8.3272 3.334999 6.647499
11/3/2020 1:11:35 AM 6.6175 43.9115 482.55 8.3223 3.144997 6.6175
11/3/2020 1:26:35 AM 6.5825 43.8485 483.2499 8.3174 3.077499 6.582497
11/3/2020 1:41:34 AM 6.545 43.781 483.6499 8.3139 3.077499 6.544998
11/3/2020 1:56:35 AM 6.5125 43.7225 483.9501 8.3083 3.059998 6.512497
11/3/2020 2:11:35 AM 6.4925 43.6865 484 8.2978 3.042503 6.4925
11/3/2020 2:26:35 AM 6.5475 43.7855 483.3 8.2873 3.0075 6.547501
11/3/2020 2:41:35 AM 6.58 43.844 482.2 8.2838 2.972504 6.580002
11/3/2020 2:56:35 AM 6.5625 43.8125 482.2 8.2726 3.025002 6.5625
11/3/2020 3:11:35 AM 6.4925 43.6865 482.9 8.2691 2.989998 6.4925
11/3/2020 3:26:35 AM 6.39 43.502 484.3 8.2628 2.989998 6.389999
11/3/2020 3:41:35 AM 6.335 43.403 484.9501 8.2593 2.989998 6.334999
11/3/2020 3:56:35 AM 6.3025 43.3445 485.3 8.2537 3.0075 6.302498
11/3/2020 4:11:35 AM 6.2525 43.2545 485.7 8.2488 3.025002 6.252502
11/3/2020 4:26:35 AM 6.2675 43.2815 484.9501 8.2453 3.022499 6.267502
11/3/2020 4:41:35 AM 6.305 43.349 484.3 8.2432 3.025002 6.305
11/3/2020 4:56:35 AM 6.335 43.403 483.6 8.2453 3.080002 6.334999
11/3/2020 5:11:35 AM 6.355 43.439 483.2499 8.2299 3.089996 6.355003
11/3/2020 5:26:35 AM 6.3025 43.3445 483.9 8.2404 3.110001 6.302498
11/3/2020 5:41:35 AM 6.2525 43.2545 484.6499 8.2397 3.110001 6.252502
11/3/2020 5:56:35 AM 6.2325 43.2185 484.6499 8.2397 3.110001 6.232498
11/3/2020 6:11:35 AM 6.1825 43.1285 485.3501 8.2348 3.092499 6.182503
11/3/2020 6:26:35 AM 6.145 43.061 485.3501 8.225 3.059998 6.144997
11/3/2020 6:41:35 AM 6.11 42.998 485.7 8.2201 3.182503 6.110001
11/3/2020 6:56:35 AM 6.095 42.971 485.6499 8.2187 3.042503 6.095001
11/3/2020 7:11:35 AM 6.095 42.971 486.0499 8.2194 3.0625 6.095001
11/3/2020 7:26:35 AM 6.1625 43.0925 485.0499 8.2152 3.092499 6.162498
11/3/2020 7:41:35 AM 6.195 43.151 484.3 8.2117 3.057503 6.195
11/3/2020 7:56:35 AM 6.215 43.187 483.9501 8.2075 3.040001 6.214996
11/3/2020 8:11:35 AM 6.215 43.187 484.3 8.2047 3.040001 6.214996
11/3/2020 8:26:35 AM 6.2 43.16 484.6499 8.2061 2.417503 6.199997
11/3/2020 8:41:35 AM 6.165 43.097 485 8.1991 2.332497 6.165001
11/3/2020 8:56:34 AM 6.145 43.061 485 8.192101 2.122498 6.144997
11/3/2020 9:11:35 AM 6.1475 43.0655 485 8.190001 2.192497 6.147499
11/3/2020 9:26:35 AM 6.1625 43.0925 485 8.186501 2.349998 6.162498
11/3/2020 9:41:34 AM 6.1475 43.0655 485.3501 8.180901 2.349998 6.147499
11/3/2020 9:56:34 AM 6.165 43.097 485 8.181601 2.364998 6.165001
11/3/2020 10:11:35 AM 6.1475 43.0655 485 8.175301 2.364998 6.147499
11/3/2020 10:26:34 AM 6.1475 43.0655 485.7 8.171101 2.385002 6.147499
11/3/2020 10:41:34 AM 6.165 43.097 485.3501 8.171101 2.347504 6.165001
11/3/2020 10:56:35 AM 6.1475 43.0655 485.3501 8.165501 2.332497 6.147499
11/3/2020 11:11:35 AM 6.165 43.097 485 8.168301 2.347504 6.165001
11/3/2020 11:26:35 AM 6.1825 43.1285 485 8.163401 2.332497 6.182503
11/3/2020 11:41:35 AM 6.1975 43.1555 484.3501 8.163401 2.3825 6.197502
11/3/2020 11:56:35 AM 6.2175 43.1915 484.3 8.163401 2.385002 6.217499
11/3/2020 12:11:35 PM 6.235 43.223 483.9 8.161301 2.402496 6.235001
11/3/2020 12:26:34 PM 6.2525 43.2545 484 8.161301 2.385002 6.252502
11/3/2020 12:41:35 PM 6.27 43.286 483.6 8.162001 2.330002 6.269997
11/3/2020 12:56:35 PM 6.285 43.313 483.6 8.162701 2.364998 6.285004
11/3/2020 1:11:35 PM 6.32 43.376 483.6 8.162701 2.349998 6.32
11/3/2020 1:26:35 PM 6.3375 43.4075 482.9501 8.161301 2.315002 6.337502
11/3/2020 1:41:35 PM 6.3725 43.4705 482.9 8.163401 2.364998 6.372498
11/3/2020 1:56:35 PM 6.3875 43.4975 482.6 8.163401 2.349998 6.387497
11/3/2020 2:11:35 PM 6.4225 43.5605 482.2 8.163401 2.347504 6.422501
11/3/2020 2:26:35 PM 6.46 43.628 482.9 8.161301 2.330002 6.459999
11/3/2020 2:41:35 PM 6.46 43.628 482.55 8.161301 2.332497 6.459999
11/3/2020 2:56:35 PM 6.4425 43.5965 482.2 8.157101 2.349998 6.442497
11/3/2020 3:11:35 PM 6.4425 43.5965 482.2 8.155701 2.3675 6.442497
11/3/2020 3:26:34 PM 6.46 43.628 482.2499 8.155701 2.332497 6.459999
11/3/2020 3:41:34 PM 6.495 43.691 482.2499 8.155701 2.349998 6.495003
11/3/2020 3:56:35 PM 6.4925 43.6865 481.55 8.159201 2.332497 6.4925
11/3/2020 4:11:34 PM 6.495 43.691 481.9 8.157101 2.332497 6.495003
11/3/2020 4:26:34 PM 6.5125 43.7225 481.5 8.146601 2.347504 6.512497
11/3/2020 4:41:35 PM 6.5125 43.7225 481.2 8.147301 2.330002 6.512497
11/3/2020 4:56:34 PM 6.495 43.691 481.15 8.151501 2.330002 6.495003
11/3/2020 5:11:34 PM 6.4925 43.6865 481.2 8.152901 2.332497 6.4925
11/3/2020 5:26:34 PM 6.495 43.691 480.85 8.157101 2.332497 6.495003
11/3/2020 5:41:35 PM 6.46 43.628 480.8 8.157801 2.347504 6.459999
11/3/2020 5:56:34 PM 6.425 43.565 480.85 8.157101 2.315002 6.425003
11/3/2020 6:11:34 PM 6.4075 43.5335 480.8 8.158501 2.349998 6.407501
11/3/2020 6:26:34 PM 6.425 43.565 480.15 8.158501 2.332497 6.425003
11/3/2020 6:41:34 PM 6.4225 43.5605 479.8 8.162001 2.297501 6.422501
11/3/2020 6:56:35 PM 6.425 43.565 479.1 8.166901 2.315002 6.425003
11/3/2020 7:11:34 PM 6.4075 43.5335 479.1 8.171801 2.317497 6.407501
11/3/2020 7:26:34 PM 6.3575 43.4435 478.7501 8.176001 2.332497 6.357498
11/3/2020 7:41:34 PM 6.3375 43.4075 478.4 8.187201 2.349998 6.337502
11/3/2020 7:56:34 PM 6.3225 43.3805 478.4 8.191401 2.349998 6.322502
11/3/2020 8:11:35 PM 6.3025 43.3445 478.8 8.195601 2.402496 6.302498
11/3/2020 8:26:34 PM 6.3025 43.3445 478.4 8.2019 2.400002 6.302498
11/3/2020 8:41:34 PM 6.3375 43.4075 477.7 8.2061 2.402496 6.337502
11/3/2020 8:56:34 PM 6.355 43.439 477 8.2124 2.400002 6.355003
11/3/2020 9:11:34 PM 6.3725 43.4705 476.4 8.2159 2.400002 6.372498
11/3/2020 9:26:34 PM 6.3725 43.4705 476 8.2208 2.3825 6.372498
11/3/2020 9:41:34 PM 6.375 43.475 476 8.225 2.3825 6.375
11/3/2020 9:56:35 PM 6.3725 43.4705 476 8.232 2.419998 6.372498
11/3/2020 10:11:34 PM 6.3725 43.4705 475.7 8.2355 2.417503 6.372498
11/3/2020 10:26:34 PM 6.41 43.538 475.3501 8.2432 2.419998 6.410004
11/3/2020 10:41:35 PM 6.425 43.565 474.6 8.2558 2.419998 6.425003
11/3/2020 10:56:35 PM 6.46 43.628 474.3 8.2586 2.434998 6.459999
11/3/2020 11:11:34 PM 6.4575 43.6235 473.9501 8.2684 2.434998 6.457497
11/3/2020 11:26:35 PM 6.46 43.628 474.2499 8.274 2.434998 6.459999
11/3/2020 11:41:35 PM 6.4425 43.5965 474.3 8.2796 2.455002 6.442497
11/4/2020 12:11:34 AM 6.495 43.691 472.55 8.288 3.339996 6.495003
11/4/2020 12:26:34 AM 6.545 43.781 471.15 8.288 3.702499 6.544998
11/4/2020 12:41:34 AM 6.5475 43.7855 470.45 8.2929 3.525002 6.547501
11/4/2020 12:56:34 AM 6.475 43.655 470.8 8.2936 3.355003 6.474998
11/4/2020 1:11:34 AM 6.4425 43.5965 470.8 8.2922 3.214996 6.442497
11/4/2020 1:26:34 AM 6.4075 43.5335 470.8 8.2985 3.110001 6.407501
11/4/2020 1:41:34 AM 6.3725 43.4705 470.45 8.2985 3.077499 6.372498
11/4/2020 1:56:34 AM 6.355 43.439 470.15 8.2985 2.834999 6.355003
11/4/2020 2:11:34 AM 6.32 43.376 470.8 8.2985 2.662498 6.32
11/4/2020 2:26:34 AM 6.32 43.376 470.45 8.2985 2.572502 6.32
11/4/2020 2:41:34 AM 6.3375 43.4075 470.5 8.2985 2.577499 6.337502
11/4/2020 2:56:34 AM 6.3225 43.3805 470.15 8.2922 2.557503 6.322502
11/4/2020 3:11:34 AM 6.3225 43.3805 470.1 8.2873 2.537498 6.322502
11/4/2020 3:26:34 AM 6.3025 43.3445 469.85 8.2894 2.540001 6.302498
11/4/2020 3:41:34 AM 6.2875 43.3175 469.8 8.2838 2.522499 6.287498
11/4/2020 3:56:34 AM 6.215 43.187 470.5 8.2789 2.542503 6.214996
11/4/2020 4:11:35 AM 6.1825 43.1285 470.5 8.2698 2.544998 6.182503
11/4/2020 4:26:34 AM 6.165 43.097 470.45 8.2649 2.522499 6.165001
11/4/2020 4:41:34 AM 6.1475 43.0655 470.15 8.2593 2.504997 6.147499
11/4/2020 4:56:34 AM 6.13 43.034 469.7501 8.2502 2.504997 6.129997
11/4/2020 5:11:34 AM 6.1125 43.0025 469.45 8.2453 2.522499 6.112503
11/4/2020 5:26:34 AM 6.095 42.971 469.1 8.2404 2.522499 6.095001
11/4/2020 5:41:34 AM 6.0775 42.9395 469.1 8.2348 2.540001 6.077499
11/4/2020 5:56:34 AM 6.0425 42.8765 469.1 8.225 2.519997 6.042503
11/4/2020 6:11:35 AM 6.0225 42.8405 469.1 8.2208 2.527496 6.022499
11/4/2020 6:26:34 AM 5.975 42.755 469.45 8.2201 2.525002 5.974998
11/4/2020 6:41:34 AM 5.9225 42.6605 470.15 8.2152 2.504997 5.922501
11/4/2020 6:56:34 AM 5.87 42.566 470.15 8.2117 2.525002 5.870003
11/4/2020 7:11:35 AM 5.87 42.566 469.8 8.2068 2.525002 5.870003
11/4/2020 7:26:35 AM 5.8525 42.5345 469.45 8.2019 2.504997 5.852501
11/4/2020 7:41:35 AM 5.85 42.53 469.1 8.196301 2.504997 5.849998
11/4/2020 7:56:35 AM 5.835 42.503 468.7501 8.187901 2.489998 5.834999
11/4/2020 8:11:35 AM 5.8525 42.5345 468.4 8.182301 2.472504 5.852501
11/4/2020 8:26:35 AM 5.85 42.53 468.0499 8.178101 2.472504 5.849998
11/4/2020 8:41:35 AM 5.8525 42.5345 468.0499 8.170401 2.522499 5.852501
11/4/2020 8:56:35 AM 5.87 42.566 467.7501 8.166901 2.504997 5.870003
11/4/2020 9:11:34 AM 5.92 42.656 467 8.157801 2.815002 5.919998
11/4/2020 9:26:34 AM 5.9525 42.7145 466.6499 8.157801 3.059998 5.952499
11/4/2020 9:41:35 AM 6.025 42.845 465.6499 8.156401 2.922501 6.025002
11/4/2020 9:56:34 AM 6.0925 42.9665 465.2499 8.157801 2.817497 6.092499
11/4/2020 10:11:34 AM 6.11 42.998 465.6 8.161301 2.607498 6.110001
11/4/2020 10:26:34 AM 6.0075 42.8135 467.7 8.166901 2.504997 6.0075
11/4/2020 10:41:34 AM 5.9225 42.6605 469.7501 8.171101 2.487503 5.922501
11/4/2020 10:56:34 AM 5.9575 42.7235 470.15 8.185801 2.472504 5.957497
11/4/2020 11:11:34 AM 6.0425 42.8765 469.7501 8.2012 2.470001 6.042503
11/4/2020 11:26:34 AM 6.13 43.034 469.45 8.211 2.472504 6.129997
11/4/2020 11:41:34 AM 6.235 43.223 468.7 8.2166 2.470001 6.235001
11/4/2020 11:56:35 AM 6.34 43.412 468.4 8.2159 2.434998 6.339996
11/4/2020 12:11:34 PM 6.4075 43.5335 468.1 8.2215 2.452499 6.407501
11/4/2020 12:26:34 PM 6.48 43.664 468.0499 8.2208 2.452499 6.480003
11/4/2020 12:41:34 PM 6.53 43.754 468.0499 8.2152 2.4375 6.529999
11/4/2020 12:56:34 PM 6.5975 43.8755 467.7501 8.2159 2.452499 6.597504
11/4/2020 1:11:34 PM 6.67 44.006 467.4 8.211 2.419998 6.669998
11/4/2020 1:26:34 PM 6.72 44.096 467.3501 8.211 2.455002 6.720001
11/4/2020 1:41:34 PM 6.79 44.222 467.0499 8.2124 2.4375 6.790001
11/4/2020 1:56:35 PM 6.84 44.312 466.7 8.2103 2.419998 6.839996
11/4/2020 2:11:34 PM 6.8575 44.3435 466.6499 8.2117 2.419998 6.857498
11/4/2020 2:26:34 PM 6.875 44.375 466.3 8.2166 2.4375 6.875
11/4/2020 2:41:34 PM 6.875 44.375 466.3501 8.2166 2.419998 6.875
11/4/2020 2:56:34 PM 6.8925 44.4065 465.9501 8.2159 2.419998 6.892502
11/4/2020 3:11:34 PM 6.875 44.375 465.9501 8.2166 2.400002 6.875
11/4/2020 3:26:35 PM 6.8575 44.3435 465.6499 8.2166 2.402496 6.857498
11/4/2020 3:41:34 PM 6.825 44.285 466.3 8.2159 2.402496 6.824997
11/4/2020 3:56:34 PM 6.7725 44.1905 467 8.2166 2.385002 6.772499
11/4/2020 4:11:34 PM 6.755 44.159 467.0499 8.2173 2.385002 6.754997
11/4/2020 4:26:34 PM 6.7025 44.0645 467.0499 8.2173 2.417503 6.702499
11/4/2020 4:41:35 PM 6.6675 44.0015 467.4 8.2159 2.385002 6.667503
11/4/2020 4:56:35 PM 6.6175 43.9115 468.1 8.2145 2.402496 6.6175
11/4/2020 5:11:35 PM 6.545 43.781 468.8 8.2166 2.385002 6.544998
11/4/2020 5:26:35 PM 6.48 43.664 469.8 8.2222 2.370003 6.480003
11/4/2020 5:41:35 PM 6.41 43.538 469.85 8.2257 2.385002 6.410004
11/4/2020 5:56:35 PM 6.3375 43.4075 469.8 8.2271 2.3675 6.337502
11/4/2020 6:11:35 PM 6.27 43.286 470.5 8.2264 2.370003 6.269997
11/4/2020 6:26:35 PM 6.2025 43.1645 471.55 8.2215 2.387497 6.202499
11/4/2020 6:41:35 PM 6.1 42.98 472.6 8.2215 2.387497 6.099998
11/4/2020 6:56:35 PM 6.03 42.854 473.6499 8.2166 2.389999 6.029999
11/4/2020 7:11:35 PM 5.96 42.728 474.0499 8.154301 2.407501 5.959999
11/4/2020 7:26:35 PM 5.8575 42.5435 474.7 8.169701 2.404999 5.857498
11/4/2020 7:41:35 PM 5.8025 42.4445 475.1 8.174601 2.407501 5.802498
11/4/2020 7:56:34 PM 5.755 42.359 476.1 8.177401 2.392502 5.754997
11/4/2020 8:11:35 PM 5.735 42.323 476.45 8.190001 2.620003 5.735001
11/4/2020 8:26:35 PM 5.7375 42.3275 477.2 8.1984 2.877502 5.737503
11/4/2020 8:41:35 PM 5.805 42.449 477.5 8.2124 2.842499 5.805
11/4/2020 8:56:35 PM 5.8575 42.5435 477.9 8.2222 2.702499 5.857498
11/4/2020 9:11:35 PM 5.8925 42.6065 478.2499 8.2411 2.529999 5.892502
11/4/2020 9:26:35 PM 5.9475 42.7055 478.6 8.2614 2.427498 5.947502
11/4/2020 9:41:35 PM 5.98 42.764 478.6 8.2873 2.425003 5.980003
11/4/2020 9:56:35 PM 6.015 42.827 478.9501 8.3048 2.407501 6.014999
11/4/2020 10:11:35 PM 6.035 42.863 478.6 8.3202 2.394997 6.035004
11/4/2020 10:26:35 PM 6.07 42.926 478.9501 8.3293 2.375 6.07
11/4/2020 10:41:35 PM 6.1025 42.9845 478.6 8.3356 2.392502 6.102501
11/4/2020 10:56:35 PM 6.14 43.052 478.6499 8.3447 2.375 6.139999
11/4/2020 11:11:35 PM 6.1575 43.0835 478.9501 8.3496 2.372498 6.157501
11/4/2020 11:26:35 PM 6.19 43.142 478.6 8.3594 2.407501 6.190002
11/4/2020 11:41:35 PM 6.2225 43.2005 478.6 8.3664 1.925003 6.222504
11/5/2020 12:11:34 AM 6.26 43.268 478.9501 8.3762 2.082497 6.260002
11/5/2020 12:26:35 AM 6.2775 43.2995 478.9501 8.3797 2.065002 6.277496
11/5/2020 12:41:35 AM 6.295 43.331 479.3 8.386 2.099998 6.294998
11/5/2020 12:56:35 AM 6.295 43.331 479.3 8.3895 2.135002 6.294998
11/5/2020 1:11:35 AM 6.2775 43.2995 479.7 8.3951 2.1325 6.277496
11/5/2020 1:26:35 AM 6.2775 43.2995 480 8.3944 2.1325 6.277496
11/5/2020 1:41:35 AM 6.2625 43.2725 480.3501 8.3944 2.152496 6.262497
11/5/2020 1:56:35 AM 6.225 43.205 480.7 8.3951 2.152496 6.224998
11/5/2020 2:11:35 AM 6.21 43.178 480.7501 8.3937 2.152496 6.209999
11/5/2020 2:26:35 AM 6.21 43.178 481.0499 8.3853 2.5 6.209999
11/5/2020 2:41:35 AM 6.19 43.142 480.7 8.3797 2.894997 6.190002
11/5/2020 2:56:35 AM 6.155 43.079 481.0499 8.3748 2.809998 6.154999
11/5/2020 3:11:35 AM 6.12 43.016 481 8.3748 2.412498 6.120003
11/5/2020 3:26:35 AM 6.0875 42.9575 481.4 8.3713 2.2575 6.087502
11/5/2020 3:41:35 AM 6.07 42.926 481.4 8.3713 2.220001 6.07
11/5/2020 3:56:35 AM 6.035 42.863 481.7501 8.3664 2.222504 6.035004
11/5/2020 4:11:35 AM 6 42.8 482.1 8.3552 2.224998 6
11/5/2020 4:26:35 AM 5.965 42.737 482.45 8.3468 2.220001 5.964996
11/5/2020 4:41:35 AM 5.9325 42.6785 482.8 8.3363 2.2575 5.932503
11/5/2020 4:56:35 AM 5.8975 42.6155 483.15 8.3272 2.222504 5.897499
11/5/2020 5:11:35 AM 5.8625 42.5525 483.15 8.3181 2.260002 5.862503
11/5/2020 5:26:35 AM 5.81 42.458 483.5 8.2446 2.2575 5.809998
11/5/2020 5:41:35 AM 5.775 42.395 483.85 8.2453 2.2575 5.775002
11/5/2020 5:56:35 AM 5.725 42.305 484.2 8.2327 2.2575 5.724998
11/5/2020 6:11:35 AM 5.6875 42.2375 484.2 8.2257 2.277496 5.6875
11/5/2020 6:26:35 AM 5.6375 42.1475 484.2 8.2159 2.292503 5.637497
11/5/2020 6:41:35 AM 5.6025 42.0845 484.2 8.1998 2.275002 5.602501
11/5/2020 6:56:35 AM 5.5675 42.0215 484.2499 8.191401 2.2575 5.567497
11/5/2020 7:11:35 AM 5.55 41.99 483.85 8.181601 2.2575 5.550003
11/5/2020 7:26:35 AM 5.5325 41.9585 483.5 8.175301 2.2575 5.532501
11/5/2020 7:41:35 AM 5.515 41.927 483.5 8.166201 2.2575 5.514999
11/5/2020 7:56:35 AM 5.515 41.927 482.8 8.162001 2.207497 5.514999
11/5/2020 8:11:35 AM 5.55 41.99 481.7501 8.155001 2.222504 5.550003
11/5/2020 8:26:35 AM 5.6325 42.1385 480.3501 8.146601 2.202499 5.6325
11/5/2020 8:41:35 AM 5.755 42.359 478.2499 8.139601 2.217499 5.754997
11/5/2020 8:56:35 AM 5.875 42.575 476.15 8.139601 2.302498 5.875
11/5/2020 9:11:35 AM 6.0675 42.9215 473.7 8.134701 2.285004 6.067497
11/5/2020 9:26:35 AM 6.1875 43.1375 471.9501 8.135401 2.267502 6.1875
11/5/2020 9:41:35 AM 6.29 43.322 470.9 8.139601 2.264999 6.290001
11/5/2020 9:56:35 AM 6.3775 43.4795 470.6 8.143801 2.264999 6.377502
11/5/2020 10:11:35 AM 6.445 43.601 469.85 8.149401 2.267502 6.445
11/5/2020 10:26:35 AM 6.55 43.79 469.5 8.153601 2.25 6.550003
11/5/2020 10:41:35 AM 6.635 43.943 469.15 8.168301 2.232498 6.635002
11/5/2020 10:56:35 AM 6.7575 44.1635 468.15 8.177401 2.232498 6.7575
11/5/2020 11:11:35 AM 6.8625 44.3525 467.8 8.183701 2.267502 6.862503
11/5/2020 11:26:35 AM 6.9475 44.5055 467.45 8.183001 2.25 6.947502
11/5/2020 11:41:35 AM 7.035 44.663 467.1 8.183001 2.230003 7.035004
11/5/2020 11:56:35 AM 7.105 44.789 467.1 8.184401 2.252502 7.105003
11/5/2020 12:11:35 PM 7.1225 44.8205 470.55 8.2411 2.177498 7.122498
11/5/2020 12:26:35 PM 7.055 44.699 468.45 8.144501 5.962502 7.055
11/5/2020 12:41:35 PM 7.1025 44.7845 468.5 8.149401 4.417503 7.102501
11/5/2020 12:56:35 PM 7.1575 44.8835 468.45 8.153601 4.07 7.157501
11/5/2020 1:11:35 PM 7.21 44.978 468.1 8.157101 3.459999 7.209999
11/5/2020 1:26:35 PM 7.28 45.104 467.4 8.157101 3.012497 7.279999
11/5/2020 1:41:35 PM 7.3125 45.1625 467.0499 8.164101 2.662498 7.3125
11/5/2020 1:56:35 PM 7.3825 45.2885 466.7501 8.162001 2.542503 7.3825
11/5/2020 2:11:35 PM 7.3975 45.3155 466.3501 8.162001 2.68 7.397499
11/5/2020 2:26:35 PM 7.415 45.347 466.4 8.168301 2.6325 7.415001
11/5/2020 2:41:35 PM 7.4675 45.4415 465.7 8.172501 2.577499 7.467499
11/5/2020 2:56:35 PM 7.45 45.41 466 8.172501 2.402496 7.449997
11/5/2020 3:11:35 PM 7.465 45.437 466 8.183001 2.352501 7.464996
11/5/2020 3:26:34 PM 7.4675 45.4415 466.4 8.2061 2.349998 7.467499
11/5/2020 3:41:34 PM 7.43 45.374 466.7 8.197701 2.334999 7.43
11/5/2020 3:56:34 PM 7.4325 45.3785 466.7 8.197701 2.317497 7.432503
11/5/2020 4:11:34 PM 7.3975 45.3155 467.45 8.197001 2.315002 7.397499
11/5/2020 4:26:35 PM 7.3825 45.2885 467.3501 8.2026 2.297501 7.3825
11/5/2020 4:41:34 PM 7.295 45.131 468.1 8.2019 2.300003 7.294998
11/5/2020 4:56:34 PM 7.275 45.095 468.45 8.197001 2.315002 7.275002
11/5/2020 5:11:34 PM 7.225 45.005 468.7501 8.1984 2.282501 7.224998
11/5/2020 5:26:34 PM 7.1725 44.9105 468.8 8.197001 2.282501 7.172501
11/5/2020 5:41:34 PM 7.155 44.879 469.15 8.197001 2.279999 7.154999
11/5/2020 5:56:34 PM 6.9825 44.5685 470.9 8.192801 2.282501 6.982498
11/5/2020 6:11:34 PM 6.86 44.348 472.3 8.189301 2.262497 6.860001
11/5/2020 6:26:35 PM 6.7575 44.1635 472.9501 8.181601 2.264999 6.7575
11/5/2020 6:41:34 PM 6.655 43.979 474.1 8.178801 2.267502 6.654999
11/5/2020 6:56:34 PM 6.6025 43.8845 474.7501 8.180201 2.264999 6.602501
11/5/2020 7:11:34 PM 6.5675 43.8215 475.4 8.179501 2.267502 6.567497
11/5/2020 7:26:34 PM 6.535 43.763 476.1 8.183701 2.25 6.535004
11/5/2020 7:41:34 PM 6.535 43.763 476.5 8.187901 2.25 6.535004
11/5/2020 7:56:35 PM 6.5175 43.7315 477.2 8.1998 2.232498 6.517502
11/5/2020 8:11:35 PM 6.535 43.763 477.55 8.2089 2.252502 6.535004
11/5/2020 8:26:35 PM 6.5525 43.7945 478.2499 8.2236 1.974998 6.552498
11/5/2020 8:41:35 PM 6.5875 43.8575 478.55 8.2425 1.995003 6.587502
11/5/2020 8:56:35 PM 6.6225 43.9205 478.6 8.267 1.9925 6.622498
11/5/2020 9:11:35 PM 6.66 43.988 479 8.2957 1.995003 6.660004
11/5/2020 9:26:34 PM 6.6925 44.0465 478.6 8.3265 1.977501 6.692497
11/5/2020 9:41:35 PM 6.7125 44.0825 478.9501 8.2775 1.9925 6.712502
11/5/2020 9:56:34 PM 6.725 44.105 479.3 8.2978 1.9925 6.724998
11/5/2020 10:11:34 PM 6.745 44.141 479.3 8.3083 1.995003 6.745003
11/5/2020 10:26:34 PM 6.78 44.204 479.3501 8.3174 2.012497 6.779999
11/5/2020 10:41:34 PM 6.8175 44.2715 479.3 8.3265 2.014999 6.817497
11/5/2020 10:56:34 PM 6.85 44.33 479.3501 8.337 1.995003 6.849998
11/5/2020 11:11:34 PM 6.9025 44.4245 479.3501 8.3461 1.995003 6.902496
11/5/2020 11:26:34 PM 6.92 44.456 479.3 8.3503 1.995003 6.919998
11/5/2020 11:41:34 PM 6.955 44.519 479.4 8.3545 2.047501 6.955002
11/6/2020 12:11:34 AM 7.0425 44.6765 479.3501 8.4126 2.309998 7.042503
11/6/2020 12:26:34 AM 7.075 44.735 479.3501 8.4175 2.272499 7.074997
11/6/2020 12:41:34 AM 7.11 44.798 479 8.4238 2.184998 7.110001
11/6/2020 12:56:34 AM 7.13 44.834 479.3501 8.427999 2.1325 7.129997
11/6/2020 1:11:34 AM 7.145 44.861 479.6499 8.432899 2.047501 7.144997
11/6/2020 1:26:35 AM 7.1425 44.8565 480 8.434299 2.027496 7.142502
11/6/2020 1:41:34 AM 7.1625 44.8925 480.0499 8.433599 2.032501 7.162498
11/6/2020 1:56:35 AM 7.18 44.924 480.4 8.433599 2.027496 7.18
11/6/2020 2:11:34 AM 7.18 44.924 480.3501 8.433599 2.044998 7.18
11/6/2020 2:26:34 AM 7.18 44.924 480.7 8.434999 2.029999 7.18
11/6/2020 2:41:34 AM 7.18 44.924 481.1 8.427299 2.047501 7.18
11/6/2020 2:56:34 AM 7.18 44.924 481.45 8.4259 2.027496 7.18
11/6/2020 3:11:34 AM 7.1625 44.8925 481.7501 8.4203 2.050003 7.162498
11/6/2020 3:26:34 AM 7.1475 44.8655 482.1 8.4189 2.047501 7.147499
11/6/2020 3:41:34 AM 7.13 44.834 482.45 8.4133 2.099998 7.129997
11/6/2020 3:56:34 AM 7.095 44.771 483.15 8.4049 2.067497 7.095001
11/6/2020 4:11:34 AM 7.06 44.708 483.85 8.4042 2.082497 7.059998
11/6/2020 4:26:34 AM 7.025 44.645 484.2 8.4007 2.067497 7.025002
11/6/2020 4:41:34 AM 6.9925 44.5865 484.55 8.3944 2.082497 6.9925
11/6/2020 4:56:34 AM 6.9575 44.5235 485.2 8.386 2.065002 6.957497
11/6/2020 5:11:35 AM 6.905 44.429 485.9501 8.3699 2.065002 6.904999
11/6/2020 5:26:35 AM 6.8525 44.3345 486.3 8.3601 2.067497 6.852501
11/6/2020 5:41:35 AM 6.8175 44.2715 486.7 8.3482 2.082497 6.817497
11/6/2020 5:56:35 AM 6.785 44.213 487.3 8.3405 2.105003 6.785004
11/6/2020 6:11:35 AM 6.7475 44.1455 487.7 8.3342 2.105003 6.747498
11/6/2020 6:26:35 AM 6.6975 44.0555 488.0499 8.3237 2.084999 6.697502
11/6/2020 6:41:34 AM 6.68 44.024 488.4 8.3118 2.099998 6.68
11/6/2020 6:56:35 AM 6.645 43.961 488.7 8.3041 2.120003 6.644997
11/6/2020 7:11:34 AM 6.6125 43.9025 489.1 8.2929 2.105003 6.612503
11/6/2020 7:26:34 AM 6.5775 43.8395 489.45 8.2852 2.084999 6.577499
11/6/2020 7:41:35 AM 6.56 43.808 489.7501 8.2691 2.105003 6.559998
11/6/2020 7:56:35 AM 6.5575 43.8035 489.8 8.2593 2.105003 6.557503
11/6/2020 8:11:35 AM 6.5775 43.8395 489.4 8.2488 2.084999 6.577499
11/6/2020 8:26:35 AM 6.6275 43.9295 488.7501 8.2453 2.084999 6.627502
11/6/2020 8:41:34 AM 6.87 44.366 484.9 8.2383 2.099998 6.870003
11/6/2020 8:56:35 AM 7.06 44.708 482.1 8.2278 2.067497 7.059998
11/6/2020 9:11:35 AM 7.195 44.951 479.9501 8.2278 2.059998 7.195
11/6/2020 9:26:35 AM 7.2975 45.1355 478.85 8.2229 2.077499 7.297501
11/6/2020 9:41:35 AM 7.385 45.293 478.2 8.2285 2.059998 7.385002
11/6/2020 9:56:35 AM 7.4525 45.4145 477.8 8.2285 2.077499 7.452499
11/6/2020 10:11:35 AM 7.5375 45.5675 477.45 8.2334 2.177498 7.537498
11/6/2020 10:26:35 AM 7.625 45.725 476.7501 8.2362 2.370003 7.625
11/6/2020 10:41:35 AM 7.73 45.914 476.7501 8.183001 2.355003 7.730003
11/6/2020 10:56:35 AM 7.815 46.067 476.4 8.2215 2.352501 7.815002
11/6/2020 11:11:34 AM 7.92 46.256 476.0499 8.2376 2.3675 7.919998
11/6/2020 11:26:35 AM 8.0225 46.4405 475.7 8.2418 2.264999 8.022499
11/6/2020 11:41:35 AM 8.11 46.598 475.3501 8.2411 2.264999 8.110001
11/6/2020 11:56:35 AM 8.18 46.724 475 8.2446 2.247498 8.18
11/6/2020 12:11:35 PM 8.25 46.85 475 8.2397 2.262497 8.25
11/6/2020 12:26:35 PM 8.3175 46.9715 474.6499 8.2362 2.247498 8.317497
11/6/2020 12:41:35 PM 8.37 47.066 474.6499 8.232 2.230003 8.370003
11/6/2020 12:56:35 PM 8.4375 47.1875 474.6 8.225 2.245003 8.4375
11/6/2020 1:11:35 PM 8.4925 47.2865 474.6 8.225 2.247498 8.4925
11/6/2020 1:26:35 PM 8.56 47.408 474.6 8.2208 2.262497 8.559998
11/6/2020 1:41:35 PM 8.63 47.534 474.6 8.2159 2.260002 8.629997
11/6/2020 1:56:35 PM 8.665 47.597 474.6 8.2159 2.247498 8.665001
11/6/2020 2:11:35 PM 8.715 47.687 474.6 8.211 2.264999 8.714996
11/6/2020 2:26:35 PM 8.7325 47.7185 474.9501 8.2054 2.262497 8.732498
11/6/2020 2:41:35 PM 8.75 47.75 475.3 8.1998 2.227501 8.75
11/6/2020 2:56:35 PM 8.7675 47.7815 475.6499 8.2012 2.260002 8.767502
11/6/2020 3:11:35 PM 8.785 47.813 475.6499 8.195601 2.247498 8.785004
11/6/2020 3:26:35 PM 8.8025 47.8445 475.9501 8.191401 2.209999 8.802498
11/6/2020 3:41:35 PM 8.8025 47.8445 476 8.189301 2.230003 8.802498
11/6/2020 3:56:35 PM 8.82 47.876 476.3 8.189301 2.230003 8.82
11/6/2020 4:11:35 PM 8.8025 47.8445 476.3 8.190001 2.209999 8.802498
11/6/2020 4:26:35 PM 8.7825 47.8085 476.6499 8.185101 2.247498 8.782501
11/6/2020 4:41:35 PM 8.7475 47.7455 477.1 8.2152 2.192497 8.747498
11/6/2020 4:56:35 PM 8.6975 47.6555 477.7501 8.2103 2.192497 8.697502
11/6/2020 5:11:35 PM 8.6775 47.6195 478.0499 8.2068 2.157501 8.677498
11/6/2020 5:26:35 PM 8.6475 47.5655 478.4 8.2005 2.139999 8.647499
11/6/2020 5:41:35 PM 8.61 47.498 478.4 8.2019 2.122498 8.610001
11/6/2020 5:56:35 PM 8.5925 47.4665 478.7501 8.196301 2.139999 8.592499
11/6/2020 6:11:35 PM 8.575 47.435 478.7501 8.197001 2.364998 8.574997
11/6/2020 6:26:35 PM 8.54 47.372 479.1 8.197001 2.612503 8.540001
11/6/2020 6:41:34 PM 8.525 47.345 479.0499 8.195601 2.677498 8.525002
11/6/2020 6:56:35 PM 8.5075 47.3135 479.45 8.1998 2.572502 8.5075
11/6/2020 7:11:35 PM 8.49 47.282 479.8 8.204 2.452499 8.489998
11/6/2020 7:26:35 PM 8.4525 47.2145 480.15 8.2089 2.3125 8.452499
11/6/2020 7:41:35 PM 8.4375 47.1875 480.45 8.2145 2.330002 8.4375
11/6/2020 7:56:35 PM 8.42 47.156 480.85 8.2145 2.294998 8.419998
11/6/2020 8:11:35 PM 8.4025 47.1245 480.85 8.2201 2.227501 8.402496
11/6/2020 8:26:35 PM 8.4375 47.1875 481.15 8.2299 2.209999 8.4375
11/6/2020 8:41:35 PM 8.49 47.282 481.15 8.2383 2.209999 8.489998
11/6/2020 8:56:35 PM 8.5575 47.4035 481.5 8.26 2.160004 8.557503
11/6/2020 9:11:35 PM 8.595 47.471 481.85 8.2726 2.157501 8.595001
11/6/2020 9:26:35 PM 8.6275 47.5295 482.2 8.2971 2.089996 8.627502
11/6/2020 9:41:34 PM 8.6625 47.5925 482.2 8.3111 2.089996 8.662498
11/6/2020 9:56:35 PM 8.68 47.624 482.6 8.3265 2.089996 8.68
11/6/2020 10:11:35 PM 8.7175 47.6915 482.6 8.3426 2.105003 8.717499
11/6/2020 10:26:35 PM 8.75 47.75 482.55 8.351 2.072502 8.75
11/6/2020 10:41:35 PM 8.785 47.813 482.6 8.3664 2.07 8.785004
11/6/2020 10:56:35 PM 8.8025 47.8445 482.55 8.407 2.089996 8.802498
11/6/2020 11:11:35 PM 8.8225 47.8805 482.9 8.4189 2.110001 8.822502
11/6/2020 11:26:34 PM 8.8375 47.9075 482.9501 8.429399 2.087502 8.837502
11/6/2020 11:41:35 PM 8.8375 47.9075 482.9501 8.3762 2.089996 8.837502
11/7/2020 12:11:35 AM 8.8375 47.9075 482.9501 8.3951 2.089996 8.837502
11/7/2020 12:26:35 AM 8.835 47.903 482.9 8.4021 2.107498 8.834999
11/7/2020 12:41:35 AM 8.835 47.903 482.9501 8.4056 2.087502 8.834999
11/7/2020 12:56:35 AM 8.82 47.876 482.9 8.4056 2.110001 8.82
11/7/2020 1:11:35 AM 8.82 47.876 483.2499 8.4049 2.089996 8.82
11/7/2020 1:26:35 AM 8.8025 47.8445 483.3 8.4049 2.089996 8.802498
11/7/2020 1:41:35 AM 8.805 47.849 483.2499 8.4049 2.089996 8.805
11/7/2020 1:56:35 AM 8.82 47.876 483.6 8.4063 2.089996 8.82
11/7/2020 2:11:35 AM 8.8025 47.8445 483.6 8.4063 2.107498 8.802498
11/7/2020 2:26:35 AM 8.8025 47.8445 483.6499 8.4 2.107498 8.802498
11/7/2020 2:41:35 AM 8.8025 47.8445 483.9 8.4007 2.125 8.802498
11/7/2020 2:56:35 AM 8.785 47.813 484 8.3972 2.122498 8.785004
11/7/2020 3:26:35 AM 8.75 47.75 484.3 8.3867 2.160004 8.75
11/7/2020 3:41:35 AM 8.7325 47.7185 484.6499 8.3825 2.195 8.732498
11/7/2020 3:56:35 AM 8.715 47.687 484.9501 8.372 2.214996 8.714996
11/7/2020 4:11:35 AM 8.7 47.66 485 8.3664 2.212502 8.699997
11/7/2020 4:26:35 AM 8.68 47.624 485.3 8.3622 2.209999 8.68
11/7/2020 4:41:35 AM 8.665 47.597 485.7 8.351 2.232498 8.665001
11/7/2020 4:56:35 AM 8.665 47.597 485.7501 8.3461 2.227501 8.665001
11/7/2020 5:11:35 AM 8.6675 47.6015 486.1 8.3419 2.230003 8.667503
11/7/2020 5:26:34 AM 8.65 47.57 486.0499 8.337 2.247498 8.650002
11/7/2020 5:41:34 AM 8.63 47.534 486.4 8.3272 2.247498 8.629997
11/7/2020 5:56:35 AM 8.6125 47.5025 486.4 8.3237 2.247498 8.612503
11/7/2020 6:11:34 AM 8.5925 47.4665 486.7501 8.3139 2.262497 8.592499
11/7/2020 6:26:34 AM 8.56 47.408 487.1 8.3076 2.282501 8.559998
11/7/2020 6:41:34 AM 8.5425 47.3765 487.1 8.2992 2.264999 8.542503
11/7/2020 6:56:34 AM 8.505 47.309 487.45 8.2894 2.264999 8.504997
11/7/2020 7:11:34 AM 8.49 47.282 487.45 8.2803 2.264999 8.489998
11/7/2020 7:26:34 AM 8.4725 47.2505 487.45 8.2712 2.282501 8.472504
11/7/2020 7:41:34 AM 8.4575 47.2235 487.1 8.2586 2.262497 8.457497
11/7/2020 7:56:34 AM 8.4375 47.1875 487.0499 8.2453 2.245003 8.4375
11/7/2020 8:11:35 AM 8.44 47.192 486.7 8.2362 2.247498 8.440002
11/7/2020 8:26:35 AM 8.4725 47.2505 486.4 8.2299 2.212502 8.472504
11/7/2020 8:41:35 AM 8.475 47.255 485.7 8.2243 2.227501 8.474998
11/7/2020 8:56:35 AM 8.49 47.282 485.3 8.2194 2.197502 8.489998
11/7/2020 9:11:35 AM 8.5075 47.3135 485.3 8.2201 2.209999 8.5075
11/7/2020 9:26:35 AM 8.525 47.345 485 8.2166 2.195 8.525002
11/7/2020 9:41:35 AM 8.61 47.498 483.9 8.2166 2.212502 8.610001
11/7/2020 9:56:35 AM 8.63 47.534 484.3 8.2131 2.192497 8.629997
11/7/2020 10:11:35 AM 8.645 47.561 484.3 8.2194 2.177498 8.644997
11/7/2020 10:26:35 AM 8.66 47.588 484.3 8.2257 2.177498 8.660004
11/7/2020 10:41:35 AM 8.6975 47.6555 484.6 8.225 2.175003 8.697502
11/7/2020 10:56:35 AM 8.7325 47.7185 484.6 8.2292 2.175003 8.732498
11/7/2020 11:11:35 AM 8.77 47.786 484.6499 8.2334 2.192497 8.769997
11/7/2020 11:26:35 AM 8.8175 47.8715 484.6 8.239 2.175003 8.817497
11/7/2020 11:41:35 AM 8.87 47.966 484.2499 8.2439 2.172501 8.870003
11/7/2020 11:56:35 AM 8.9275 48.0695 484.2499 8.2439 2.157501 8.927498
11/7/2020 12:11:35 PM 8.9775 48.1595 483.9501 8.2453 2.177498 8.977501
11/7/2020 12:26:35 PM 9.0325 48.2585 483.9501 8.2439 2.177498 9.032501
11/7/2020 12:41:35 PM 9.0975 48.3755 483.55 8.281 2.195 9.097504
11/7/2020 12:56:35 PM 9.15 48.47 483.55 8.2803 2.212502 9.150002
11/7/2020 1:11:35 PM 9.205 48.569 483.55 8.274 2.232498 9.205002
11/7/2020 1:26:34 PM 9.2225 48.6005 483.9501 8.2747 2.212502 9.222504
11/7/2020 1:41:34 PM 9.24 48.632 484.6 8.2698 2.212502 9.239998
11/7/2020 1:56:34 PM 9.255 48.659 484.9501 8.2166 2.25 9.254997
11/7/2020 2:11:34 PM 9.275 48.695 485.3 8.2201 2.282501 9.275002
11/7/2020 2:26:34 PM 9.2925 48.7265 485.6499 8.2222 2.18 9.292503
11/7/2020 2:41:34 PM 9.31 48.758 486 8.2173 2.177498 9.309998
11/7/2020 2:56:35 PM 9.31 48.758 486 8.2159 2.18 9.309998
11/7/2020 3:11:35 PM 9.3075 48.7535 486.3501 8.2117 2.195 9.307503
11/7/2020 3:26:35 PM 9.2925 48.7265 486.7 8.211 2.247498 9.292503
11/7/2020 3:41:35 PM 9.2925 48.7265 487 8.2117 2.162498 9.292503
11/7/2020 3:56:35 PM 9.24 48.632 487.7501 8.2054 2.144997 9.239998
11/7/2020 4:11:35 PM 9.165 48.497 488.7501 8.2054 2.142502 9.165001
11/7/2020 4:26:35 PM 9.08 48.344 489.85 8.1998 2.162498 9.080002
11/7/2020 4:41:35 PM 8.9775 48.1595 491.2499 8.1998 2.144997 8.977501
11/7/2020 4:56:35 PM 8.925 48.065 491.9501 8.195601 2.125 8.925003
11/7/2020 5:11:35 PM 8.855 47.939 492.9501 8.197701 2.127502 8.855003
11/7/2020 5:26:35 PM 8.7525 47.7545 493.7 8.187201 2.160004 8.752502
11/7/2020 5:41:35 PM 8.6475 47.5655 494.3501 8.183001 2.129997 8.647499
11/7/2020 5:56:35 PM 8.595 47.471 495.1 8.172501 2.125 8.595001
11/7/2020 6:11:35 PM 8.525 47.345 495.7 8.163401 2.144997 8.525002
11/7/2020 6:26:35 PM 8.46 47.228 496.15 8.148001 2.162498 8.459999
11/7/2020 6:41:35 PM 8.37 47.066 496.8 8.140301 2.162498 8.370003
11/7/2020 6:56:35 PM 8.3375 47.0075 497.6 8.135401 2.165001 8.337502
11/7/2020 7:11:35 PM 8.32 46.976 498.6 8.129101 2.182503 8.32
11/7/2020 7:26:35 PM 8.445 47.201 497.2499 8.133301 2.182503 8.445
11/7/2020 7:41:35 PM 8.7375 47.7275 493.7 8.133301 2.162498 8.737503
11/7/2020 7:56:35 PM 8.8225 47.8805 492.6 8.138901 2.162498 8.822502
11/7/2020 8:11:35 PM 8.84 47.912 492.3 8.147301 2.160004 8.839996
11/7/2020 8:26:35 PM 8.855 47.939 492.2499 8.162701 2.125 8.855003
11/7/2020 8:41:35 PM 8.8875 47.9975 491.9 8.177401 2.125 8.887497
11/7/2020 8:56:35 PM 8.9075 48.0335 491.6 8.189301 2.125 8.907501
11/7/2020 9:11:35 PM 8.94 48.092 491.55 8.2124 2.107498 8.940002
11/7/2020 9:26:35 PM 8.9775 48.1595 491.55 8.2299 2.142502 8.977501
11/7/2020 9:41:35 PM 9.01 48.218 491.2 8.2446 2.160004 9.010002
11/7/2020 9:56:35 PM 9.01 48.218 490.85 8.2698 2.160004 9.010002
11/7/2020 10:11:35 PM 9.0275 48.2495 490.85 8.2873 2.157501 9.027496
11/7/2020 10:26:35 PM 9.06 48.308 490.85 8.3083 2.177498 9.059998
11/7/2020 10:41:35 PM 9.08 48.344 490.5 8.3216 2.160004 9.080002
11/7/2020 10:56:35 PM 9.1125 48.4025 490.5 8.3426 2.142502 9.112503
11/7/2020 11:11:35 PM 9.1325 48.4385 490.5 8.3559 2.139999 9.1325
11/7/2020 11:26:35 PM 9.15 48.47 490.15 8.3657 2.122498 9.150002
11/7/2020 11:41:35 PM 9.165 48.497 490.15 8.3776 2.125 9.165001
11/8/2020 12:11:35 AM 9.1825 48.5285 490.15 8.3811 2.110001 9.182503
11/8/2020 12:26:35 AM 9.185 48.533 490.15 8.3853 2.177498 9.184998
11/8/2020 12:41:35 AM 9.1825 48.5285 490.2 8.3853 2.122498 9.182503
11/8/2020 12:56:35 AM 9.185 48.533 490.15 8.3909 2.160004 9.184998
11/8/2020 1:11:35 AM 9.2 48.56 490.15 8.3909 2.142502 9.199997
11/8/2020 1:26:35 AM 9.2 48.56 489.8 8.3895 2.139999 9.199997
11/8/2020 1:41:35 AM 9.185 48.533 490.2 8.3958 2.162498 9.184998
11/8/2020 1:56:35 AM 9.1825 48.5285 490.15 8.3993 2.157501 9.182503
11/8/2020 2:11:35 AM 9.1825 48.5285 490.2 8.439199 2.175003 9.182503
11/8/2020 2:26:35 AM 9.1825 48.5285 489.8 8.444799 2.177498 9.182503
11/8/2020 2:41:35 AM 9.1675 48.5015 490.2 8.3846 2.195 9.167503
11/8/2020 2:56:35 AM 9.1675 48.5015 490.15 8.3944 2.209999 9.167503
11/8/2020 3:11:35 AM 9.15 48.47 490.2 8.3944 2.209999 9.150002
11/8/2020 3:26:35 AM 9.13 48.434 490.5 8.3944 2.230003 9.129997
11/8/2020 3:41:35 AM 9.115 48.407 490.5 8.3902 2.230003 9.114998
11/8/2020 3:56:35 AM 9.0975 48.3755 490.85 8.386 2.230003 9.097504
11/8/2020 4:11:35 AM 9.0775 48.3395 490.85 8.3818 2.209999 9.077499
11/8/2020 4:26:35 AM 9.08 48.344 491.2499 8.3713 2.195 9.080002
11/8/2020 4:41:35 AM 9.0625 48.3125 491.2 8.3664 2.192497 9.0625
11/8/2020 4:56:35 AM 9.045 48.281 491.6 8.3559 2.212502 9.044998
11/8/2020 5:11:35 AM 9.0275 48.2495 491.55 8.3517 2.212502 9.027496
11/8/2020 5:26:35 AM 9.0275 48.2495 491.6 8.3412 2.247498 9.027496
11/8/2020 5:41:35 AM 9.0275 48.2495 491.55 8.3321 2.230003 9.027496
11/8/2020 5:56:35 AM 9.0125 48.2225 491.55 8.3279 2.230003 9.012497
11/8/2020 6:11:35 AM 8.995 48.191 491.6 8.3174 2.247498 8.995003
11/8/2020 6:26:35 AM 8.9775 48.1595 491.9 8.3076 2.247498 8.977501
11/8/2020 6:41:35 AM 8.94 48.092 492.2499 8.2999 2.264999 8.940002
11/8/2020 6:56:35 AM 8.925 48.065 492.2 8.2936 2.282501 8.925003
11/8/2020 7:11:35 AM 8.9075 48.0335 492.2499 8.2852 2.282501 8.907501
11/8/2020 7:26:35 AM 8.89 48.002 492.2499 8.2796 2.279999 8.889999
11/8/2020 7:41:35 AM 8.8725 47.9705 492.2499 8.2677 2.264999 8.872498
11/8/2020 7:56:35 AM 8.8725 47.9705 492.3 8.2593 2.264999 8.872498
11/8/2020 8:11:35 AM 8.8725 47.9705 491.9 8.2495 2.264999 8.872498
11/8/2020 8:26:35 AM 8.905 48.029 491.2 8.246 2.264999 8.904999
11/8/2020 8:41:35 AM 8.9225 48.0605 490.85 8.2397 2.247498 8.922501
11/8/2020 8:56:35 AM 8.94 48.092 490.5 8.2348 2.279999 8.940002
11/8/2020 9:11:35 AM 8.96 48.128 490.2 8.2285 2.227501 8.959999
11/8/2020 9:26:35 AM 8.975 48.155 489.8 8.2292 2.227501 8.974998
11/8/2020 9:41:35 AM 9.0975 48.3755 488.1 8.2236 2.227501 9.097504
11/8/2020 9:56:35 AM 9.06 48.308 488.7501 8.2257 2.209999 9.059998
11/8/2020 10:11:35 AM 9.06 48.308 489.1 8.2306 2.230003 9.059998
11/8/2020 10:26:35 AM 9.0775 48.3395 488.7501 8.2299 2.224998 9.077499
11/8/2020 10:41:35 AM 9.1175 48.4115 488.7501 8.2306 2.232498 9.1175
11/8/2020 10:56:35 AM 9.15 48.47 488.7501 8.2362 2.230003 9.150002
11/8/2020 11:11:35 AM 9.17 48.506 488.7501 8.2348 2.214996 9.169998
11/8/2020 11:26:35 AM 9.205 48.569 488.7501 8.2369 2.212502 9.205002
11/8/2020 11:41:35 AM 9.2375 48.6275 488.7 8.2404 2.212502 9.237503
11/8/2020 11:56:35 AM 9.135 48.443 490.85 8.2516 2.25 9.135002
11/8/2020 12:11:35 PM 9.0625 48.3125 492.2499 8.2481 2.214996 9.0625
11/8/2020 12:26:35 PM 9.08 48.344 492.6 8.2544 2.209999 9.080002
11/8/2020 12:41:35 PM 9.115 48.407 492.55 8.2502 2.209999 9.114998
11/8/2020 12:56:35 PM 9.15 48.47 492.9501 8.2488 2.192497 9.150002
11/8/2020 1:11:35 PM 9.2175 48.5915 492.6499 8.2453 2.195 9.217499
11/8/2020 1:26:35 PM 9.305 48.749 491.85 8.2453 2.209999 9.305
11/8/2020 1:41:35 PM 9.3725 48.8705 491.2 8.2404 2.212502 9.372498
11/8/2020 1:56:35 PM 9.4425 48.9965 490.8 8.2397 2.227501 9.442497
11/8/2020 2:11:35 PM 9.495 49.091 490.8 8.2446 2.209999 9.495003
11/8/2020 2:26:35 PM 9.53 49.154 490.85 8.2432 2.227501 9.529999
11/8/2020 2:41:35 PM 9.5475 49.1855 490.85 8.2425 2.227501 9.547501
11/8/2020 2:56:35 PM 9.6025 49.2845 490.5 8.2803 2.25 9.602501
11/8/2020 3:11:35 PM 9.6175 49.3115 490.85 8.2173 2.232498 9.6175
11/8/2020 3:26:35 PM 9.6725 49.4105 490.15 8.2271 2.247498 9.672501
11/8/2020 3:41:35 PM 9.705 49.469 490.1 8.2278 2.317497 9.705002
11/8/2020 3:56:35 PM 9.7075 49.4735 490.1 8.2264 2.247498 9.707497
11/8/2020 4:11:35 PM 9.6875 49.4375 490.85 8.2257 2.177498 9.6875
11/8/2020 4:26:35 PM 9.6025 49.2845 491.85 8.225 2.214996 9.602501
11/8/2020 4:41:35 PM 9.495 49.091 493.6499 8.225 2.177498 9.495003
11/8/2020 4:56:35 PM 9.3575 48.8435 495.3501 8.225 2.195 9.357498
11/8/2020 5:11:35 PM 9.2375 48.6275 496.7501 8.2208 2.177498 9.237503
11/8/2020 5:26:35 PM 9.1175 48.4115 497.8 8.2166 2.18 9.1175
11/8/2020 5:41:35 PM 9.03 48.254 499.2 8.2117 2.177498 9.029999
11/8/2020 5:56:35 PM 8.995 48.191 499.55 8.2075 2.162498 8.995003
11/8/2020 6:11:35 PM 8.9275 48.0695 500.3 8.197001 2.18 8.927498
11/8/2020 6:26:35 PM 8.8425 47.9165 500.9501 8.187201 2.182503 8.842499
11/8/2020 6:41:35 PM 8.7375 47.7275 501.7 8.177401 2.199997 8.737503
11/8/2020 6:56:35 PM 8.875 47.975 499.2499 8.168301 2.197502 8.875
11/8/2020 7:11:35 PM 9.0275 48.2495 497.15 8.163401 2.212502 9.027496
11/8/2020 7:26:35 PM 9.0275 48.2495 496.7501 8.159201 2.192497 9.027496
11/8/2020 7:41:35 PM 9.065 48.317 496.8 8.152201 2.177498 9.065002
11/8/2020 7:56:35 PM 9.0975 48.3755 496.7501 8.152201 2.214996 9.097504
11/8/2020 8:11:35 PM 9.13 48.434 496.4 8.153601 2.195 9.129997
11/8/2020 8:26:35 PM 9.1675 48.5015 496.7501 8.155701 2.195 9.167503
11/8/2020 8:41:35 PM 9.165 48.497 496.7501 8.166201 2.195 9.165001
11/8/2020 8:56:35 PM 9.1675 48.5015 496.7501 8.181601 2.160004 9.167503
11/8/2020 9:11:35 PM 9.1675 48.5015 496.7501 8.1998 2.177498 9.167503
11/8/2020 9:26:35 PM 9.1625 48.4925 496.7 8.2159 2.160004 9.162498
11/8/2020 9:41:35 PM 9.165 48.497 496.7 8.2348 2.157501 9.165001
11/8/2020 9:56:35 PM 9.1825 48.5285 496.3501 8.2495 2.157501 9.182503
11/8/2020 10:11:35 PM 9.2 48.56 496.3501 8.2635 2.160004 9.199997
11/8/2020 10:26:35 PM 9.22 48.596 496.4 8.2775 2.139999 9.220001
11/8/2020 10:41:35 PM 9.2525 48.6545 496.0499 8.2936 2.264999 9.252502
11/8/2020 10:56:35 PM 9.27 48.686 496.0499 8.3118 2.157501 9.269997
11/8/2020 11:11:35 PM 9.305 48.749 496.0499 8.3363 2.160004 9.305
11/8/2020 11:26:35 PM 9.34 48.812 495.6499 8.3566 2.177498 9.339996
11/8/2020 11:41:35 PM 9.3575 48.8435 495.7 8.3706 2.160004 9.357498
11/9/2020 12:11:35 AM 9.39 48.902 495.7 8.386 2.160004 9.389999
11/9/2020 12:26:35 AM 9.39 48.902 495.7 8.3909 2.160004 9.389999
11/9/2020 12:41:35 AM 9.4075 48.9335 495.6499 8.3958 2.144997 9.407501
11/9/2020 12:56:35 AM 9.4075 48.9335 495.7 8.3986 2.144997 9.407501
11/9/2020 1:11:35 AM 9.41 48.938 495.7 8.3993 2.175003 9.410004
11/9/2020 1:26:35 AM 9.39 48.902 496.1 8.4042 2.177498 9.389999
11/9/2020 1:41:35 AM 9.3925 48.9065 495.6499 8.4098 2.177498 9.392502
11/9/2020 1:56:35 AM 9.375 48.875 496 8.4105 2.195 9.375
11/9/2020 2:11:35 AM 9.375 48.875 496.0499 8.4098 2.177498 9.375
11/9/2020 2:26:35 AM 9.3575 48.8435 496.0499 8.4112 2.162498 9.357498
11/9/2020 2:41:35 AM 9.34 48.812 496.0499 8.4105 2.192497 9.339996
11/9/2020 2:56:35 AM 9.34 48.812 496.0499 8.4098 2.195 9.339996
11/9/2020 3:11:35 AM 9.3225 48.7805 496.4 8.4105 2.177498 9.322502
11/9/2020 3:26:35 AM 9.305 48.749 496.4 8.4098 2.247498 9.305
11/9/2020 3:41:35 AM 9.2875 48.7175 496.7501 8.4112 2.195 9.287498
11/9/2020 3:56:35 AM 9.29 48.722 496.7501 8.4063 2.195 9.290001
11/9/2020 4:11:35 AM 9.255 48.659 496.7501 8.4021 2.195 9.254997
11/9/2020 4:26:35 AM 9.235 48.623 497.0499 8.3384 2.18 9.235001
11/9/2020 4:41:35 AM 9.22 48.596 497.0499 8.3419 2.192497 9.220001
11/9/2020 4:56:35 AM 9.2025 48.5645 497.5 8.3356 2.214996 9.202499
11/9/2020 5:11:35 AM 9.2025 48.5645 497.45 8.3328 2.195 9.202499
11/9/2020 5:26:35 AM 9.1675 48.5015 497.45 8.3286 2.230003 9.167503
11/9/2020 5:41:35 AM 9.165 48.497 497.7501 8.3188 2.227501 9.165001
11/9/2020 5:56:35 AM 9.165 48.497 497.45 8.3132 2.230003 9.165001
11/9/2020 6:11:35 AM 9.1675 48.5015 497.5 8.3041 2.230003 9.167503
11/9/2020 6:26:35 AM 9.1325 48.4385 497.8 8.2922 2.264999 9.1325
11/9/2020 6:41:35 AM 9.1325 48.4385 497.8 8.2901 2.264999 9.1325
11/9/2020 6:56:35 AM 9.0975 48.3755 497.8 8.2782 2.279999 9.097504
11/9/2020 7:11:35 AM 9.08 48.344 498.15 8.2747 2.279999 9.080002
11/9/2020 7:26:35 AM 9.08 48.344 498.15 8.2642 2.282501 9.080002
11/9/2020 7:41:35 AM 9.0625 48.3125 498.15 8.26 2.247498 9.0625
11/9/2020 7:56:35 AM 9.065 48.317 497.7501 8.2502 2.300003 9.065002
11/9/2020 8:11:35 AM 9.0975 48.3755 497.4 8.2453 2.279999 9.097504
11/9/2020 8:26:35 AM 9.115 48.407 496.7501 8.239 2.264999 9.114998
11/9/2020 8:41:35 AM 9.1125 48.4025 496.4 8.2453 2.247498 9.112503
11/9/2020 8:56:35 AM 9.1325 48.4385 496 8.2292 8.355003 9.1325
11/9/2020 9:11:35 AM 9.1125 48.4025 496.4 8.2306 2.889999 9.112503
11/9/2020 9:26:35 AM 9.13 48.434 496.1 8.2299 2.557503 9.129997
11/9/2020 9:41:35 AM 9.2525 48.6545 494.3501 8.2236 2.4925 9.252502
11/9/2020 9:56:35 AM 9.2525 48.6545 494.3 8.2236 2.452499 9.252502
11/9/2020 10:11:35 AM 9.25 48.65 494.6 8.2299 2.472504 9.25
11/9/2020 10:26:35 AM 9.27 48.686 494.3 8.2299 2.452499 9.269997
11/9/2020 10:41:35 AM 9.29 48.722 493.9 8.232 2.442497 9.290001
11/9/2020 10:56:35 AM 9.1525 48.4745 496.3501 8.2306 2.440002 9.152496
11/9/2020 11:11:35 AM 8.975 48.155 498.8 8.2285 2.455002 8.974998
11/9/2020 11:26:34 AM 8.9425 48.0965 499.9 8.2341 2.455002 8.942497
11/9/2020 11:41:35 AM 8.9575 48.1235 499.85 8.2453 2.425003 8.957497
11/9/2020 11:56:34 AM 8.9925 48.1865 499.85 8.2537 2.422501 8.9925
11/9/2020 12:11:34 PM 9.0475 48.2855 499.2 8.2544 2.422501 9.047501
11/9/2020 12:26:35 PM 9.115 48.407 498.5 8.2537 2.472504 9.114998
11/9/2020 12:41:35 PM 9.2375 48.6275 497.4 8.2544 2.4375 9.237503
11/9/2020 12:56:35 PM 9.3575 48.8435 496.1 8.2495 2.434998 9.357498
11/9/2020 1:11:35 PM 9.4425 48.9965 495 8.2439 2.4375 9.442497
11/9/2020 1:26:35 PM 9.53 49.154 494.3 8.2446 2.4375 9.529999
11/9/2020 1:41:35 PM 9.6175 49.3115 493.6 8.239 2.4375 9.6175
11/9/2020 1:56:35 PM 9.6675 49.4015 493.3 8.239 2.510002 9.667503
11/9/2020 2:11:35 PM 9.69 49.442 493.2499 8.2348 2.474998 9.690002
11/9/2020 2:26:35 PM 9.76 49.568 492.9 8.2348 2.457497 9.760002
11/9/2020 2:41:35 PM 9.8275 49.6895 492.55 8.2355 2.427498 9.827499
11/9/2020 2:56:35 PM 9.8825 49.7885 492.2 8.2306 2.442497 9.8825
11/9/2020 3:11:35 PM 9.8975 49.8155 492.2 8.2299 2.4375 9.897499
11/9/2020 3:26:35 PM 9.915 49.847 492.3 8.2313 2.419998 9.915001
11/9/2020 3:41:35 PM 9.9325 49.8785 492.6 8.2341 2.422501 9.932503
11/9/2020 3:56:35 PM 9.95 49.91 492.6 8.2355 2.440002 9.949997
11/9/2020 4:11:35 PM 9.8625 49.7525 493.6499 8.2313 2.419998 9.862503
11/9/2020 4:26:35 PM 9.81 49.658 494.2499 8.2306 2.387497 9.809998
11/9/2020 4:41:35 PM 9.7425 49.5365 494.9501 8.232 2.422501 9.7425
11/9/2020 4:56:35 PM 9.62 49.316 496.4 8.2257 2.422501 9.620003
11/9/2020 5:11:35 PM 9.48 49.064 497.7501 8.2236 2.419998 9.480003
11/9/2020 5:26:35 PM 9.3575 48.8435 498.8 8.2194 2.407501 9.357498
11/9/2020 5:41:35 PM 9.255 48.659 499.85 8.211 2.422501 9.254997
11/9/2020 5:56:35 PM 9.185 48.533 500.3 8.2061 2.425003 9.184998
11/9/2020 6:11:35 PM 9.0825 48.3485 500.9501 8.2012 2.407501 9.082497
11/9/2020 6:26:35 PM 9.0125 48.2225 501.3 8.188601 2.404999 9.012497
11/9/2020 6:41:35 PM 8.9425 48.0965 501.6499 8.177401 2.407501 8.942497
11/9/2020 6:56:34 PM 8.875 47.975 502.4 8.167601 2.389999 8.875
11/9/2020 7:11:35 PM 8.805 47.849 503.45 8.158501 2.389999 8.805
11/9/2020 7:26:35 PM 8.77 47.786 503.7501 8.155001 2.410004 8.769997
11/9/2020 7:41:35 PM 8.7575 47.7635 504.45 8.149401 2.410004 8.7575
11/9/2020 7:56:35 PM 8.7725 47.7905 505.1 8.150101 2.392502 8.772499
11/9/2020 8:11:35 PM 8.9975 48.1955 502 8.153601 2.407501 8.997498
11/9/2020 8:26:35 PM 9.1175 48.4115 500.6 8.152901 2.422501 9.1175
11/9/2020 8:41:35 PM 9.185 48.533 499.55 8.157801 2.407501 9.184998
11/9/2020 8:56:35 PM 9.2375 48.6275 498.5 8.171101 2.404999 9.237503
11/9/2020 9:11:35 PM 9.255 48.659 498.1 8.192101 2.402496 9.254997
11/9/2020 9:26:35 PM 9.2875 48.7175 497.4 8.2054 2.349998 9.287498
11/9/2020 9:41:35 PM 9.3025 48.7445 496.7501 8.2264 2.349998 9.302498
11/9/2020 9:56:34 PM 9.34 48.812 496.3501 8.2453 2.352501 9.339996
11/9/2020 10:11:35 PM 9.3575 48.8435 495.6499 8.2005 2.3675 9.357498
11/9/2020 10:26:35 PM 9.39 48.902 495.3501 8.2355 2.349998 9.389999
11/9/2020 10:41:35 PM 9.29 48.722 496.7501 8.26 2.352501 9.290001
11/9/2020 10:56:35 PM 9.03 48.254 500.9501 8.281 2.355003 9.029999
11/9/2020 11:11:35 PM 8.9125 48.0425 502.7501 8.3006 2.339996 8.912498
11/9/2020 11:26:35 PM 9.135 48.443 499.6 8.3139 2.32 9.135002
11/9/2020 11:41:35 PM 9.3075 48.7535 497.55 8.3223 2.337502 9.307503
11/10/2020 12:11:35 AM 9.445 49.001 495.7 8.3342 2.959999 9.445
11/10/2020 12:26:35 AM 9.585 49.253 493.6499 8.3363 4.695 9.584999
11/10/2020 12:41:35 AM 9.6525 49.3745 492.6 8.3755 4.014999 9.652496
11/10/2020 12:56:35 AM 9.685 49.433 491.9 8.3811 3.684998 9.684998
11/10/2020 1:11:35 AM 9.6875 49.4375 491.55 8.3804 3.389999 9.6875
11/10/2020 1:26:35 AM 9.2725 48.6905 497.8 8.3804 3.220001 9.272499
11/10/2020 1:41:35 AM 9.0475 48.2855 500.9501 8.3811 3.1875 9.047501
11/10/2020 1:56:35 AM 8.9475 48.1055 502.7501 8.3867 2.910004 8.947502
11/10/2020 2:11:35 AM 9.17 48.506 499.2499 8.3867 2.665001 9.169998
11/10/2020 2:26:35 AM 9.31 48.758 497.2 8.3853 2.547501 9.309998
11/10/2020 2:41:35 AM 9.3775 48.8795 496.1 8.3874 2.4925 9.377502
11/10/2020 2:56:35 AM 9.3775 48.8795 496.15 8.386 2.5075 9.377502
11/10/2020 3:11:35 AM 9.3925 48.9065 495.7501 8.386 2.510002 9.392502
11/10/2020 3:26:34 AM 9.41 48.938 495.3501 8.3818 2.510002 9.410004
11/10/2020 3:41:35 AM 9.41 48.938 495.3501 8.3797 2.5075 9.410004
11/10/2020 3:56:35 AM 9.41 48.938 495.3501 8.3776 2.472504 9.410004
11/10/2020 4:11:34 AM 9.4075 48.9335 495.4 8.3762 2.4925 9.407501
11/10/2020 4:26:35 AM 9.41 48.938 495.3501 8.372 2.489998 9.410004
11/10/2020 4:41:35 AM 9.3925 48.9065 495.3501 8.3727 2.527496 9.392502
11/10/2020 4:56:35 AM 9.3925 48.9065 495.4 8.3629 2.504997 9.392502
11/10/2020 5:11:35 AM 9.3725 48.8705 495.3501 8.3615 2.510002 9.372498
11/10/2020 5:26:35 AM 9.375 48.875 495.3501 8.351 2.5075 9.375
11/10/2020 5:41:35 AM 9.36 48.848 495.3501 8.3461 2.525002 9.360001
11/10/2020 5:56:35 AM 9.3575 48.8435 495.7 8.3412 2.5075 9.357498
11/10/2020 6:11:35 AM 9.34 48.812 495.7 8.3335 2.487503 9.339996
11/10/2020 6:26:35 AM 9.3225 48.7805 495.7 8.3272 2.474998 9.322502
11/10/2020 6:41:35 AM 9.3225 48.7805 496.1 8.3181 2.489998 9.322502
11/10/2020 6:56:35 AM 9.305 48.749 496 8.3083 2.489998 9.305
11/10/2020 7:11:35 AM 9.2875 48.7175 496.0499 8.302 2.487503 9.287498
11/10/2020 7:26:34 AM 9.2725 48.6905 496.0499 8.2929 2.489998 9.272499
11/10/2020 7:41:35 AM 9.27 48.686 496.4 8.2831 2.542503 9.269997
11/10/2020 7:56:35 AM 9.2525 48.6545 496.4 8.2754 2.525002 9.252502
11/10/2020 8:11:35 AM 9.2525 48.6545 496.0499 8.2691 2.525002 9.252502
11/10/2020 8:26:35 AM 9.29 48.722 495.4 8.2642 2.577499 9.290001
11/10/2020 8:41:35 AM 9.3375 48.8075 494.6499 8.2586 2.559998 9.337502
11/10/2020 8:56:35 AM 9.375 48.875 493.9501 8.192101 2.542503 9.375
11/10/2020 9:11:35 AM 9.425 48.965 493.3 8.2166 2.525002 9.425003
11/10/2020 9:26:35 AM 9.4575 49.0235 492.55 8.2208 2.487503 9.457497
11/10/2020 9:41:35 AM 9.5625 49.2125 491.15 8.2243 2.5075 9.5625
11/10/2020 9:56:35 AM 9.46 49.028 492.55 8.2355 2.504997 9.459999
11/10/2020 10:11:35 AM 9.255 48.659 496.0499 8.239 2.4925 9.254997
11/10/2020 10:26:35 AM 9.2025 48.5645 497.1 8.239 2.474998 9.202499
11/10/2020 10:41:35 AM 9.27 48.686 496.4 8.2439 2.472504 9.269997
11/10/2020 10:56:35 AM 9.445 49.001 493.9501 8.2453 2.489998 9.445
11/10/2020 11:11:35 AM 9.5475 49.1855 492.9 8.2425 2.504997 9.547501
11/10/2020 11:26:35 AM 9.6 49.28 492.15 8.239 2.472504 9.599998
11/10/2020 11:41:35 AM 9.6325 49.3385 492.2 8.2355 2.472504 9.6325
11/10/2020 11:56:35 AM 9.7025 49.4645 491.9 8.2306 2.472504 9.702499
11/10/2020 12:11:34 PM 9.7425 49.5365 491.5 8.2327 2.4925 9.7425
11/10/2020 12:26:35 PM 9.76 49.568 491.85 8.225 2.489998 9.760002
11/10/2020 12:41:35 PM 9.8125 49.6625 491.85 8.2152 2.525002 9.8125
11/10/2020 12:56:35 PM 9.845 49.721 491.9 8.2124 2.510002 9.845001
11/10/2020 1:11:35 PM 9.915 49.847 491.85 8.211 2.565002 9.915001
11/10/2020 1:26:35 PM 9.9825 49.9685 491.85 8.2117 2.559998 9.982498
11/10/2020 1:41:35 PM 10.07 50.126 491.5 8.2446 2.5625 10.07
11/10/2020 1:56:35 PM 10.125 50.225 491.5 8.2404 2.595001 10.125
11/10/2020 2:11:35 PM 10.1925 50.3465 491.5 8.2348 2.5625 10.19
11/10/2020 2:26:35 PM 10.2625 50.4725 491.85 8.2397 2.542503 10.2625
11/10/2020 2:41:35 PM 10.3125 50.5625 491.9 8.2341 2.547501 10.3125
11/10/2020 3:11:34 PM 10.365 50.657 491.15 8.2292 2.559998 10.365
11/10/2020 3:26:34 PM 10.33 50.594 491.5 8.232 2.559998 10.33
11/10/2020 3:41:34 PM 10.3325 50.5985 491.5 8.2257 2.542503 10.3325
11/10/2020 3:56:35 PM 10.315 50.567 491.85 8.2257 2.559998 10.315
11/10/2020 4:11:35 PM 10.3475 50.6255 491.85 8.2257 2.559998 10.3475
11/10/2020 4:26:35 PM 10.365 50.657 491.8 8.2313 2.542503 10.365
11/10/2020 4:41:35 PM 10.3475 50.6255 492.2 8.2299 2.529999 10.3475
11/10/2020 4:56:35 PM 10.3325 50.5985 492.15 8.2292 2.525002 10.3325
11/10/2020 5:11:35 PM 10.295 50.531 492.55 8.225 2.525002 10.295
11/10/2020 5:26:35 PM 10.2975 50.5355 492.9 8.2264 2.489998 10.2975
11/10/2020 5:41:35 PM 10.245 50.441 493.9501 8.2257 2.542503 10.245
11/10/2020 5:56:35 PM 10.2275 50.4095 494.6499 8.225 2.527496 10.2275
11/10/2020 6:11:35 PM 10.2125 50.3825 495.7 8.2215 2.544998 10.2125
11/10/2020 6:26:35 PM 10.175 50.315 496.0499 8.218 2.510002 10.175
11/10/2020 6:41:35 PM 10.105 50.189 497.0499 8.2026 2.4925 10.105
11/10/2020 6:56:35 PM 10.02 50.036 498.0499 8.193501 2.510002 10.02
11/10/2020 7:11:35 PM 9.9625 49.9325 498.4 8.191401 2.489998 9.962502
11/10/2020 7:26:35 PM 9.8575 49.7435 499.15 8.186501 2.5075 9.857498
11/10/2020 7:41:35 PM 9.7575 49.5635 500.55 8.181601 2.5075 9.7575
11/10/2020 7:56:35 PM 9.685 49.433 501.2499 8.177401 2.510002 9.684998
11/10/2020 8:11:35 PM 9.6375 49.3475 501.9501 8.176701 2.510002 9.637497
11/10/2020 8:26:35 PM 9.5825 49.2485 502.6499 8.181601 2.5075 9.582497
11/10/2020 8:41:35 PM 9.55 49.19 503.3 8.186501 2.510002 9.550003
11/10/2020 8:56:35 PM 9.5325 49.1585 504.1 8.193501 2.544998 9.532501
11/10/2020 9:11:35 PM 9.515 49.127 504.0499 8.2012 2.544998 9.514999
11/10/2020 9:26:35 PM 9.4975 49.0955 504.8 8.2166 2.547501 9.497498
11/10/2020 9:41:35 PM 9.535 49.163 504.7 8.2411 2.529999 9.535004
11/10/2020 9:56:35 PM 9.5675 49.2215 504.7501 8.2712 2.527496 9.567497
11/10/2020 10:11:35 PM 9.6025 49.2845 504.7501 8.2943 2.772499 9.602501
11/10/2020 10:26:35 PM 9.64 49.352 504.7 8.2705 3.360001 9.639999
11/10/2020 10:41:35 PM 9.6725 49.4105 504.7501 8.2992 3.309998 9.672501
11/10/2020 10:56:35 PM 9.7225 49.5005 504.4 8.3146 3.099998 9.722504
11/10/2020 11:11:35 PM 9.7075 49.4735 504.8 8.3244 2.790001 9.707497
11/10/2020 11:26:35 PM 9.7075 49.4735 505.1 8.3286 2.614998 9.707497
11/10/2020 11:41:35 PM 9.7275 49.5095 505.1 8.3335 2.512497 9.727501
11/11/2020 12:11:35 AM 9.795 49.631 504.8 8.3433 2.512497 9.794998
11/11/2020 12:26:35 AM 9.8125 49.6625 504.8 8.3489 2.514999 9.8125
11/11/2020 12:41:35 AM 9.8275 49.6895 504.8 8.3538 2.477501 9.827499
11/11/2020 12:56:35 AM 9.8475 49.7255 504.7501 8.3587 2.510002 9.847504
11/11/2020 1:11:35 AM 9.8475 49.7255 505.15 8.358 2.6175 9.847504
11/11/2020 1:26:35 AM 9.8475 49.7255 504.85 8.358 3.205002 9.847504
11/11/2020 1:41:35 AM 9.8475 49.7255 504.8 8.3573 3.084999 9.847504
11/11/2020 1:56:35 AM 9.85 49.73 504.8 8.3566 2.915001 9.849998
11/11/2020 2:11:35 AM 9.83 49.694 505.15 8.358 2.672501 9.830002
11/11/2020 2:26:35 AM 9.8125 49.6625 505.5 8.3587 2.547501 9.8125
11/11/2020 2:41:35 AM 9.8125 49.6625 505.45 8.3545 2.532501 9.8125
11/11/2020 2:56:35 AM 9.8125 49.6625 505.15 8.3531 2.512497 9.8125
11/11/2020 3:11:35 AM 9.8125 49.6625 505.5 8.3489 2.5625 9.8125
11/11/2020 3:26:35 AM 9.8125 49.6625 505.5 8.3503 2.514999 9.8125
11/11/2020 3:41:35 AM 9.815 49.667 505.45 8.3482 2.477501 9.815002
11/11/2020 3:56:35 AM 9.815 49.667 505.5 8.3426 2.512497 9.815002
11/11/2020 4:11:35 AM 9.815 49.667 505.5 8.3762 2.512497 9.815002
11/11/2020 4:26:35 AM 9.8125 49.6625 505.5 8.3734 2.512497 9.8125
11/11/2020 4:41:35 AM 9.8125 49.6625 505.85 8.3678 2.497498 9.8125
11/11/2020 4:56:35 AM 9.815 49.667 505.85 8.3671 2.514999 9.815002
11/11/2020 5:11:35 AM 9.795 49.631 506.15 8.3643 2.495003 9.794998
11/11/2020 5:26:35 AM 9.7775 49.5995 506.5 8.3552 2.4925 9.777496
11/11/2020 5:41:35 AM 9.76 49.568 506.5 8.3489 2.512497 9.760002
11/11/2020 5:56:35 AM 9.8475 49.7255 505.45 8.344 2.527496 9.847504
11/11/2020 6:11:35 AM 10.0025 50.0045 503.0499 8.3328 2.527496 10.0025
11/11/2020 6:26:35 AM 10.125 50.225 501.6499 8.3279 2.525002 10.125
11/11/2020 6:41:35 AM 10.175 50.315 500.9501 8.3174 2.525002 10.175
11/11/2020 6:56:35 AM 10.2225 50.4005 500.2 8.3097 2.525002 10.2225
11/11/2020 7:11:35 AM 10.2425 50.4365 499.8 8.2978 2.542503 10.2425
11/11/2020 7:26:35 AM 10.2925 50.5265 499.45 8.2929 2.557503 10.2925
11/11/2020 7:41:35 AM 10.31 50.558 499.45 8.2845 2.574997 10.31
11/11/2020 7:56:35 AM 10.1025 50.1845 502.6 8.2796 2.557503 10.1025
11/11/2020 8:11:35 AM 9.98 49.964 504.3501 8.2747 2.544998 9.980003
11/11/2020 8:26:35 AM 9.93 49.874 505.0499 8.2649 2.544998 9.93
11/11/2020 8:41:35 AM 9.8975 49.8155 505.45 8.2614 2.529999 9.897499
11/11/2020 8:56:35 AM 9.8825 49.7885 505.1 8.2348 2.529999 9.8825
11/11/2020 9:11:34 AM 9.88 49.784 504.4 8.2173 2.737503 9.879997
11/11/2020 9:26:35 AM 9.8975 49.8155 504.0499 8.2117 2.580002 9.897499
11/11/2020 9:41:34 AM 9.9175 49.8515 503.4 8.2047 2.559998 9.917503
11/11/2020 9:56:35 AM 9.935 49.883 502.6499 8.2012 2.512497 9.934998
11/11/2020 10:11:34 AM 9.935 49.883 502 8.190701 2.512497 9.934998
11/11/2020 10:26:34 AM 9.95 49.91 500.9501 8.182301 2.4925 9.949997
11/11/2020 10:41:35 AM 9.95 49.91 500.2499 8.176001 2.489998 9.949997
11/11/2020 10:56:35 AM 9.965 49.937 499.55 8.173201 2.510002 9.964996
11/11/2020 11:11:35 AM 9.985 49.973 498.85 8.162701 2.472504 9.985001
11/11/2020 11:26:35 AM 10.035 50.063 497.8 8.164101 2.510002 10.035
11/11/2020 11:41:35 AM 10.0525 50.0945 497.1 8.158501 2.4925 10.0525
11/11/2020 11:56:34 AM 10.035 50.063 497.1 8.156401 2.489998 10.035
11/11/2020 12:11:35 PM 10.035 50.063 496.8 8.152201 2.474998 10.035
11/11/2020 12:26:35 PM 10.035 50.063 496.8 8.146601 2.457497 10.035
11/11/2020 12:41:35 PM 10.035 50.063 496.45 8.143101 2.455002 10.035
11/11/2020 12:56:35 PM 10.035 50.063 496.7501 8.143101 2.474998 10.035
11/11/2020 1:11:35 PM 10.0375 50.0675 496.4 8.136801 2.5075 10.0375
11/11/2020 1:26:35 PM 10.0525 50.0945 496.1 8.134001 2.650002 10.0525
11/11/2020 1:41:35 PM 10.07 50.126 495 8.124201 2.737503 10.07
11/11/2020 1:56:35 PM 10.0875 50.1575 494.6499 8.117201 2.732498 10.0875
11/11/2020 2:11:35 PM 10.1025 50.1845 494.3501 8.117901 2.699997 10.1025
11/11/2020 2:26:35 PM 10.12 50.216 494.3501 8.117901 2.68 10.12
11/11/2020 2:41:35 PM 10.14 50.252 493.6 8.117201 2.922501 10.14
11/11/2020 2:56:35 PM 10.155 50.279 493.2499 8.112301 2.817497 10.155
11/11/2020 3:11:35 PM 10.1725 50.3105 493.3 8.107401 2.855003 10.1725
11/11/2020 3:26:35 PM 10.19 50.342 494.3501 8.108101 2.875 10.19
11/11/2020 3:41:35 PM 10.21 50.378 495.0499 8.103901 2.907501 10.21
11/11/2020 3:56:35 PM 10.225 50.405 495.4 8.104601 2.925003 10.225
11/11/2020 4:11:35 PM 10.2425 50.4365 495.7 8.097601 2.942497 10.2425
11/11/2020 4:26:35 PM 10.2625 50.4725 495.7 8.098301 2.995003 10.2625
11/11/2020 4:41:35 PM 10.295 50.531 495.6499 8.092699 2.9925 10.295
11/11/2020 4:56:35 PM 10.3125 50.5625 495.3501 8.088499 2.977501 10.3125
11/11/2020 5:11:35 PM 10.33 50.594 495 8.078699 2.974998 10.33
11/11/2020 5:26:35 PM 10.345 50.621 494.7 8.073799 3.032501 10.345
11/11/2020 5:41:35 PM 10.3475 50.6255 494.3501 8.068899 3.029999 10.3475
11/11/2020 5:56:35 PM 10.3675 50.6615 494.0499 8.059099 3.029999 10.3675
11/11/2020 6:11:35 PM 10.365 50.657 494.6499 8.049299 3.012497 10.365
11/11/2020 6:26:35 PM 10.33 50.594 496.0499 8.049299 2.959999 10.33
11/11/2020 6:41:35 PM 10.33 50.594 496.7501 8.044399 2.910004 10.33
11/11/2020 6:56:34 PM 10.3325 50.5985 497.1 8.039499 2.855003 10.3325
11/11/2020 7:11:34 PM 10.3125 50.5625 497.1 8.040899 2.839996 10.3125
11/11/2020 7:26:35 PM 10.315 50.567 496.7501 8.035299 2.857498 10.315
11/11/2020 7:41:35 PM 10.3325 50.5985 496.1 8.035299 2.837502 10.3325
11/11/2020 7:56:35 PM 10.33 50.594 495.4 8.037399 2.872498 10.33
11/11/2020 8:11:35 PM 10.365 50.657 494.7 8.030399 3.065002 10.365
11/11/2020 8:26:35 PM 10.365 50.657 494 8.032499 3.567497 10.365
11/11/2020 8:41:35 PM 10.4525 50.8145 491.9 8.030399 3.6175 10.4525
11/11/2020 8:56:35 PM 10.4525 50.8145 491.2 8.070299 3.495003 10.4525
11/11/2020 9:11:35 PM 10.4525 50.8145 490.85 8.069599 3.275002 10.4525
11/11/2020 9:26:35 PM 10.435 50.783 490.85 8.068899 3.114998 10.435
11/11/2020 9:41:35 PM 10.4525 50.8145 490.55 8.073799 3.1175 10.4525
11/11/2020 9:56:36 PM 10.45 50.81 489.85 8.075899 3.152496 10.45
11/11/2020 10:11:35 PM 10.4525 50.8145 489.5 8.075199 3.205002 10.4525
11/11/2020 10:26:35 PM 10.4525 50.8145 489.2 8.078699 3.205002 10.4525
11/11/2020 10:41:35 PM 10.505 50.909 488.45 8.083599 3.272499 10.505
11/11/2020 10:56:35 PM 10.505 50.909 488.45 8.089899 3.327499 10.505
11/11/2020 11:11:35 PM 10.505 50.909 488.5 8.097601 3.447502 10.505
11/11/2020 11:26:35 PM 10.5225 50.9405 488.15 8.106001 3.43 10.5225
11/11/2020 11:41:35 PM 10.5225 50.9405 487.85 8.103901 3.482498 10.5225
11/12/2020 12:11:35 AM 10.85 51.53 483.3 8.103201 3.602501 10.85
11/12/2020 12:26:35 AM 10.92 51.656 482.2499 8.103201 3.602501 10.92
11/12/2020 12:41:34 AM 11.0225 51.8405 481.1 8.098301 4.397499 11.0225
11/12/2020 12:56:35 AM 11.11 51.998 480.1 8.091999 4.989998 11.11
11/12/2020 1:11:35 AM 11.1425 52.0565 479.4 8.087799 4.730003 11.1425
11/12/2020 1:26:35 AM 10.7975 51.4355 484.2499 8.089899 4.487503 10.7975
11/12/2020 1:41:35 AM 10.575 51.035 487.0499 8.094101 4.087502 10.575
11/12/2020 1:56:35 AM 10.7125 51.2825 485.3501 8.092699 3.842499 10.7125
11/12/2020 2:11:34 AM 10.8325 51.4985 483.9501 8.094801 3.739998 10.8325
11/12/2020 2:26:35 AM 10.885 51.593 483.9 8.089199 3.707497 10.885
11/12/2020 2:41:35 AM 10.92 51.656 483.6 8.082899 3.669998 10.92
11/12/2020 2:56:35 AM 10.9375 51.6875 483.6 8.078699 3.6325 10.9375
11/12/2020 3:11:34 AM 10.9375 51.6875 484.2499 8.067499 3.5625 10.9375
11/12/2020 3:26:34 AM 10.92 51.656 484.9501 8.062599 3.514999 10.92
11/12/2020 3:41:35 AM 10.675 51.215 488.45 8.054899 3.512497 10.675
11/12/2020 3:56:35 AM 10.435 50.783 493 8.044399 3.447502 10.435
11/12/2020 4:11:34 AM 10.505 50.909 492.3 8.040899 3.360001 10.505
11/12/2020 4:26:35 AM 10.6425 51.1565 490.9 8.034599 3.307503 10.6425
11/12/2020 4:41:35 AM 10.7125 51.2825 490.5 8.030399 3.290001 10.7125
11/12/2020 4:56:35 AM 10.73 51.314 490.5 8.025499 3.235001 10.73
11/12/2020 5:11:35 AM 10.745 51.341 490.15 8.015699 3.222504 10.745
11/12/2020 5:26:34 AM 10.7625 51.3725 490.5 7.952 3.202499 10.7625
11/12/2020 5:41:35 AM 10.7425 51.3365 490.85 7.9716 3.167503 10.7425
11/12/2020 5:56:35 AM 10.745 51.341 491.2 7.973 3.167503 10.745
11/12/2020 6:11:34 AM 10.745 51.341 491.2 7.966 3.129997 10.745
11/12/2020 6:26:35 AM 10.745 51.341 491.15 7.9632 3.095001 10.745
11/12/2020 6:41:34 AM 10.7425 51.3365 491.5 7.9583 3.114998 10.7425
11/12/2020 6:56:35 AM 10.745 51.341 491.9 7.9506 3.059998 10.745
11/12/2020 7:11:35 AM 10.7425 51.3365 491.85 7.9485 3.042503 10.7425
11/12/2020 7:26:35 AM 10.7425 51.3365 491.8 7.9436 3.097504 10.7425
11/12/2020 7:41:35 AM 10.7425 51.3365 492.2 7.9387 3.077499 10.7425
11/12/2020 7:56:35 AM 10.745 51.341 491.85 7.9275 3.095001 10.745
11/12/2020 8:11:35 AM 10.7425 51.3365 491.85 7.9212 3.029999 10.7425
11/12/2020 8:26:35 AM 10.725 51.305 492.2 7.9191 3.099998 10.725
11/12/2020 8:41:35 AM 10.415 50.747 496.7501 7.9121 3.029999 10.415
11/12/2020 8:56:35 AM 10.245 50.441 499.2 7.9093 2.995003 10.245
11/12/2020 9:11:35 AM 10.485 50.873 496.0499 7.8946 3.862503 10.485
11/12/2020 9:26:35 AM 10.4525 50.8145 496 7.8953 3.900002 10.4525
11/12/2020 9:41:35 AM 10.1925 50.3465 499.9501 7.8995 3.084999 10.1925
11/12/2020 9:56:35 AM 10.0725 50.1305 501.6499 7.9051 2.495003 10.0725
11/12/2020 10:11:35 AM 10.0025 50.0045 502.7501 7.9044 2.290001 10.0025
11/12/2020 10:26:35 AM 10.005 50.009 503.8 7.8967 2.324997 10.005
11/12/2020 10:41:35 AM 10.0925 50.1665 502.4 7.9093 2.412498 10.0925
11/12/2020 10:56:35 AM 10.2125 50.3825 500.6499 7.917 2.497498 10.2125
11/12/2020 11:11:35 AM 10.2975 50.5355 498.55 7.896 5.797501 10.2975
11/12/2020 11:26:35 AM 10.3675 50.6615 497.5 7.8918 2.927498 10.3675
11/12/2020 11:41:35 AM 10.1075 50.1935 501.3501 7.9114 2.6175 10.1075
11/12/2020 11:56:35 AM 9.9725 49.9505 503.45 7.9212 2.535004 9.972504
11/12/2020 12:11:35 PM 9.9025 49.8245 504.45 7.9205 2.497498 9.902496
11/12/2020 12:26:34 PM 9.87 49.766 505.2 7.9254 2.445 9.870003
11/12/2020 12:41:35 PM 9.8675 49.7615 505.55 7.9261 2.427498 9.8675
11/12/2020 12:56:35 PM 9.87 49.766 505.9 7.9296 2.377502 9.870003
11/12/2020 1:11:35 PM 9.85 49.73 506.3 7.9317 2.360001 9.849998
11/12/2020 1:26:35 PM 9.8325 49.6985 506.6 7.9359 2.345001 9.832497
11/12/2020 1:41:35 PM 9.815 49.667 506.6 7.9408 2.360001 9.815002
11/12/2020 1:56:34 PM 9.7825 49.6085 507.3 7.9513 2.377502 9.782501
11/12/2020 2:11:35 PM 9.765 49.577 507.6 7.9534 2.394997 9.764999
11/12/2020 2:26:34 PM 9.7625 49.5725 507.6499 7.959 2.392502 9.762497
11/12/2020 2:41:35 PM 9.7625 49.5725 507.6499 7.9611 2.412498 9.762497
11/12/2020 2:56:35 PM 9.745 49.541 508 7.9653 2.394997 9.745003
11/12/2020 3:11:35 PM 9.73 49.514 508.3501 7.9702 2.43 9.730003
11/12/2020 3:26:35 PM 9.7125 49.4825 508.3501 7.9786 2.447502 9.712502
11/12/2020 3:41:35 PM 9.7125 49.4825 508.6499 7.9835 2.427498 9.712502
11/12/2020 3:56:35 PM 9.6975 49.4555 508.7 7.993999 2.397499 9.697502
11/12/2020 4:11:35 PM 9.6625 49.3925 509.0499 8.009399 2.379997 9.662498
11/12/2020 4:26:35 PM 9.6275 49.3295 509.0499 8.017099 2.397499 9.627502
11/12/2020 4:41:35 PM 9.61 49.298 509.7501 8.027599 2.362503 9.610001
11/12/2020 4:51:53 PM 9.5725 49.2305 509.7501 8.034599 2.360001 9.572502
11/12/2020 5:06:52 PM 9.5225 49.1405 510.45 8.044399 2.345001 9.522499
11/12/2020 5:21:52 PM 9.47 49.046 510.8 8.049999 2.327499 9.470001
11/12/2020 5:36:52 PM 9.4 48.92 511.45 8.054899 2.347504 9.400002
11/12/2020 5:51:52 PM 9.35 48.83 511.8 8.058399 2.364998 9.349998
11/12/2020 6:06:52 PM 9.2975 48.7355 512.2 8.062599 2.434998 9.297501
11/12/2020 6:21:52 PM 9.2625 48.6725 512.55 8.068899 2.452499 9.262497
11/12/2020 6:36:52 PM 9.2125 48.5825 513.2499 8.072399 2.470001 9.212502
11/12/2020 6:51:52 PM 9.1775 48.5195 513.6 8.084299 2.489998 9.177498
11/12/2020 7:06:52 PM 9.1425 48.4565 514 8.087799 2.540001 9.142502
11/12/2020 7:21:52 PM 9.11 48.398 514.2499 8.097601 2.540001 9.110001
11/12/2020 7:36:52 PM 9.09 48.362 514.6499 8.107401 2.574997 9.089996
11/12/2020 7:51:52 PM 9.075 48.335 515 8.116501 2.627502 9.074997
11/12/2020 8:06:52 PM 9.0575 48.3035 515.0499 8.127001 2.665001 9.057503
11/12/2020 8:21:52 PM 9.0225 48.2405 515.3501 8.137501 2.712502 9.022499
11/12/2020 8:36:52 PM 8.99 48.182 515.7501 8.145901 2.712502 8.989998
11/12/2020 8:51:52 PM 8.935 48.083 516.0499 8.156401 2.800003 8.934998
11/12/2020 9:06:52 PM 8.9025 48.0245 516.45 8.157801 2.817497 8.902496
11/12/2020 9:21:52 PM 8.83 47.894 516.7501 8.156401 2.870003 8.830002
11/12/2020 9:36:52 PM 8.7975 47.8355 516.7501 8.150801 2.904999 8.797501
11/12/2020 9:51:52 PM 8.765 47.777 516.4 8.145901 2.942497 8.764999
11/12/2020 10:06:52 PM 8.71 47.678 516.1 8.138201 2.957497 8.709999
11/12/2020 10:21:52 PM 8.675 47.615 515.4 8.127701 2.974998 8.675003
11/12/2020 10:36:52 PM 8.625 47.525 514.3501 8.117201 3.010002 8.625
11/12/2020 10:51:52 PM 8.5925 47.4665 513.3501 8.103201 3.0625 8.592499
11/12/2020 11:06:52 PM 8.555 47.399 512.3 8.089899 3.080002 8.555
11/12/2020 11:21:52 PM 8.505 47.309 511.2 8.075199 3.1325 8.504997
11/12/2020 11:36:52 PM 8.4675 47.2415 510.2499 8.063999 3.182503 8.467499
11/13/2020 12:06:52 AM 8.365 47.057 508.8 8.037399 3.237503 8.364998
11/13/2020 12:21:52 AM 8.33 46.994 508.15 8.025499 3.410004 8.330002
11/13/2020 12:36:52 AM 8.2975 46.9355 507.1 8.010799 4.595001 8.297501
11/13/2020 12:51:52 AM 8.2425 46.8365 506.7501 7.996799 4.974998 8.2425
11/13/2020 1:06:52 AM 8.2075 46.7735 506.4 7.987 4.644997 8.207497
11/13/2020 1:21:52 AM 8.21 46.778 506.1 7.9835 4.434998 8.209999
11/13/2020 1:36:52 AM 8.175 46.715 505.7 7.9716 4.434998 8.175003
11/13/2020 1:51:52 AM 8.1225 46.6205 506.1 7.9723 4.470001 8.122498
11/13/2020 2:06:52 AM 8.09 46.562 506.1 7.9667 4.3675 8.089996
11/13/2020 2:21:52 AM 8.07 46.526 506.1 7.9688 4.139999 8.07
11/13/2020 2:36:52 AM 8.0375 46.4675 506.0499 7.9632 3.845001 8.037498
11/13/2020 2:51:52 AM 8.0375 46.4675 506.0499 7.9625 3.602501 8.037498
11/13/2020 3:06:52 AM 8.02 46.436 506.1 7.9583 3.495003 8.019997
11/13/2020 3:21:52 AM 8.1575 46.6835 503.6499 7.9527 3.495003 8.157501
11/13/2020 3:36:52 AM 8.52 47.336 497.4 7.9513 3.512497 8.519997
11/13/2020 3:51:52 AM 8.725 47.705 493.5 7.9464 3.455002 8.724998
11/13/2020 4:06:52 AM 8.7575 47.7635 492.15 7.9464 3.472504 8.7575
11/13/2020 4:21:52 AM 8.3075 46.9535 497.7 7.9422 3.4925 8.307503
11/13/2020 4:36:52 AM 8.0825 46.5485 500.1 7.9429 3.527496 8.082497
11/13/2020 4:51:53 AM 7.9475 46.3055 501.2 7.9366 3.495003 7.945
11/13/2020 5:06:52 AM 8.1375 46.6475 497.3501 7.938 3.512497 8.137497
11/13/2020 5:21:52 AM 8.43 47.174 491.1 7.938 3.472504 8.43
11/13/2020 5:36:52 AM 8.585 47.453 487.3 7.9359 3.5075 8.584999
11/13/2020 5:51:52 AM 8.5675 47.4215 485.5 7.931 3.540001 8.567497
11/13/2020 6:06:52 AM 8.12 46.616 490.4 7.931 3.699997 8.120003
11/13/2020 6:21:52 AM 7.93 46.274 491.5 7.938 3.582497 7.93
11/13/2020 6:36:52 AM 7.81 46.058 491.15 7.9324 3.565002 7.809998
11/13/2020 6:51:52 AM 7.895 46.211 488.0499 7.9345 3.599998 7.894997
11/13/2020 7:06:52 AM 8.24 46.832 480.3501 7.9324 3.597504 8.239998
11/13/2020 7:21:52 AM 8.415 47.147 475.15 7.9324 3.595001 8.415001
11/13/2020 7:36:52 AM 8.5 47.3 471.3501 7.9352 3.612503 8.5
11/13/2020 7:51:52 AM 8.1 46.58 474.1 7.9324 3.612503 8.099998
11/13/2020 8:06:52 AM 7.79 46.022 475.9 7.938 3.667503 7.790001
11/13/2020 8:21:52 AM 7.635 45.743 474.9 7.938 3.6325 7.635002
11/13/2020 8:36:52 AM 7.93 46.274 467.6 7.938 3.665001 7.93
11/13/2020 8:51:52 AM 8.2025 46.7645 460.6499 7.9373 3.629997 8.202499
11/13/2020 9:06:52 AM 8.3775 47.0795 455.1 7.9408 3.647499 8.377502
11/13/2020 9:21:52 AM 8.22 46.796 454.4 7.9408 3.627502 8.220001
11/13/2020 9:36:52 AM 7.8575 46.1435 456.2 7.9408 3.647499 7.857498
11/13/2020 9:51:53 AM 7.7725 45.9905 454.8 7.9457 3.629997 7.772499
11/13/2020 10:06:52 AM 7.7225 45.9005 452.7501 7.9506 3.720001 7.722504
11/13/2020 10:21:52 AM 7.7025 45.8645 449.9 7.9534 3.699997 7.702499
11/13/2020 10:36:52 AM 7.705 45.869 447.5 7.9177 3.684998 7.705002
11/13/2020 10:51:52 AM 7.755 45.959 444.1 7.9373 3.699997 7.754997
11/13/2020 11:06:52 AM 7.7725 45.9905 441.3501 7.9415 3.720001 7.772499
11/13/2020 11:21:52 AM 7.7725 45.9905 438.55 7.9478 3.705002 7.772499
11/13/2020 11:36:52 AM 7.81 46.058 435.1 7.9506 3.699997 7.809998
11/13/2020 11:51:52 AM 7.86 46.148 431.6 7.9555 3.6875 7.860001
11/13/2020 12:06:52 PM 7.8575 46.1435 428.5 7.9604 3.682503 7.857498
11/13/2020 12:21:52 PM 7.8775 46.1795 425.4 7.966 3.699997 7.877502
11/13/2020 12:36:52 PM 7.91 46.238 421.9 7.9751 3.662498 7.910004
11/13/2020 12:51:53 PM 7.945 46.301 418.7501 7.9814 3.702499 7.945
11/13/2020 1:06:52 PM 7.98 46.364 415.3501 7.991899 3.699997 7.980003
11/13/2020 1:21:52 PM 8.03 46.454 411.55 7.999599 3.75 8.029999
11/13/2020 1:36:52 PM 8.1 46.58 408.45 8.014299 3.699997 8.099998
11/13/2020 1:51:52 PM 8.17 46.706 404.9 8.028999 3.695 8.169998
11/13/2020 2:06:52 PM 8.2725 46.8905 400.7501 8.057699 3.712502 8.272499
11/13/2020 2:21:52 PM 8.3075 46.9535 397.6499 8.071699 3.732498 8.307503
11/13/2020 2:36:52 PM 8.36 47.048 394.9 8.087099 3.75 8.360001
11/13/2020 2:51:52 PM 8.3925 47.1065 391.7501 8.113001 3.785004 8.392502
11/13/2020 3:06:52 PM 8.4125 47.1425 388.6499 8.134701 3.782501 8.412498
11/13/2020 3:21:52 PM 8.43 47.174 385.9 8.145901 3.940002 8.43
11/13/2020 3:36:52 PM 8.515 47.327 382.0499 8.152201 3.870003 8.514999
11/13/2020 3:51:52 PM 8.48 47.264 379.6499 8.152201 3.904999 8.480003
11/13/2020 4:06:52 PM 8.6375 47.5475 375.15 8.156401 3.9925 8.637497
11/13/2020 4:21:52 PM 8.7925 47.8265 370.6499 8.155001 3.974998 8.792503
11/13/2020 4:36:52 PM 8.88 47.984 367.15 8.159901 4.074997 8.879997
11/13/2020 4:51:52 PM 8.86 47.948 364.7 8.159901 4.127502 8.860001
11/13/2020 5:06:52 PM 8.6375 47.5475 364.7501 8.159901 4.235001 8.637497
11/13/2020 5:21:52 PM 8.515 47.327 363.7501 8.154301 4.252502 8.514999
11/13/2020 5:36:52 PM 8.4475 47.2055 362.3501 8.145901 4.287498 8.447502
11/13/2020 5:51:53 PM 8.395 47.111 360.9501 8.136101 4.377502 8.394997
11/13/2020 6:06:52 PM 8.36 47.048 359.3 8.127001 4.43 8.360001
11/13/2020 6:21:52 PM 8.29 46.922 358.2 8.121401 4.514999 8.290001
11/13/2020 6:36:53 PM 8.24 46.832 357.2 8.111601 4.552498 8.239998
11/13/2020 6:51:53 PM 8.2225 46.8005 355.5 8.107401 4.622498 8.222504
11/13/2020 7:06:53 PM 8.1875 46.7375 354.5 8.098301 4.639999 8.1875
11/13/2020 7:21:53 PM 8.17 46.706 353.4 8.093399 4.675003 8.169998
11/13/2020 7:36:53 PM 8.1525 46.6745 352.4 8.089199 4.724998 8.152496
11/13/2020 7:51:53 PM 8.12 46.616 351.7 8.077299 4.760002 8.120003
11/13/2020 8:06:52 PM 8.085 46.553 351.3501 8.073799 4.760002 8.084999
11/13/2020 8:21:53 PM 8.05 46.49 351.0499 8.063999 4.797501 8.050003
11/13/2020 8:36:52 PM 7.98 46.364 351 8.053499 4.797501 7.980003
11/13/2020 8:51:52 PM 7.9975 46.3955 350 8.044399 4.830002 7.997498
11/13/2020 9:06:52 PM 8.225 46.805 346.85 8.028999 4.8125 8.224998
11/13/2020 9:21:53 PM 8.3425 47.0165 345.1 8.009399 4.8125 8.342499
11/13/2020 9:36:52 PM 8.4125 47.1425 344 7.9884 4.7575 8.412498
11/13/2020 9:51:53 PM 8.4475 47.2055 343.3 7.9751 4.7575 8.447502
11/13/2020 10:06:53 PM 8.4275 47.1695 343.3501 7.9604 4.737503 8.427498
11/13/2020 10:21:53 PM 8.1 46.58 346.45 7.9443 4.7575 8.099998
11/13/2020 10:36:53 PM 7.9425 46.2965 348.2 7.9366 4.739998 7.942497
11/13/2020 10:51:53 PM 7.8575 46.1435 349.2499 7.9268 4.775002 7.857498
11/13/2020 11:06:53 PM 7.7725 45.9905 349.9501 7.9219 4.690002 7.772499
11/13/2020 11:21:53 PM 7.735 45.923 350.7 7.9177 4.677498 7.735001
11/13/2020 11:36:53 PM 7.685 45.833 351.3501 7.9086 4.675003 7.684998
11/14/2020 12:06:53 AM 7.945 46.301 348.55 7.8981 4.57 7.945
11/14/2020 12:21:53 AM 8.0825 46.5485 347.15 7.8925 4.480003 8.082497
11/14/2020 12:36:53 AM 8.1525 46.6745 346.8 7.889 4.427498 8.152496
11/14/2020 12:51:53 AM 8.185 46.733 346.45 7.8841 4.342499 8.1875
11/14/2020 1:06:53 AM 8.2025 46.7645 346.4 7.8778 4.287498 8.202499
11/14/2020 1:21:52 AM 8.2025 46.7645 346.4 7.8722 4.252502 8.202499
11/14/2020 1:36:53 AM 8.22 46.796 346.7501 7.8673 4.217499 8.220001
11/14/2020 1:51:53 AM 8.2025 46.7645 347.1 7.8624 4.184998 8.202499
11/14/2020 2:06:53 AM 8.2025 46.7645 347.1 7.861 4.162498 8.202499
11/14/2020 2:21:53 AM 8.2 46.76 347.45 7.8589 4.077499 8.199997
11/14/2020 2:36:53 AM 8.2025 46.7645 347.7501 7.8575 4.059998 8.202499
11/14/2020 2:51:53 AM 8.2 46.76 348.1 7.8533 4.0075 8.199997
11/14/2020 3:06:53 AM 8.185 46.733 348.5 7.8519 4.0075 8.184998
11/14/2020 3:21:53 AM 8.1675 46.7015 348.85 7.847 3.955002 8.167503
11/14/2020 3:36:53 AM 7.8375 46.1075 352.7 7.8491 3.955002 7.837502
11/14/2020 3:51:53 AM 7.5975 45.6755 355.15 7.8435 3.922501 7.597504
11/14/2020 4:06:53 AM 7.4775 45.4595 356.85 7.8428 3.907501 7.477501
11/14/2020 4:21:53 AM 7.3725 45.2705 357.9501 7.84 3.927498 7.372498
11/14/2020 4:36:53 AM 7.305 45.149 358.9501 7.8407 3.857498 7.305
11/14/2020 4:51:53 AM 7.235 45.023 360.0499 7.8372 3.842499 7.235001
11/14/2020 5:06:53 AM 7.15 44.87 361.1 7.8358 3.842499 7.150002
11/14/2020 5:21:53 AM 7.115 44.807 361.45 7.8358 3.809998 7.114998
11/14/2020 5:36:53 AM 7.495 45.491 357.2499 7.8351 3.805 7.495003
11/14/2020 5:51:53 AM 7.735 45.923 354.8 7.8309 3.767502 7.735001
11/14/2020 6:06:53 AM 7.8575 46.1435 353.7501 7.8302 3.767502 7.857498
11/14/2020 6:21:53 AM 7.9075 46.2335 353.3501 7.8281 3.747498 7.907501
11/14/2020 6:36:53 AM 7.94 46.292 353 7.8232 3.712502 7.940002
11/14/2020 6:51:53 AM 7.9225 46.2605 353.3501 7.8232 3.849998 7.922501
11/14/2020 7:06:53 AM 7.3875 45.2975 359.3 7.8204 3.730003 7.387497
11/14/2020 7:21:53 AM 7.11 44.798 362.45 7.8211 3.669998 7.110001
11/14/2020 7:36:53 AM 6.9925 44.5865 364.15 7.8162 3.6875 6.9925
11/14/2020 7:51:53 AM 7.25 45.05 361.3501 7.8155 3.6325 7.25
11/14/2020 8:06:53 AM 7.545 45.581 357.9 7.8155 3.644997 7.544998
11/14/2020 8:21:53 AM 7.7 45.86 356.15 7.8134 3.629997 7.699997
11/14/2020 8:36:53 AM 7.785 46.013 355.45 7.8141 3.595001 7.785004
11/14/2020 8:51:53 AM 7.8525 46.1345 354.7 7.8141 3.540001 7.852501
11/14/2020 9:06:53 AM 7.525 45.545 358.55 7.8183 3.542503 7.525002
11/14/2020 9:21:53 AM 7.2675 45.0815 361.7 7.8239 3.522499 7.267502
11/14/2020 9:36:53 AM 7.1625 44.8925 363.1 7.8309 3.489998 7.162498
11/14/2020 9:51:53 AM 7.32 45.176 361.7 7.8337 3.489998 7.32
11/14/2020 10:06:53 AM 7.63 45.734 358.2 7.8379 3.4375 7.629997
11/14/2020 10:21:53 AM 7.8025 46.0445 356.8 7.8428 3.419998 7.802498
11/14/2020 10:36:53 AM 7.89 46.202 355.7501 7.8463 3.3825 7.889999
11/14/2020 10:51:53 AM 7.835 46.103 356.8 7.8533 3.364998 7.834999
11/14/2020 11:06:53 AM 7.44 45.392 361.3 7.8582 3.332497 7.440002
11/14/2020 11:21:53 AM 7.2475 45.0455 363.4 7.8645 3.334999 7.247498
11/14/2020 11:36:53 AM 7.235 45.023 364.1 7.8673 3.387497 7.235001
11/14/2020 11:51:53 AM 7.2175 44.9915 364.45 7.8498 3.282501 7.217499
11/14/2020 12:06:53 PM 7.39 45.302 362.7501 7.8575 3.317497 7.387497
11/14/2020 12:21:53 PM 7.68 45.824 359.9501 7.8897 3.279999 7.68
11/14/2020 12:36:53 PM 7.855 46.139 358.2 7.9065 3.260002 7.855003
11/14/2020 12:51:53 PM 7.9575 46.3235 357.45 7.9016 3.239998 7.957497
11/14/2020 1:06:53 PM 7.7325 45.9185 360.2499 7.9352 3.224998 7.732498
11/14/2020 1:21:53 PM 7.5275 45.5495 363.0499 7.9163 3.192497 7.527496
11/14/2020 1:36:53 PM 7.4375 45.3875 364.1 7.9373 3.177498 7.4375
11/14/2020 1:51:53 PM 7.4225 45.3605 364.8 7.9611 3.160004 7.422501
11/14/2020 2:06:53 PM 7.4225 45.3605 365.15 7.9751 3.144997 7.422501
11/14/2020 2:21:53 PM 7.4225 45.3605 365.15 7.9576 3.129997 7.422501
11/14/2020 2:36:53 PM 7.44 45.392 365.15 8.032499 3.072502 7.440002
11/14/2020 2:51:53 PM 7.42 45.356 365.5 8.069599 3.059998 7.419998
11/14/2020 3:06:53 PM 7.475 45.455 365.5 8.084299 3.040001 7.474998
11/14/2020 3:21:53 PM 7.4575 45.4235 365.85 8.063999 3.040001 7.457497
11/14/2020 3:36:53 PM 7.4575 45.4235 365.85 8.089199 3.019997 7.457497
11/14/2020 3:51:53 PM 7.475 45.455 366.2 8.113001 3.004997 7.474998
11/14/2020 4:06:53 PM 7.4925 45.4865 366.2 8.137501 2.970001 7.4925
11/14/2020 4:21:53 PM 7.475 45.455 366.6 8.111601 2.952499 7.474998
11/14/2020 4:36:53 PM 7.4225 45.3605 366.9 8.142401 2.9375 7.422501
11/14/2020 4:51:53 PM 7.3725 45.2705 367.55 8.165501 2.917503 7.372498
11/14/2020 5:06:53 PM 7.3025 45.1445 368.3 8.2145 2.885002 7.302498
11/14/2020 5:21:53 PM 7.2525 45.0545 369 8.2187 2.885002 7.252502
11/14/2020 5:36:53 PM 7.2 44.96 369.7501 8.2201 2.870003 7.199997
11/14/2020 5:51:53 PM 7.165 44.897 370.0499 8.225 2.887497 7.165001
11/14/2020 6:06:53 PM 7.13 44.834 370.4 8.191401 2.904999 7.129997
11/14/2020 6:21:53 PM 7.0975 44.7755 371.15 8.2012 2.872498 7.097504
11/14/2020 6:36:53 PM 7.045 44.681 371.5 8.2054 2.852501 7.044998
11/14/2020 6:51:53 PM 7.03 44.654 371.8 8.2159 2.872498 7.029999
11/14/2020 7:06:53 PM 7.03 44.654 372.15 8.2194 2.855003 7.029999
11/14/2020 7:21:53 PM 7.01 44.618 372.55 8.2264 2.855003 7.010002
11/14/2020 7:36:53 PM 7.0125 44.6225 372.5 8.2313 2.857498 7.012497
11/14/2020 7:51:53 PM 7.4075 45.3335 368 8.2355 2.852501 7.407501
11/14/2020 8:06:53 PM 7.6475 45.7655 365.15 8.2404 2.849998 7.647499
11/14/2020 8:21:53 PM 7.77 45.986 363.7501 8.2432 2.849998 7.769997
11/14/2020 8:36:53 PM 7.8375 46.1075 363.0499 8.2439 2.847504 7.837502
11/14/2020 8:51:53 PM 7.89 46.202 362.4 8.2481 2.792503 7.889999
11/14/2020 9:06:53 PM 7.9225 46.2605 362 8.2481 2.827499 7.922501
11/14/2020 9:21:53 PM 7.94 46.292 361.9501 8.2481 2.8125 7.940002
11/14/2020 9:36:53 PM 7.4925 45.4865 367.2 8.2418 2.777496 7.4925
11/14/2020 9:51:53 PM 7.13 44.834 371.45 8.2376 2.800003 7.129997
11/14/2020 10:06:53 PM 7.0625 44.7125 372.1 8.2355 2.782501 7.0625
11/14/2020 10:21:53 PM 7.46 45.428 367.9501 8.2285 2.764999 7.459999
11/14/2020 10:36:53 PM 7.6475 45.7655 365.5 8.2236 2.777496 7.647499
11/14/2020 10:51:53 PM 7.75 45.95 364.45 8.2187 2.779999 7.75
11/14/2020 11:06:53 PM 7.8 46.04 363.7501 8.2089 2.7575 7.800003
11/14/2020 11:21:53 PM 7.8025 46.0445 363.3501 8.1984 2.760002 7.802498
11/14/2020 11:36:53 PM 7.4525 45.4145 367.2 8.190701 2.777496 7.452499
11/15/2020 12:06:53 AM 6.7825 44.2085 374.9 8.162001 2.767502 6.782501
11/15/2020 12:21:53 AM 7.0275 44.6495 371.7501 8.145901 2.764999 7.027496
11/15/2020 12:36:53 AM 7.3025 45.1445 368.6 8.127701 2.779999 7.302498
11/15/2020 12:51:53 AM 7.4225 45.3605 366.9 8.111601 2.760002 7.422501
11/15/2020 1:06:53 AM 7.4925 45.4865 365.85 8.101801 2.762497 7.4925
11/15/2020 1:21:53 AM 7.505 45.509 365.45 8.087099 2.7575 7.504997
11/15/2020 1:36:53 AM 7.5225 45.5405 365.45 8.071699 2.760002 7.522499
11/15/2020 1:51:53 AM 7.47 45.446 365.8 8.062599 2.7575 7.470001
11/15/2020 2:06:53 AM 6.955 44.519 371.6499 8.052099 2.760002 6.955002
11/15/2020 2:21:53 AM 6.695 44.051 374.85 8.040199 2.764999 6.695
11/15/2020 2:36:53 AM 6.59 43.862 376.2499 8.031799 2.782501 6.589996
11/15/2020 2:51:53 AM 6.61 43.898 376.3 8.020599 2.785004 6.610001
11/15/2020 3:06:53 AM 6.975 44.555 372.1 8.005199 2.832497 6.974998
11/15/2020 3:21:53 AM 7.1625 44.8925 369.9501 8.000299 2.779999 7.162498
11/15/2020 3:36:53 AM 7.2825 45.1085 368.6 7.989799 2.760002 7.282501
11/15/2020 3:51:53 AM 7.3175 45.1715 368.2 7.9842 2.760002 7.317497
11/15/2020 4:06:53 AM 7.3875 45.2975 367.9 7.9737 2.760002 7.387497
11/15/2020 4:21:53 AM 7.42 45.356 367.5 7.9695 2.7575 7.419998
11/15/2020 4:36:53 AM 7.3475 45.2255 368.2 7.966 2.777496 7.347504
11/15/2020 4:51:53 AM 6.9375 44.4875 373.4 7.9597 2.745003 6.9375
11/15/2020 5:06:53 AM 6.78 44.204 375.2 7.9534 2.760002 6.779999
11/15/2020 5:21:53 AM 6.71 44.078 376.2499 7.9471 2.745003 6.709999
11/15/2020 5:36:53 AM 6.9875 44.5775 373.1 7.9422 2.760002 6.987503
11/15/2020 5:51:53 AM 7.145 44.861 371.3 7.9352 2.7425 7.144997
11/15/2020 6:06:53 AM 7.2125 44.9825 370.6499 7.9317 2.7425 7.212502
11/15/2020 6:21:53 AM 7.245 45.041 370.2499 7.9317 2.739998 7.245003
11/15/2020 6:36:54 AM 7.2625 45.0725 370.6 7.9261 2.7425 7.262497
11/15/2020 6:51:54 AM 7.2625 45.0725 370.6 7.9261 2.775002 7.262497
11/15/2020 7:06:53 AM 7.28 45.104 370.6 7.9639 2.760002 7.279999
11/15/2020 7:21:54 AM 7.2775 45.0995 370.6 7.959 2.7575 7.277496
11/15/2020 7:36:53 AM 6.8975 44.4155 375.1 7.9611 2.724998 6.8974